<?xml version="1.0" encoding="UTF-8" standalone="no" ?>
<gpx xmlns="http://www.topografix.com/GPX/1/1" xmlns:xsi="http://www.w3.org/2001/XMLSchema-instance" xsi:schemaLocation="http://www.topografix.com/GPX/1/1 http://www.topografix.com/GPX/1/1/gpx.xsd" version="1.1" creator="VisuGPX - https://www.visugpx.com">
  <metadata>
    <name>Marche nordique</name>
    <desc><![CDATA[Avec le groupe de 8h à 10h]]></desc>
  </metadata>
  <trk>
    <name><![CDATA[15/12/12 07:59]]></name>
    <desc><![CDATA[]]></desc>
    <trkseg>
      <trkpt lat="47.2981" lon="4.93653">
        <ele>569</ele>
        <time>2012-12-15T07:00:28Z</time>
      </trkpt>
      <trkpt lat="47.29803" lon="4.93648">
        <ele>574</ele>
        <time>2012-12-15T07:00:29Z</time>
      </trkpt>
      <trkpt lat="47.29803" lon="4.93648">
        <ele>574</ele>
        <time>2012-12-15T07:00:29Z</time>
      </trkpt>
      <trkpt lat="47.29803" lon="4.93648">
        <ele>572</ele>
        <time>2012-12-15T07:00:30Z</time>
      </trkpt>
      <trkpt lat="47.29779" lon="4.93636">
        <ele>542</ele>
        <time>2012-12-15T07:01:02Z</time>
      </trkpt>
      <trkpt lat="47.29783" lon="4.93641">
        <ele>543</ele>
        <time>2012-12-15T07:01:04Z</time>
      </trkpt>
      <trkpt lat="47.29797" lon="4.93661">
        <ele>555</ele>
        <time>2012-12-15T07:01:06Z</time>
      </trkpt>
      <trkpt lat="47.29793" lon="4.93649">
        <ele>547</ele>
        <time>2012-12-15T07:01:07Z</time>
      </trkpt>
      <trkpt lat="47.29779" lon="4.93638">
        <ele>542</ele>
        <time>2012-12-15T07:01:09Z</time>
      </trkpt>
      <trkpt lat="47.29779" lon="4.93638">
        <ele>542</ele>
        <time>2012-12-15T07:01:09Z</time>
      </trkpt>
      <trkpt lat="47.29779" lon="4.93638">
        <ele>544</ele>
        <time>2012-12-15T07:04:08Z</time>
      </trkpt>
      <trkpt lat="47.29784" lon="4.93637">
        <ele>539</ele>
        <time>2012-12-15T07:08:03Z</time>
      </trkpt>
      <trkpt lat="47.2978" lon="4.93634">
        <ele>539</ele>
        <time>2012-12-15T07:09:40Z</time>
      </trkpt>
      <trkpt lat="47.29784" lon="4.93632">
        <ele>542</ele>
        <time>2012-12-15T07:11:55Z</time>
      </trkpt>
      <trkpt lat="47.29789" lon="4.93629">
        <ele>541</ele>
        <time>2012-12-15T07:11:59Z</time>
      </trkpt>
      <trkpt lat="47.29792" lon="4.93624">
        <ele>541</ele>
        <time>2012-12-15T07:12:03Z</time>
      </trkpt>
      <trkpt lat="47.29797" lon="4.93621">
        <ele>541</ele>
        <time>2012-12-15T07:12:07Z</time>
      </trkpt>
      <trkpt lat="47.298" lon="4.93616">
        <ele>541</ele>
        <time>2012-12-15T07:12:13Z</time>
      </trkpt>
      <trkpt lat="47.29804" lon="4.93611">
        <ele>541</ele>
        <time>2012-12-15T07:12:17Z</time>
      </trkpt>
      <trkpt lat="47.29807" lon="4.93605">
        <ele>541</ele>
        <time>2012-12-15T07:12:21Z</time>
      </trkpt>
      <trkpt lat="47.29809" lon="4.93599">
        <ele>542</ele>
        <time>2012-12-15T07:12:26Z</time>
      </trkpt>
      <trkpt lat="47.29813" lon="4.93595">
        <ele>543</ele>
        <time>2012-12-15T07:12:30Z</time>
      </trkpt>
      <trkpt lat="47.29818" lon="4.93591">
        <ele>544</ele>
        <time>2012-12-15T07:12:34Z</time>
      </trkpt>
      <trkpt lat="47.29821" lon="4.93586">
        <ele>545</ele>
        <time>2012-12-15T07:12:41Z</time>
      </trkpt>
      <trkpt lat="47.29825" lon="4.9358">
        <ele>545</ele>
        <time>2012-12-15T07:12:46Z</time>
      </trkpt>
      <trkpt lat="47.29829" lon="4.93576">
        <ele>546</ele>
        <time>2012-12-15T07:12:49Z</time>
      </trkpt>
      <trkpt lat="47.29833" lon="4.93569">
        <ele>545</ele>
        <time>2012-12-15T07:12:53Z</time>
      </trkpt>
      <trkpt lat="47.29838" lon="4.93566">
        <ele>547</ele>
        <time>2012-12-15T07:12:56Z</time>
      </trkpt>
      <trkpt lat="47.29843" lon="4.93564">
        <ele>550</ele>
        <time>2012-12-15T07:13:00Z</time>
      </trkpt>
      <trkpt lat="47.29846" lon="4.93559">
        <ele>551</ele>
        <time>2012-12-15T07:13:04Z</time>
      </trkpt>
      <trkpt lat="47.2985" lon="4.93555">
        <ele>553</ele>
        <time>2012-12-15T07:13:08Z</time>
      </trkpt>
      <trkpt lat="47.29854" lon="4.9355">
        <ele>555</ele>
        <time>2012-12-15T07:13:14Z</time>
      </trkpt>
      <trkpt lat="47.29859" lon="4.93546">
        <ele>557</ele>
        <time>2012-12-15T07:13:22Z</time>
      </trkpt>
      <trkpt lat="47.29863" lon="4.93541">
        <ele>557</ele>
        <time>2012-12-15T07:13:24Z</time>
      </trkpt>
      <trkpt lat="47.29868" lon="4.93534">
        <ele>556</ele>
        <time>2012-12-15T07:13:26Z</time>
      </trkpt>
      <trkpt lat="47.29873" lon="4.9353">
        <ele>556</ele>
        <time>2012-12-15T07:13:28Z</time>
      </trkpt>
      <trkpt lat="47.29879" lon="4.93529">
        <ele>556</ele>
        <time>2012-12-15T07:13:31Z</time>
      </trkpt>
      <trkpt lat="47.29884" lon="4.93525">
        <ele>556</ele>
        <time>2012-12-15T07:13:34Z</time>
      </trkpt>
      <trkpt lat="47.29889" lon="4.93523">
        <ele>555</ele>
        <time>2012-12-15T07:13:39Z</time>
      </trkpt>
      <trkpt lat="47.29894" lon="4.93519">
        <ele>555</ele>
        <time>2012-12-15T07:13:41Z</time>
      </trkpt>
      <trkpt lat="47.29899" lon="4.93515">
        <ele>554</ele>
        <time>2012-12-15T07:13:44Z</time>
      </trkpt>
      <trkpt lat="47.29903" lon="4.93509">
        <ele>554</ele>
        <time>2012-12-15T07:13:49Z</time>
      </trkpt>
      <trkpt lat="47.29908" lon="4.935">
        <ele>552</ele>
        <time>2012-12-15T07:13:52Z</time>
      </trkpt>
      <trkpt lat="47.29911" lon="4.93496">
        <ele>551</ele>
        <time>2012-12-15T07:13:54Z</time>
      </trkpt>
      <trkpt lat="47.29915" lon="4.93489">
        <ele>550</ele>
        <time>2012-12-15T07:13:57Z</time>
      </trkpt>
      <trkpt lat="47.29918" lon="4.93484">
        <ele>550</ele>
        <time>2012-12-15T07:14:00Z</time>
      </trkpt>
      <trkpt lat="47.29922" lon="4.93476">
        <ele>551</ele>
        <time>2012-12-15T07:14:10Z</time>
      </trkpt>
      <trkpt lat="47.29927" lon="4.93471">
        <ele>553</ele>
        <time>2012-12-15T07:14:13Z</time>
      </trkpt>
      <trkpt lat="47.29931" lon="4.93466">
        <ele>554</ele>
        <time>2012-12-15T07:14:15Z</time>
      </trkpt>
      <trkpt lat="47.29934" lon="4.93461">
        <ele>553</ele>
        <time>2012-12-15T07:14:17Z</time>
      </trkpt>
      <trkpt lat="47.29939" lon="4.93458">
        <ele>553</ele>
        <time>2012-12-15T07:14:18Z</time>
      </trkpt>
      <trkpt lat="47.29942" lon="4.93453">
        <ele>555</ele>
        <time>2012-12-15T07:14:20Z</time>
      </trkpt>
      <trkpt lat="47.29947" lon="4.93447">
        <ele>556</ele>
        <time>2012-12-15T07:14:23Z</time>
      </trkpt>
      <trkpt lat="47.2995" lon="4.93441">
        <ele>556</ele>
        <time>2012-12-15T07:14:26Z</time>
      </trkpt>
      <trkpt lat="47.29952" lon="4.93434">
        <ele>552</ele>
        <time>2012-12-15T07:14:30Z</time>
      </trkpt>
      <trkpt lat="47.29954" lon="4.93427">
        <ele>553</ele>
        <time>2012-12-15T07:14:33Z</time>
      </trkpt>
      <trkpt lat="47.29952" lon="4.9342">
        <ele>552</ele>
        <time>2012-12-15T07:14:37Z</time>
      </trkpt>
      <trkpt lat="47.29953" lon="4.93413">
        <ele>554</ele>
        <time>2012-12-15T07:14:40Z</time>
      </trkpt>
      <trkpt lat="47.29953" lon="4.93406">
        <ele>554</ele>
        <time>2012-12-15T07:14:45Z</time>
      </trkpt>
      <trkpt lat="47.29955" lon="4.93399">
        <ele>555</ele>
        <time>2012-12-15T07:14:47Z</time>
      </trkpt>
      <trkpt lat="47.29958" lon="4.93392">
        <ele>556</ele>
        <time>2012-12-15T07:14:50Z</time>
      </trkpt>
      <trkpt lat="47.29961" lon="4.93385">
        <ele>557</ele>
        <time>2012-12-15T07:14:53Z</time>
      </trkpt>
      <trkpt lat="47.29963" lon="4.93378">
        <ele>556</ele>
        <time>2012-12-15T07:14:56Z</time>
      </trkpt>
      <trkpt lat="47.29965" lon="4.93371">
        <ele>558</ele>
        <time>2012-12-15T07:15:00Z</time>
      </trkpt>
      <trkpt lat="47.29967" lon="4.93364">
        <ele>559</ele>
        <time>2012-12-15T07:15:03Z</time>
      </trkpt>
      <trkpt lat="47.29969" lon="4.93359">
        <ele>560</ele>
        <time>2012-12-15T07:15:06Z</time>
      </trkpt>
      <trkpt lat="47.29972" lon="4.93352">
        <ele>561</ele>
        <time>2012-12-15T07:15:09Z</time>
      </trkpt>
      <trkpt lat="47.2997" lon="4.93343">
        <ele>562</ele>
        <time>2012-12-15T07:15:12Z</time>
      </trkpt>
      <trkpt lat="47.29972" lon="4.93336">
        <ele>562</ele>
        <time>2012-12-15T07:15:14Z</time>
      </trkpt>
      <trkpt lat="47.29971" lon="4.93329">
        <ele>561</ele>
        <time>2012-12-15T07:15:17Z</time>
      </trkpt>
      <trkpt lat="47.29971" lon="4.93329">
        <ele>561</ele>
        <time>2012-12-15T07:15:17Z</time>
      </trkpt>
      <trkpt lat="47.29971" lon="4.93329">
        <ele>561</ele>
        <time>2012-12-15T07:15:18Z</time>
      </trkpt>
      <trkpt lat="47.29973" lon="4.93322">
        <ele>560</ele>
        <time>2012-12-15T07:15:20Z</time>
      </trkpt>
      <trkpt lat="47.29975" lon="4.93314">
        <ele>559</ele>
        <time>2012-12-15T07:15:24Z</time>
      </trkpt>
      <trkpt lat="47.29976" lon="4.93306">
        <ele>557</ele>
        <time>2012-12-15T07:15:28Z</time>
      </trkpt>
      <trkpt lat="47.29977" lon="4.93298">
        <ele>555</ele>
        <time>2012-12-15T07:15:31Z</time>
      </trkpt>
      <trkpt lat="47.2998" lon="4.93288">
        <ele>554</ele>
        <time>2012-12-15T07:15:34Z</time>
      </trkpt>
      <trkpt lat="47.29982" lon="4.93281">
        <ele>555</ele>
        <time>2012-12-15T07:15:36Z</time>
      </trkpt>
      <trkpt lat="47.29982" lon="4.93274">
        <ele>561</ele>
        <time>2012-12-15T07:15:41Z</time>
      </trkpt>
      <trkpt lat="47.29984" lon="4.93268">
        <ele>562</ele>
        <time>2012-12-15T07:15:44Z</time>
      </trkpt>
      <trkpt lat="47.29982" lon="4.93261">
        <ele>561</ele>
        <time>2012-12-15T07:15:47Z</time>
      </trkpt>
      <trkpt lat="47.29982" lon="4.93253">
        <ele>562</ele>
        <time>2012-12-15T07:15:50Z</time>
      </trkpt>
      <trkpt lat="47.29984" lon="4.93245">
        <ele>562</ele>
        <time>2012-12-15T07:15:53Z</time>
      </trkpt>
      <trkpt lat="47.29984" lon="4.93236">
        <ele>560</ele>
        <time>2012-12-15T07:15:56Z</time>
      </trkpt>
      <trkpt lat="47.29984" lon="4.93227">
        <ele>559</ele>
        <time>2012-12-15T07:16:00Z</time>
      </trkpt>
      <trkpt lat="47.29982" lon="4.93221">
        <ele>562</ele>
        <time>2012-12-15T07:16:05Z</time>
      </trkpt>
      <trkpt lat="47.29981" lon="4.93212">
        <ele>562</ele>
        <time>2012-12-15T07:16:09Z</time>
      </trkpt>
      <trkpt lat="47.29985" lon="4.93205">
        <ele>561</ele>
        <time>2012-12-15T07:16:12Z</time>
      </trkpt>
      <trkpt lat="47.29988" lon="4.93198">
        <ele>562</ele>
        <time>2012-12-15T07:16:15Z</time>
      </trkpt>
      <trkpt lat="47.29988" lon="4.93191">
        <ele>563</ele>
        <time>2012-12-15T07:16:18Z</time>
      </trkpt>
      <trkpt lat="47.29988" lon="4.93182">
        <ele>565</ele>
        <time>2012-12-15T07:16:21Z</time>
      </trkpt>
      <trkpt lat="47.29989" lon="4.93175">
        <ele>565</ele>
        <time>2012-12-15T07:16:24Z</time>
      </trkpt>
      <trkpt lat="47.2999" lon="4.93167">
        <ele>566</ele>
        <time>2012-12-15T07:16:28Z</time>
      </trkpt>
      <trkpt lat="47.29991" lon="4.93159">
        <ele>567</ele>
        <time>2012-12-15T07:16:34Z</time>
      </trkpt>
      <trkpt lat="47.29993" lon="4.93152">
        <ele>565</ele>
        <time>2012-12-15T07:16:39Z</time>
      </trkpt>
      <trkpt lat="47.29994" lon="4.93146">
        <ele>564</ele>
        <time>2012-12-15T07:16:42Z</time>
      </trkpt>
      <trkpt lat="47.29997" lon="4.93138">
        <ele>563</ele>
        <time>2012-12-15T07:16:47Z</time>
      </trkpt>
      <trkpt lat="47.30002" lon="4.93131">
        <ele>563</ele>
        <time>2012-12-15T07:16:50Z</time>
      </trkpt>
      <trkpt lat="47.30004" lon="4.93126">
        <ele>564</ele>
        <time>2012-12-15T07:16:52Z</time>
      </trkpt>
      <trkpt lat="47.30007" lon="4.9312">
        <ele>565</ele>
        <time>2012-12-15T07:16:55Z</time>
      </trkpt>
      <trkpt lat="47.3001" lon="4.93114">
        <ele>564</ele>
        <time>2012-12-15T07:16:58Z</time>
      </trkpt>
      <trkpt lat="47.30012" lon="4.93106">
        <ele>565</ele>
        <time>2012-12-15T07:17:02Z</time>
      </trkpt>
      <trkpt lat="47.30016" lon="4.93099">
        <ele>564</ele>
        <time>2012-12-15T07:17:05Z</time>
      </trkpt>
      <trkpt lat="47.30019" lon="4.93093">
        <ele>564</ele>
        <time>2012-12-15T07:17:07Z</time>
      </trkpt>
      <trkpt lat="47.30022" lon="4.93087">
        <ele>564</ele>
        <time>2012-12-15T07:17:10Z</time>
      </trkpt>
      <trkpt lat="47.30023" lon="4.9308">
        <ele>564</ele>
        <time>2012-12-15T07:17:13Z</time>
      </trkpt>
      <trkpt lat="47.30021" lon="4.93074">
        <ele>565</ele>
        <time>2012-12-15T07:17:16Z</time>
      </trkpt>
      <trkpt lat="47.30027" lon="4.93068">
        <ele>568</ele>
        <time>2012-12-15T07:17:21Z</time>
      </trkpt>
      <trkpt lat="47.30032" lon="4.93062">
        <ele>568</ele>
        <time>2012-12-15T07:17:24Z</time>
      </trkpt>
      <trkpt lat="47.30034" lon="4.93056">
        <ele>567</ele>
        <time>2012-12-15T07:17:26Z</time>
      </trkpt>
      <trkpt lat="47.30037" lon="4.93051">
        <ele>567</ele>
        <time>2012-12-15T07:17:29Z</time>
      </trkpt>
      <trkpt lat="47.3004" lon="4.93045">
        <ele>565</ele>
        <time>2012-12-15T07:17:31Z</time>
      </trkpt>
      <trkpt lat="47.30042" lon="4.93039">
        <ele>564</ele>
        <time>2012-12-15T07:17:34Z</time>
      </trkpt>
      <trkpt lat="47.30044" lon="4.93032">
        <ele>566</ele>
        <time>2012-12-15T07:17:38Z</time>
      </trkpt>
      <trkpt lat="47.30047" lon="4.93026">
        <ele>566</ele>
        <time>2012-12-15T07:17:41Z</time>
      </trkpt>
      <trkpt lat="47.3005" lon="4.93018">
        <ele>567</ele>
        <time>2012-12-15T07:17:46Z</time>
      </trkpt>
      <trkpt lat="47.30051" lon="4.93009">
        <ele>566</ele>
        <time>2012-12-15T07:17:49Z</time>
      </trkpt>
      <trkpt lat="47.30052" lon="4.93002">
        <ele>563</ele>
        <time>2012-12-15T07:17:51Z</time>
      </trkpt>
      <trkpt lat="47.30052" lon="4.92995">
        <ele>564</ele>
        <time>2012-12-15T07:17:55Z</time>
      </trkpt>
      <trkpt lat="47.30052" lon="4.92988">
        <ele>563</ele>
        <time>2012-12-15T07:17:58Z</time>
      </trkpt>
      <trkpt lat="47.30054" lon="4.92981">
        <ele>562</ele>
        <time>2012-12-15T07:18:01Z</time>
      </trkpt>
      <trkpt lat="47.30056" lon="4.92976">
        <ele>561</ele>
        <time>2012-12-15T07:18:03Z</time>
      </trkpt>
      <trkpt lat="47.30058" lon="4.92969">
        <ele>561</ele>
        <time>2012-12-15T07:18:05Z</time>
      </trkpt>
      <trkpt lat="47.3006" lon="4.9296">
        <ele>559</ele>
        <time>2012-12-15T07:18:09Z</time>
      </trkpt>
      <trkpt lat="47.3006" lon="4.92953">
        <ele>559</ele>
        <time>2012-12-15T07:18:12Z</time>
      </trkpt>
      <trkpt lat="47.3006" lon="4.92945">
        <ele>557</ele>
        <time>2012-12-15T07:18:15Z</time>
      </trkpt>
      <trkpt lat="47.30064" lon="4.92938">
        <ele>556</ele>
        <time>2012-12-15T07:18:18Z</time>
      </trkpt>
      <trkpt lat="47.30063" lon="4.9293">
        <ele>557</ele>
        <time>2012-12-15T07:18:20Z</time>
      </trkpt>
      <trkpt lat="47.30064" lon="4.92923">
        <ele>557</ele>
        <time>2012-12-15T07:18:23Z</time>
      </trkpt>
      <trkpt lat="47.30065" lon="4.92916">
        <ele>557</ele>
        <time>2012-12-15T07:18:27Z</time>
      </trkpt>
      <trkpt lat="47.30065" lon="4.92908">
        <ele>557</ele>
        <time>2012-12-15T07:18:32Z</time>
      </trkpt>
      <trkpt lat="47.30066" lon="4.929">
        <ele>555</ele>
        <time>2012-12-15T07:18:37Z</time>
      </trkpt>
      <trkpt lat="47.30068" lon="4.9289">
        <ele>554</ele>
        <time>2012-12-15T07:18:41Z</time>
      </trkpt>
      <trkpt lat="47.30065" lon="4.92883">
        <ele>552</ele>
        <time>2012-12-15T07:18:44Z</time>
      </trkpt>
      <trkpt lat="47.30064" lon="4.92876">
        <ele>552</ele>
        <time>2012-12-15T07:18:48Z</time>
      </trkpt>
      <trkpt lat="47.30063" lon="4.92867">
        <ele>554</ele>
        <time>2012-12-15T07:18:53Z</time>
      </trkpt>
      <trkpt lat="47.30062" lon="4.9286">
        <ele>553</ele>
        <time>2012-12-15T07:18:57Z</time>
      </trkpt>
      <trkpt lat="47.30062" lon="4.92852">
        <ele>551</ele>
        <time>2012-12-15T07:19:00Z</time>
      </trkpt>
      <trkpt lat="47.30063" lon="4.92844">
        <ele>551</ele>
        <time>2012-12-15T07:19:04Z</time>
      </trkpt>
      <trkpt lat="47.30062" lon="4.92836">
        <ele>552</ele>
        <time>2012-12-15T07:19:07Z</time>
      </trkpt>
      <trkpt lat="47.30061" lon="4.92828">
        <ele>552</ele>
        <time>2012-12-15T07:19:11Z</time>
      </trkpt>
      <trkpt lat="47.30058" lon="4.9282">
        <ele>551</ele>
        <time>2012-12-15T07:19:14Z</time>
      </trkpt>
      <trkpt lat="47.30056" lon="4.92813">
        <ele>550</ele>
        <time>2012-12-15T07:19:17Z</time>
      </trkpt>
      <trkpt lat="47.30054" lon="4.92806">
        <ele>549</ele>
        <time>2012-12-15T07:19:20Z</time>
      </trkpt>
      <trkpt lat="47.30053" lon="4.92797">
        <ele>550</ele>
        <time>2012-12-15T07:19:25Z</time>
      </trkpt>
      <trkpt lat="47.30051" lon="4.92789">
        <ele>549</ele>
        <time>2012-12-15T07:19:29Z</time>
      </trkpt>
      <trkpt lat="47.3005" lon="4.92781">
        <ele>547</ele>
        <time>2012-12-15T07:19:32Z</time>
      </trkpt>
      <trkpt lat="47.30045" lon="4.92777">
        <ele>546</ele>
        <time>2012-12-15T07:19:41Z</time>
      </trkpt>
      <trkpt lat="47.3004" lon="4.92775">
        <ele>545</ele>
        <time>2012-12-15T07:19:45Z</time>
      </trkpt>
      <trkpt lat="47.30035" lon="4.92772">
        <ele>546</ele>
        <time>2012-12-15T07:19:49Z</time>
      </trkpt>
      <trkpt lat="47.30035" lon="4.92765">
        <ele>549</ele>
        <time>2012-12-15T07:20:04Z</time>
      </trkpt>
      <trkpt lat="47.30035" lon="4.92765">
        <ele>549</ele>
        <time>2012-12-15T07:20:04Z</time>
      </trkpt>
      <trkpt lat="47.30035" lon="4.92765">
        <ele>549</ele>
        <time>2012-12-15T07:20:05Z</time>
      </trkpt>
      <trkpt lat="47.30031" lon="4.92761">
        <ele>549</ele>
        <time>2012-12-15T07:20:09Z</time>
      </trkpt>
      <trkpt lat="47.30027" lon="4.92758">
        <ele>549</ele>
        <time>2012-12-15T07:20:11Z</time>
      </trkpt>
      <trkpt lat="47.30022" lon="4.92757">
        <ele>549</ele>
        <time>2012-12-15T07:20:15Z</time>
      </trkpt>
      <trkpt lat="47.30022" lon="4.92757">
        <ele>549</ele>
        <time>2012-12-15T07:20:15Z</time>
      </trkpt>
      <trkpt lat="47.30022" lon="4.92757">
        <ele>549</ele>
        <time>2012-12-15T07:20:16Z</time>
      </trkpt>
      <trkpt lat="47.30018" lon="4.92751">
        <ele>553</ele>
        <time>2012-12-15T07:20:30Z</time>
      </trkpt>
      <trkpt lat="47.30008" lon="4.92749">
        <ele>554</ele>
        <time>2012-12-15T07:21:02Z</time>
      </trkpt>
      <trkpt lat="47.30003" lon="4.92748">
        <ele>555</ele>
        <time>2012-12-15T07:21:03Z</time>
      </trkpt>
      <trkpt lat="47.29957" lon="4.92735">
        <ele>556</ele>
        <time>2012-12-15T07:21:04Z</time>
      </trkpt>
      <trkpt lat="47.29953" lon="4.92729">
        <ele>559</ele>
        <time>2012-12-15T07:21:05Z</time>
      </trkpt>
      <trkpt lat="47.29947" lon="4.92726">
        <ele>565</ele>
        <time>2012-12-15T07:21:06Z</time>
      </trkpt>
      <trkpt lat="47.29947" lon="4.92726">
        <ele>565</ele>
        <time>2012-12-15T07:21:06Z</time>
      </trkpt>
      <trkpt lat="47.29947" lon="4.92726">
        <ele>566</ele>
        <time>2012-12-15T07:21:07Z</time>
      </trkpt>
      <trkpt lat="47.29955" lon="4.92726">
        <ele>574</ele>
        <time>2012-12-15T07:21:12Z</time>
      </trkpt>
      <trkpt lat="47.29951" lon="4.92721">
        <ele>584</ele>
        <time>2012-12-15T07:21:31Z</time>
      </trkpt>
      <trkpt lat="47.29946" lon="4.92718">
        <ele>579</ele>
        <time>2012-12-15T07:21:44Z</time>
      </trkpt>
      <trkpt lat="47.29942" lon="4.92714">
        <ele>579</ele>
        <time>2012-12-15T07:21:56Z</time>
      </trkpt>
      <trkpt lat="47.29942" lon="4.92714">
        <ele>579</ele>
        <time>2012-12-15T07:21:56Z</time>
      </trkpt>
      <trkpt lat="47.29942" lon="4.92714">
        <ele>579</ele>
        <time>2012-12-15T07:21:57Z</time>
      </trkpt>
      <trkpt lat="47.29935" lon="4.92712">
        <ele>579</ele>
        <time>2012-12-15T07:22:00Z</time>
      </trkpt>
      <trkpt lat="47.29928" lon="4.92712">
        <ele>579</ele>
        <time>2012-12-15T07:22:02Z</time>
      </trkpt>
      <trkpt lat="47.2992" lon="4.92707">
        <ele>581</ele>
        <time>2012-12-15T07:22:07Z</time>
      </trkpt>
      <trkpt lat="47.29916" lon="4.92706">
        <ele>582</ele>
        <time>2012-12-15T07:22:14Z</time>
      </trkpt>
      <trkpt lat="47.299" lon="4.927">
        <ele>596</ele>
        <time>2012-12-15T07:22:48Z</time>
      </trkpt>
      <trkpt lat="47.29894" lon="4.92699">
        <ele>596</ele>
        <time>2012-12-15T07:22:49Z</time>
      </trkpt>
      <trkpt lat="47.29893" lon="4.92692">
        <ele>598</ele>
        <time>2012-12-15T07:23:01Z</time>
      </trkpt>
      <trkpt lat="47.29889" lon="4.9269">
        <ele>600</ele>
        <time>2012-12-15T07:23:10Z</time>
      </trkpt>
      <trkpt lat="47.29884" lon="4.92688">
        <ele>606</ele>
        <time>2012-12-15T07:23:35Z</time>
      </trkpt>
      <trkpt lat="47.2988" lon="4.92683">
        <ele>604</ele>
        <time>2012-12-15T07:23:53Z</time>
      </trkpt>
      <trkpt lat="47.2988" lon="4.92683">
        <ele>604</ele>
        <time>2012-12-15T07:23:53Z</time>
      </trkpt>
      <trkpt lat="47.2988" lon="4.92683">
        <ele>604</ele>
        <time>2012-12-15T07:23:54Z</time>
      </trkpt>
      <trkpt lat="47.29874" lon="4.92684">
        <ele>607</ele>
        <time>2012-12-15T07:24:04Z</time>
      </trkpt>
      <trkpt lat="47.29874" lon="4.92684">
        <ele>607</ele>
        <time>2012-12-15T07:24:04Z</time>
      </trkpt>
      <trkpt lat="47.29874" lon="4.92684">
        <ele>606</ele>
        <time>2012-12-15T07:24:05Z</time>
      </trkpt>
      <trkpt lat="47.29868" lon="4.92686">
        <ele>610</ele>
        <time>2012-12-15T07:24:12Z</time>
      </trkpt>
      <trkpt lat="47.29865" lon="4.92691">
        <ele>613</ele>
        <time>2012-12-15T07:24:21Z</time>
      </trkpt>
      <trkpt lat="47.2986" lon="4.9269">
        <ele>616</ele>
        <time>2012-12-15T07:24:37Z</time>
      </trkpt>
      <trkpt lat="47.29859" lon="4.92698">
        <ele>621</ele>
        <time>2012-12-15T07:24:47Z</time>
      </trkpt>
      <trkpt lat="47.29858" lon="4.92705">
        <ele>625</ele>
        <time>2012-12-15T07:24:58Z</time>
      </trkpt>
      <trkpt lat="47.29857" lon="4.92712">
        <ele>625</ele>
        <time>2012-12-15T07:25:09Z</time>
      </trkpt>
      <trkpt lat="47.29859" lon="4.92723">
        <ele>624</ele>
        <time>2012-12-15T07:25:14Z</time>
      </trkpt>
      <trkpt lat="47.29859" lon="4.92731">
        <ele>624</ele>
        <time>2012-12-15T07:25:18Z</time>
      </trkpt>
      <trkpt lat="47.2986" lon="4.92737">
        <ele>624</ele>
        <time>2012-12-15T07:25:21Z</time>
      </trkpt>
      <trkpt lat="47.29861" lon="4.92745">
        <ele>624</ele>
        <time>2012-12-15T07:25:27Z</time>
      </trkpt>
      <trkpt lat="47.29862" lon="4.92751">
        <ele>628</ele>
        <time>2012-12-15T07:25:38Z</time>
      </trkpt>
      <trkpt lat="47.2986" lon="4.92758">
        <ele>629</ele>
        <time>2012-12-15T07:26:07Z</time>
      </trkpt>
      <trkpt lat="47.29857" lon="4.92763">
        <ele>629</ele>
        <time>2012-12-15T07:31:48Z</time>
      </trkpt>
      <trkpt lat="47.2985" lon="4.92764">
        <ele>629</ele>
        <time>2012-12-15T07:31:52Z</time>
      </trkpt>
      <trkpt lat="47.29844" lon="4.92767">
        <ele>629</ele>
        <time>2012-12-15T07:31:56Z</time>
      </trkpt>
      <trkpt lat="47.29843" lon="4.92775">
        <ele>629</ele>
        <time>2012-12-15T07:31:59Z</time>
      </trkpt>
      <trkpt lat="47.29838" lon="4.9278">
        <ele>628</ele>
        <time>2012-12-15T07:32:03Z</time>
      </trkpt>
      <trkpt lat="47.29834" lon="4.92786">
        <ele>627</ele>
        <time>2012-12-15T07:32:07Z</time>
      </trkpt>
      <trkpt lat="47.29832" lon="4.92794">
        <ele>628</ele>
        <time>2012-12-15T07:32:11Z</time>
      </trkpt>
      <trkpt lat="47.2983" lon="4.92801">
        <ele>629</ele>
        <time>2012-12-15T07:32:14Z</time>
      </trkpt>
      <trkpt lat="47.29826" lon="4.92806">
        <ele>627</ele>
        <time>2012-12-15T07:32:18Z</time>
      </trkpt>
      <trkpt lat="47.29822" lon="4.92809">
        <ele>628</ele>
        <time>2012-12-15T07:32:21Z</time>
      </trkpt>
      <trkpt lat="47.29823" lon="4.92816">
        <ele>628</ele>
        <time>2012-12-15T07:32:23Z</time>
      </trkpt>
      <trkpt lat="47.29821" lon="4.92824">
        <ele>628</ele>
        <time>2012-12-15T07:32:26Z</time>
      </trkpt>
      <trkpt lat="47.29821" lon="4.92832">
        <ele>628</ele>
        <time>2012-12-15T07:32:29Z</time>
      </trkpt>
      <trkpt lat="47.29821" lon="4.92839">
        <ele>627</ele>
        <time>2012-12-15T07:32:31Z</time>
      </trkpt>
      <trkpt lat="47.2982" lon="4.92848">
        <ele>627</ele>
        <time>2012-12-15T07:32:35Z</time>
      </trkpt>
      <trkpt lat="47.29823" lon="4.92858">
        <ele>627</ele>
        <time>2012-12-15T07:32:37Z</time>
      </trkpt>
      <trkpt lat="47.2982" lon="4.92864">
        <ele>626</ele>
        <time>2012-12-15T07:32:41Z</time>
      </trkpt>
      <trkpt lat="47.29819" lon="4.92871">
        <ele>626</ele>
        <time>2012-12-15T07:32:45Z</time>
      </trkpt>
      <trkpt lat="47.29817" lon="4.9288">
        <ele>627</ele>
        <time>2012-12-15T07:32:48Z</time>
      </trkpt>
      <trkpt lat="47.29813" lon="4.92886">
        <ele>626</ele>
        <time>2012-12-15T07:32:52Z</time>
      </trkpt>
      <trkpt lat="47.2981" lon="4.92892">
        <ele>626</ele>
        <time>2012-12-15T07:32:55Z</time>
      </trkpt>
      <trkpt lat="47.29812" lon="4.929">
        <ele>626</ele>
        <time>2012-12-15T07:33:00Z</time>
      </trkpt>
      <trkpt lat="47.29813" lon="4.9291">
        <ele>625</ele>
        <time>2012-12-15T07:33:03Z</time>
      </trkpt>
      <trkpt lat="47.29808" lon="4.92914">
        <ele>627</ele>
        <time>2012-12-15T07:33:06Z</time>
      </trkpt>
      <trkpt lat="47.29806" lon="4.9292">
        <ele>627</ele>
        <time>2012-12-15T07:33:09Z</time>
      </trkpt>
      <trkpt lat="47.29807" lon="4.92927">
        <ele>628</ele>
        <time>2012-12-15T07:33:11Z</time>
      </trkpt>
      <trkpt lat="47.29806" lon="4.92934">
        <ele>627</ele>
        <time>2012-12-15T07:33:16Z</time>
      </trkpt>
      <trkpt lat="47.29806" lon="4.92941">
        <ele>624</ele>
        <time>2012-12-15T07:33:24Z</time>
      </trkpt>
      <trkpt lat="47.29805" lon="4.92948">
        <ele>624</ele>
        <time>2012-12-15T07:33:41Z</time>
      </trkpt>
      <trkpt lat="47.298" lon="4.92946">
        <ele>624</ele>
        <time>2012-12-15T07:33:45Z</time>
      </trkpt>
      <trkpt lat="47.29794" lon="4.92944">
        <ele>622</ele>
        <time>2012-12-15T07:33:50Z</time>
      </trkpt>
      <trkpt lat="47.2979" lon="4.92942">
        <ele>621</ele>
        <time>2012-12-15T07:33:55Z</time>
      </trkpt>
      <trkpt lat="47.29785" lon="4.9294">
        <ele>621</ele>
        <time>2012-12-15T07:33:59Z</time>
      </trkpt>
      <trkpt lat="47.29779" lon="4.92938">
        <ele>623</ele>
        <time>2012-12-15T07:34:03Z</time>
      </trkpt>
      <trkpt lat="47.29774" lon="4.92937">
        <ele>625</ele>
        <time>2012-12-15T07:34:08Z</time>
      </trkpt>
      <trkpt lat="47.29769" lon="4.9294">
        <ele>626</ele>
        <time>2012-12-15T07:34:12Z</time>
      </trkpt>
      <trkpt lat="47.29764" lon="4.92941">
        <ele>627</ele>
        <time>2012-12-15T07:34:16Z</time>
      </trkpt>
      <trkpt lat="47.29758" lon="4.92942">
        <ele>626</ele>
        <time>2012-12-15T07:34:19Z</time>
      </trkpt>
      <trkpt lat="47.29755" lon="4.92948">
        <ele>625</ele>
        <time>2012-12-15T07:34:23Z</time>
      </trkpt>
      <trkpt lat="47.29752" lon="4.92953">
        <ele>622</ele>
        <time>2012-12-15T07:34:26Z</time>
      </trkpt>
      <trkpt lat="47.29749" lon="4.92961">
        <ele>623</ele>
        <time>2012-12-15T07:34:30Z</time>
      </trkpt>
      <trkpt lat="47.29747" lon="4.92968">
        <ele>623</ele>
        <time>2012-12-15T07:34:34Z</time>
      </trkpt>
      <trkpt lat="47.29744" lon="4.92976">
        <ele>623</ele>
        <time>2012-12-15T07:34:37Z</time>
      </trkpt>
      <trkpt lat="47.29739" lon="4.92976">
        <ele>626</ele>
        <time>2012-12-15T07:34:41Z</time>
      </trkpt>
      <trkpt lat="47.2974" lon="4.92986">
        <ele>626</ele>
        <time>2012-12-15T07:34:43Z</time>
      </trkpt>
      <trkpt lat="47.29738" lon="4.92992">
        <ele>626</ele>
        <time>2012-12-15T07:34:46Z</time>
      </trkpt>
      <trkpt lat="47.29739" lon="4.93">
        <ele>628</ele>
        <time>2012-12-15T07:34:49Z</time>
      </trkpt>
      <trkpt lat="47.29738" lon="4.93006">
        <ele>626</ele>
        <time>2012-12-15T07:34:52Z</time>
      </trkpt>
      <trkpt lat="47.29735" lon="4.93016">
        <ele>626</ele>
        <time>2012-12-15T07:34:56Z</time>
      </trkpt>
      <trkpt lat="47.29738" lon="4.93025">
        <ele>628</ele>
        <time>2012-12-15T07:34:58Z</time>
      </trkpt>
      <trkpt lat="47.29739" lon="4.93032">
        <ele>628</ele>
        <time>2012-12-15T07:35:00Z</time>
      </trkpt>
      <trkpt lat="47.29737" lon="4.93038">
        <ele>626</ele>
        <time>2012-12-15T07:35:03Z</time>
      </trkpt>
      <trkpt lat="47.29734" lon="4.93044">
        <ele>627</ele>
        <time>2012-12-15T07:35:07Z</time>
      </trkpt>
      <trkpt lat="47.29732" lon="4.93051">
        <ele>627</ele>
        <time>2012-12-15T07:35:11Z</time>
      </trkpt>
      <trkpt lat="47.29726" lon="4.93055">
        <ele>625</ele>
        <time>2012-12-15T07:35:16Z</time>
      </trkpt>
      <trkpt lat="47.2973" lon="4.93064">
        <ele>625</ele>
        <time>2012-12-15T07:35:17Z</time>
      </trkpt>
      <trkpt lat="47.29726" lon="4.93071">
        <ele>625</ele>
        <time>2012-12-15T07:35:20Z</time>
      </trkpt>
      <trkpt lat="47.29726" lon="4.93079">
        <ele>625</ele>
        <time>2012-12-15T07:35:24Z</time>
      </trkpt>
      <trkpt lat="47.29722" lon="4.93085">
        <ele>625</ele>
        <time>2012-12-15T07:35:29Z</time>
      </trkpt>
      <trkpt lat="47.2972" lon="4.93092">
        <ele>625</ele>
        <time>2012-12-15T07:35:31Z</time>
      </trkpt>
      <trkpt lat="47.29715" lon="4.93094">
        <ele>626</ele>
        <time>2012-12-15T07:35:36Z</time>
      </trkpt>
      <trkpt lat="47.29717" lon="4.931">
        <ele>625</ele>
        <time>2012-12-15T07:35:37Z</time>
      </trkpt>
      <trkpt lat="47.29718" lon="4.93107">
        <ele>625</ele>
        <time>2012-12-15T07:35:40Z</time>
      </trkpt>
      <trkpt lat="47.29718" lon="4.93116">
        <ele>624</ele>
        <time>2012-12-15T07:35:43Z</time>
      </trkpt>
      <trkpt lat="47.29714" lon="4.9312">
        <ele>624</ele>
        <time>2012-12-15T07:35:46Z</time>
      </trkpt>
      <trkpt lat="47.29715" lon="4.93128">
        <ele>623</ele>
        <time>2012-12-15T07:35:48Z</time>
      </trkpt>
      <trkpt lat="47.29713" lon="4.93134">
        <ele>622</ele>
        <time>2012-12-15T07:35:51Z</time>
      </trkpt>
      <trkpt lat="47.2971" lon="4.93139">
        <ele>624</ele>
        <time>2012-12-15T07:35:55Z</time>
      </trkpt>
      <trkpt lat="47.29709" lon="4.93149">
        <ele>624</ele>
        <time>2012-12-15T07:35:59Z</time>
      </trkpt>
      <trkpt lat="47.29709" lon="4.93158">
        <ele>626</ele>
        <time>2012-12-15T07:36:02Z</time>
      </trkpt>
      <trkpt lat="47.29706" lon="4.93167">
        <ele>626</ele>
        <time>2012-12-15T07:36:06Z</time>
      </trkpt>
      <trkpt lat="47.29701" lon="4.93168">
        <ele>625</ele>
        <time>2012-12-15T07:36:09Z</time>
      </trkpt>
      <trkpt lat="47.29695" lon="4.9317">
        <ele>625</ele>
        <time>2012-12-15T07:36:13Z</time>
      </trkpt>
      <trkpt lat="47.29698" lon="4.9318">
        <ele>625</ele>
        <time>2012-12-15T07:36:14Z</time>
      </trkpt>
      <trkpt lat="47.29694" lon="4.93185">
        <ele>622</ele>
        <time>2012-12-15T07:36:19Z</time>
      </trkpt>
      <trkpt lat="47.29691" lon="4.93191">
        <ele>620</ele>
        <time>2012-12-15T07:36:23Z</time>
      </trkpt>
      <trkpt lat="47.29688" lon="4.93196">
        <ele>618</ele>
        <time>2012-12-15T07:36:26Z</time>
      </trkpt>
      <trkpt lat="47.29687" lon="4.93203">
        <ele>618</ele>
        <time>2012-12-15T07:36:29Z</time>
      </trkpt>
      <trkpt lat="47.29686" lon="4.9321">
        <ele>618</ele>
        <time>2012-12-15T07:36:32Z</time>
      </trkpt>
      <trkpt lat="47.29682" lon="4.93216">
        <ele>619</ele>
        <time>2012-12-15T07:36:36Z</time>
      </trkpt>
      <trkpt lat="47.29682" lon="4.93225">
        <ele>620</ele>
        <time>2012-12-15T07:36:39Z</time>
      </trkpt>
      <trkpt lat="47.29683" lon="4.93234">
        <ele>619</ele>
        <time>2012-12-15T07:36:43Z</time>
      </trkpt>
      <trkpt lat="47.29683" lon="4.9324">
        <ele>618</ele>
        <time>2012-12-15T07:36:46Z</time>
      </trkpt>
      <trkpt lat="47.29678" lon="4.93245">
        <ele>618</ele>
        <time>2012-12-15T07:36:49Z</time>
      </trkpt>
      <trkpt lat="47.29675" lon="4.93252">
        <ele>620</ele>
        <time>2012-12-15T07:36:53Z</time>
      </trkpt>
      <trkpt lat="47.29676" lon="4.93259">
        <ele>619</ele>
        <time>2012-12-15T07:36:55Z</time>
      </trkpt>
      <trkpt lat="47.29674" lon="4.93267">
        <ele>619</ele>
        <time>2012-12-15T07:36:58Z</time>
      </trkpt>
      <trkpt lat="47.29672" lon="4.93276">
        <ele>617</ele>
        <time>2012-12-15T07:37:02Z</time>
      </trkpt>
      <trkpt lat="47.29669" lon="4.93283">
        <ele>615</ele>
        <time>2012-12-15T07:37:05Z</time>
      </trkpt>
      <trkpt lat="47.29666" lon="4.9329">
        <ele>613</ele>
        <time>2012-12-15T07:37:09Z</time>
      </trkpt>
      <trkpt lat="47.29664" lon="4.93299">
        <ele>611</ele>
        <time>2012-12-15T07:37:13Z</time>
      </trkpt>
      <trkpt lat="47.29662" lon="4.93307">
        <ele>611</ele>
        <time>2012-12-15T07:37:17Z</time>
      </trkpt>
      <trkpt lat="47.29664" lon="4.93314">
        <ele>610</ele>
        <time>2012-12-15T07:37:18Z</time>
      </trkpt>
      <trkpt lat="47.29666" lon="4.93321">
        <ele>611</ele>
        <time>2012-12-15T07:37:27Z</time>
      </trkpt>
      <trkpt lat="47.29661" lon="4.93326">
        <ele>611</ele>
        <time>2012-12-15T07:37:48Z</time>
      </trkpt>
      <trkpt lat="47.29657" lon="4.93325">
        <ele>611</ele>
        <time>2012-12-15T07:37:52Z</time>
      </trkpt>
      <trkpt lat="47.29652" lon="4.93324">
        <ele>612</ele>
        <time>2012-12-15T07:37:55Z</time>
      </trkpt>
      <trkpt lat="47.29647" lon="4.93325">
        <ele>615</ele>
        <time>2012-12-15T07:37:58Z</time>
      </trkpt>
      <trkpt lat="47.29642" lon="4.93325">
        <ele>614</ele>
        <time>2012-12-15T07:38:02Z</time>
      </trkpt>
      <trkpt lat="47.29637" lon="4.93326">
        <ele>612</ele>
        <time>2012-12-15T07:38:06Z</time>
      </trkpt>
      <trkpt lat="47.29632" lon="4.93326">
        <ele>612</ele>
        <time>2012-12-15T07:38:11Z</time>
      </trkpt>
      <trkpt lat="47.29626" lon="4.93325">
        <ele>613</ele>
        <time>2012-12-15T07:38:13Z</time>
      </trkpt>
      <trkpt lat="47.2962" lon="4.93323">
        <ele>614</ele>
        <time>2012-12-15T07:38:16Z</time>
      </trkpt>
      <trkpt lat="47.29615" lon="4.93322">
        <ele>613</ele>
        <time>2012-12-15T07:38:19Z</time>
      </trkpt>
      <trkpt lat="47.2961" lon="4.9332">
        <ele>611</ele>
        <time>2012-12-15T07:38:24Z</time>
      </trkpt>
      <trkpt lat="47.29605" lon="4.93317">
        <ele>611</ele>
        <time>2012-12-15T07:38:27Z</time>
      </trkpt>
      <trkpt lat="47.29599" lon="4.93315">
        <ele>611</ele>
        <time>2012-12-15T07:38:30Z</time>
      </trkpt>
      <trkpt lat="47.29594" lon="4.93315">
        <ele>610</ele>
        <time>2012-12-15T07:38:34Z</time>
      </trkpt>
      <trkpt lat="47.29589" lon="4.93313">
        <ele>611</ele>
        <time>2012-12-15T07:38:37Z</time>
      </trkpt>
      <trkpt lat="47.29583" lon="4.93311">
        <ele>611</ele>
        <time>2012-12-15T07:38:40Z</time>
      </trkpt>
      <trkpt lat="47.29578" lon="4.9331">
        <ele>612</ele>
        <time>2012-12-15T07:38:43Z</time>
      </trkpt>
      <trkpt lat="47.29573" lon="4.9331">
        <ele>614</ele>
        <time>2012-12-15T07:38:46Z</time>
      </trkpt>
      <trkpt lat="47.29568" lon="4.93308">
        <ele>613</ele>
        <time>2012-12-15T07:38:49Z</time>
      </trkpt>
      <trkpt lat="47.29562" lon="4.93306">
        <ele>613</ele>
        <time>2012-12-15T07:38:52Z</time>
      </trkpt>
      <trkpt lat="47.29556" lon="4.93304">
        <ele>612</ele>
        <time>2012-12-15T07:38:55Z</time>
      </trkpt>
      <trkpt lat="47.29551" lon="4.93302">
        <ele>613</ele>
        <time>2012-12-15T07:38:58Z</time>
      </trkpt>
      <trkpt lat="47.29546" lon="4.93301">
        <ele>613</ele>
        <time>2012-12-15T07:39:01Z</time>
      </trkpt>
      <trkpt lat="47.29539" lon="4.933">
        <ele>612</ele>
        <time>2012-12-15T07:39:04Z</time>
      </trkpt>
      <trkpt lat="47.29534" lon="4.933">
        <ele>611</ele>
        <time>2012-12-15T07:39:08Z</time>
      </trkpt>
      <trkpt lat="47.29528" lon="4.93297">
        <ele>612</ele>
        <time>2012-12-15T07:39:10Z</time>
      </trkpt>
      <trkpt lat="47.29521" lon="4.93295">
        <ele>613</ele>
        <time>2012-12-15T07:39:13Z</time>
      </trkpt>
      <trkpt lat="47.29516" lon="4.93294">
        <ele>613</ele>
        <time>2012-12-15T07:39:15Z</time>
      </trkpt>
      <trkpt lat="47.2951" lon="4.93291">
        <ele>613</ele>
        <time>2012-12-15T07:39:18Z</time>
      </trkpt>
      <trkpt lat="47.29505" lon="4.9329">
        <ele>613</ele>
        <time>2012-12-15T07:39:21Z</time>
      </trkpt>
      <trkpt lat="47.295" lon="4.9329">
        <ele>614</ele>
        <time>2012-12-15T07:39:25Z</time>
      </trkpt>
      <trkpt lat="47.29496" lon="4.9329">
        <ele>614</ele>
        <time>2012-12-15T07:39:27Z</time>
      </trkpt>
      <trkpt lat="47.29489" lon="4.93289">
        <ele>614</ele>
        <time>2012-12-15T07:39:30Z</time>
      </trkpt>
      <trkpt lat="47.29483" lon="4.9329">
        <ele>615</ele>
        <time>2012-12-15T07:39:34Z</time>
      </trkpt>
      <trkpt lat="47.29478" lon="4.93287">
        <ele>615</ele>
        <time>2012-12-15T07:39:37Z</time>
      </trkpt>
      <trkpt lat="47.29473" lon="4.93286">
        <ele>616</ele>
        <time>2012-12-15T07:39:39Z</time>
      </trkpt>
      <trkpt lat="47.29468" lon="4.93285">
        <ele>616</ele>
        <time>2012-12-15T07:39:42Z</time>
      </trkpt>
      <trkpt lat="47.29462" lon="4.93282">
        <ele>617</ele>
        <time>2012-12-15T07:39:47Z</time>
      </trkpt>
      <trkpt lat="47.29457" lon="4.93281">
        <ele>617</ele>
        <time>2012-12-15T07:39:51Z</time>
      </trkpt>
      <trkpt lat="47.29452" lon="4.93281">
        <ele>617</ele>
        <time>2012-12-15T07:39:56Z</time>
      </trkpt>
      <trkpt lat="47.29447" lon="4.93279">
        <ele>616</ele>
        <time>2012-12-15T07:39:59Z</time>
      </trkpt>
      <trkpt lat="47.29442" lon="4.93278">
        <ele>616</ele>
        <time>2012-12-15T07:40:01Z</time>
      </trkpt>
      <trkpt lat="47.29435" lon="4.93276">
        <ele>617</ele>
        <time>2012-12-15T07:40:04Z</time>
      </trkpt>
      <trkpt lat="47.29429" lon="4.93275">
        <ele>618</ele>
        <time>2012-12-15T07:40:08Z</time>
      </trkpt>
      <trkpt lat="47.29424" lon="4.93274">
        <ele>617</ele>
        <time>2012-12-15T07:40:10Z</time>
      </trkpt>
      <trkpt lat="47.29418" lon="4.93272">
        <ele>617</ele>
        <time>2012-12-15T07:40:14Z</time>
      </trkpt>
      <trkpt lat="47.29412" lon="4.93271">
        <ele>617</ele>
        <time>2012-12-15T07:40:18Z</time>
      </trkpt>
      <trkpt lat="47.29406" lon="4.9327">
        <ele>617</ele>
        <time>2012-12-15T07:40:21Z</time>
      </trkpt>
      <trkpt lat="47.294" lon="4.93268">
        <ele>616</ele>
        <time>2012-12-15T07:40:24Z</time>
      </trkpt>
      <trkpt lat="47.29392" lon="4.93265">
        <ele>616</ele>
        <time>2012-12-15T07:40:29Z</time>
      </trkpt>
      <trkpt lat="47.29386" lon="4.93264">
        <ele>617</ele>
        <time>2012-12-15T07:40:31Z</time>
      </trkpt>
      <trkpt lat="47.29379" lon="4.93262">
        <ele>618</ele>
        <time>2012-12-15T07:40:34Z</time>
      </trkpt>
      <trkpt lat="47.29373" lon="4.93261">
        <ele>617</ele>
        <time>2012-12-15T07:40:37Z</time>
      </trkpt>
      <trkpt lat="47.29367" lon="4.93259">
        <ele>617</ele>
        <time>2012-12-15T07:40:40Z</time>
      </trkpt>
      <trkpt lat="47.29363" lon="4.9326">
        <ele>617</ele>
        <time>2012-12-15T07:40:42Z</time>
      </trkpt>
      <trkpt lat="47.29358" lon="4.9326">
        <ele>616</ele>
        <time>2012-12-15T07:40:44Z</time>
      </trkpt>
      <trkpt lat="47.29353" lon="4.93258">
        <ele>617</ele>
        <time>2012-12-15T07:40:47Z</time>
      </trkpt>
      <trkpt lat="47.29348" lon="4.93256">
        <ele>617</ele>
        <time>2012-12-15T07:40:51Z</time>
      </trkpt>
      <trkpt lat="47.29342" lon="4.93254">
        <ele>619</ele>
        <time>2012-12-15T07:40:56Z</time>
      </trkpt>
      <trkpt lat="47.29337" lon="4.93253">
        <ele>618</ele>
        <time>2012-12-15T07:41:02Z</time>
      </trkpt>
      <trkpt lat="47.29333" lon="4.9325">
        <ele>618</ele>
        <time>2012-12-15T07:41:07Z</time>
      </trkpt>
      <trkpt lat="47.29327" lon="4.93246">
        <ele>618</ele>
        <time>2012-12-15T07:41:10Z</time>
      </trkpt>
      <trkpt lat="47.29321" lon="4.93242">
        <ele>618</ele>
        <time>2012-12-15T07:41:13Z</time>
      </trkpt>
      <trkpt lat="47.29316" lon="4.93236">
        <ele>619</ele>
        <time>2012-12-15T07:41:15Z</time>
      </trkpt>
      <trkpt lat="47.29312" lon="4.93231">
        <ele>621</ele>
        <time>2012-12-15T07:41:18Z</time>
      </trkpt>
      <trkpt lat="47.29307" lon="4.93225">
        <ele>621</ele>
        <time>2012-12-15T07:41:21Z</time>
      </trkpt>
      <trkpt lat="47.29302" lon="4.93219">
        <ele>623</ele>
        <time>2012-12-15T07:41:24Z</time>
      </trkpt>
      <trkpt lat="47.29297" lon="4.93214">
        <ele>625</ele>
        <time>2012-12-15T07:41:26Z</time>
      </trkpt>
      <trkpt lat="47.29293" lon="4.93209">
        <ele>627</ele>
        <time>2012-12-15T07:41:29Z</time>
      </trkpt>
      <trkpt lat="47.29289" lon="4.93204">
        <ele>630</ele>
        <time>2012-12-15T07:41:32Z</time>
      </trkpt>
      <trkpt lat="47.29285" lon="4.932">
        <ele>631</ele>
        <time>2012-12-15T07:41:35Z</time>
      </trkpt>
      <trkpt lat="47.29281" lon="4.93193">
        <ele>632</ele>
        <time>2012-12-15T07:41:38Z</time>
      </trkpt>
      <trkpt lat="47.29277" lon="4.93188">
        <ele>633</ele>
        <time>2012-12-15T07:41:41Z</time>
      </trkpt>
      <trkpt lat="47.29273" lon="4.93182">
        <ele>632</ele>
        <time>2012-12-15T07:41:45Z</time>
      </trkpt>
      <trkpt lat="47.29269" lon="4.93177">
        <ele>632</ele>
        <time>2012-12-15T07:41:48Z</time>
      </trkpt>
      <trkpt lat="47.29266" lon="4.93172">
        <ele>631</ele>
        <time>2012-12-15T07:41:51Z</time>
      </trkpt>
      <trkpt lat="47.29262" lon="4.93165">
        <ele>632</ele>
        <time>2012-12-15T07:41:55Z</time>
      </trkpt>
      <trkpt lat="47.29258" lon="4.9316">
        <ele>632</ele>
        <time>2012-12-15T07:41:58Z</time>
      </trkpt>
      <trkpt lat="47.29255" lon="4.93155">
        <ele>632</ele>
        <time>2012-12-15T07:42:01Z</time>
      </trkpt>
      <trkpt lat="47.29252" lon="4.93149">
        <ele>633</ele>
        <time>2012-12-15T07:42:05Z</time>
      </trkpt>
      <trkpt lat="47.29247" lon="4.93149">
        <ele>629</ele>
        <time>2012-12-15T07:42:10Z</time>
      </trkpt>
      <trkpt lat="47.29242" lon="4.93151">
        <ele>625</ele>
        <time>2012-12-15T07:42:19Z</time>
      </trkpt>
      <trkpt lat="47.29242" lon="4.93151">
        <ele>625</ele>
        <time>2012-12-15T07:42:19Z</time>
      </trkpt>
      <trkpt lat="47.29242" lon="4.93151">
        <ele>625</ele>
        <time>2012-12-15T07:43:53Z</time>
      </trkpt>
      <trkpt lat="47.29247" lon="4.93151">
        <ele>620</ele>
        <time>2012-12-15T07:44:04Z</time>
      </trkpt>
      <trkpt lat="47.29247" lon="4.93151">
        <ele>620</ele>
        <time>2012-12-15T07:44:04Z</time>
      </trkpt>
      <trkpt lat="47.29247" lon="4.93151">
        <ele>620</ele>
        <time>2012-12-15T07:44:05Z</time>
      </trkpt>
      <trkpt lat="47.29252" lon="4.93154">
        <ele>620</ele>
        <time>2012-12-15T07:44:32Z</time>
      </trkpt>
      <trkpt lat="47.29256" lon="4.93151">
        <ele>621</ele>
        <time>2012-12-15T07:44:39Z</time>
      </trkpt>
      <trkpt lat="47.29253" lon="4.93143">
        <ele>622</ele>
        <time>2012-12-15T07:44:45Z</time>
      </trkpt>
      <trkpt lat="47.29249" lon="4.93137">
        <ele>622</ele>
        <time>2012-12-15T07:44:48Z</time>
      </trkpt>
      <trkpt lat="47.29246" lon="4.93132">
        <ele>623</ele>
        <time>2012-12-15T07:44:51Z</time>
      </trkpt>
      <trkpt lat="47.29242" lon="4.93126">
        <ele>622</ele>
        <time>2012-12-15T07:44:54Z</time>
      </trkpt>
      <trkpt lat="47.29238" lon="4.9312">
        <ele>623</ele>
        <time>2012-12-15T07:44:57Z</time>
      </trkpt>
      <trkpt lat="47.29235" lon="4.93115">
        <ele>624</ele>
        <time>2012-12-15T07:45:00Z</time>
      </trkpt>
      <trkpt lat="47.29231" lon="4.93109">
        <ele>626</ele>
        <time>2012-12-15T07:45:04Z</time>
      </trkpt>
      <trkpt lat="47.29227" lon="4.93104">
        <ele>626</ele>
        <time>2012-12-15T07:45:08Z</time>
      </trkpt>
      <trkpt lat="47.29223" lon="4.93098">
        <ele>627</ele>
        <time>2012-12-15T07:45:11Z</time>
      </trkpt>
      <trkpt lat="47.2922" lon="4.93093">
        <ele>628</ele>
        <time>2012-12-15T07:45:14Z</time>
      </trkpt>
      <trkpt lat="47.29216" lon="4.93086">
        <ele>629</ele>
        <time>2012-12-15T07:45:18Z</time>
      </trkpt>
      <trkpt lat="47.29213" lon="4.93081">
        <ele>630</ele>
        <time>2012-12-15T07:45:21Z</time>
      </trkpt>
      <trkpt lat="47.29209" lon="4.93074">
        <ele>630</ele>
        <time>2012-12-15T07:45:25Z</time>
      </trkpt>
      <trkpt lat="47.29206" lon="4.93067">
        <ele>630</ele>
        <time>2012-12-15T07:45:29Z</time>
      </trkpt>
      <trkpt lat="47.29203" lon="4.93061">
        <ele>631</ele>
        <time>2012-12-15T07:45:32Z</time>
      </trkpt>
      <trkpt lat="47.292" lon="4.93054">
        <ele>631</ele>
        <time>2012-12-15T07:45:36Z</time>
      </trkpt>
      <trkpt lat="47.29198" lon="4.93048">
        <ele>631</ele>
        <time>2012-12-15T07:45:40Z</time>
      </trkpt>
      <trkpt lat="47.29195" lon="4.93041">
        <ele>631</ele>
        <time>2012-12-15T07:45:44Z</time>
      </trkpt>
      <trkpt lat="47.29191" lon="4.93035">
        <ele>631</ele>
        <time>2012-12-15T07:45:48Z</time>
      </trkpt>
      <trkpt lat="47.29189" lon="4.93029">
        <ele>631</ele>
        <time>2012-12-15T07:45:52Z</time>
      </trkpt>
      <trkpt lat="47.29187" lon="4.93022">
        <ele>629</ele>
        <time>2012-12-15T07:45:56Z</time>
      </trkpt>
      <trkpt lat="47.29184" lon="4.93015">
        <ele>627</ele>
        <time>2012-12-15T07:46:00Z</time>
      </trkpt>
      <trkpt lat="47.29181" lon="4.93008">
        <ele>628</ele>
        <time>2012-12-15T07:46:04Z</time>
      </trkpt>
      <trkpt lat="47.29178" lon="4.93003">
        <ele>628</ele>
        <time>2012-12-15T07:46:07Z</time>
      </trkpt>
      <trkpt lat="47.29175" lon="4.92997">
        <ele>628</ele>
        <time>2012-12-15T07:46:10Z</time>
      </trkpt>
      <trkpt lat="47.29171" lon="4.92993">
        <ele>628</ele>
        <time>2012-12-15T07:46:13Z</time>
      </trkpt>
      <trkpt lat="47.29168" lon="4.92987">
        <ele>628</ele>
        <time>2012-12-15T07:46:16Z</time>
      </trkpt>
      <trkpt lat="47.29166" lon="4.92979">
        <ele>627</ele>
        <time>2012-12-15T07:46:20Z</time>
      </trkpt>
      <trkpt lat="47.29163" lon="4.92973">
        <ele>628</ele>
        <time>2012-12-15T07:46:24Z</time>
      </trkpt>
      <trkpt lat="47.29161" lon="4.92966">
        <ele>627</ele>
        <time>2012-12-15T07:46:28Z</time>
      </trkpt>
      <trkpt lat="47.29158" lon="4.92959">
        <ele>628</ele>
        <time>2012-12-15T07:46:32Z</time>
      </trkpt>
      <trkpt lat="47.29154" lon="4.92953">
        <ele>628</ele>
        <time>2012-12-15T07:46:35Z</time>
      </trkpt>
      <trkpt lat="47.29151" lon="4.92945">
        <ele>628</ele>
        <time>2012-12-15T07:46:39Z</time>
      </trkpt>
      <trkpt lat="47.29148" lon="4.92938">
        <ele>628</ele>
        <time>2012-12-15T07:46:43Z</time>
      </trkpt>
      <trkpt lat="47.29145" lon="4.92932">
        <ele>629</ele>
        <time>2012-12-15T07:46:47Z</time>
      </trkpt>
      <trkpt lat="47.29142" lon="4.92926">
        <ele>628</ele>
        <time>2012-12-15T07:46:51Z</time>
      </trkpt>
      <trkpt lat="47.29138" lon="4.92918">
        <ele>629</ele>
        <time>2012-12-15T07:46:55Z</time>
      </trkpt>
      <trkpt lat="47.29135" lon="4.92911">
        <ele>631</ele>
        <time>2012-12-15T07:46:59Z</time>
      </trkpt>
      <trkpt lat="47.29132" lon="4.92903">
        <ele>631</ele>
        <time>2012-12-15T07:47:03Z</time>
      </trkpt>
      <trkpt lat="47.29129" lon="4.92898">
        <ele>632</ele>
        <time>2012-12-15T07:47:06Z</time>
      </trkpt>
      <trkpt lat="47.29126" lon="4.92893">
        <ele>632</ele>
        <time>2012-12-15T07:47:09Z</time>
      </trkpt>
      <trkpt lat="47.29121" lon="4.92888">
        <ele>634</ele>
        <time>2012-12-15T07:47:13Z</time>
      </trkpt>
      <trkpt lat="47.28926" lon="4.92731">
        <ele>608</ele>
        <time>2012-12-15T07:49:41Z</time>
      </trkpt>
      <trkpt lat="47.28916" lon="4.92732">
        <ele>615</ele>
        <time>2012-12-15T07:49:43Z</time>
      </trkpt>
      <trkpt lat="47.2891" lon="4.92733">
        <ele>618</ele>
        <time>2012-12-15T07:49:51Z</time>
      </trkpt>
      <trkpt lat="47.28906" lon="4.92733">
        <ele>619</ele>
        <time>2012-12-15T07:49:57Z</time>
      </trkpt>
      <trkpt lat="47.289" lon="4.92735">
        <ele>622</ele>
        <time>2012-12-15T07:50:03Z</time>
      </trkpt>
      <trkpt lat="47.28894" lon="4.92735">
        <ele>620</ele>
        <time>2012-12-15T07:50:08Z</time>
      </trkpt>
      <trkpt lat="47.28889" lon="4.92736">
        <ele>621</ele>
        <time>2012-12-15T07:50:13Z</time>
      </trkpt>
      <trkpt lat="47.28884" lon="4.92735">
        <ele>621</ele>
        <time>2012-12-15T07:50:15Z</time>
      </trkpt>
      <trkpt lat="47.28878" lon="4.92734">
        <ele>621</ele>
        <time>2012-12-15T07:50:19Z</time>
      </trkpt>
      <trkpt lat="47.28872" lon="4.92734">
        <ele>621</ele>
        <time>2012-12-15T07:50:22Z</time>
      </trkpt>
      <trkpt lat="47.28867" lon="4.92735">
        <ele>623</ele>
        <time>2012-12-15T07:50:25Z</time>
      </trkpt>
      <trkpt lat="47.28862" lon="4.92736">
        <ele>625</ele>
        <time>2012-12-15T07:50:29Z</time>
      </trkpt>
      <trkpt lat="47.28856" lon="4.92738">
        <ele>625</ele>
        <time>2012-12-15T07:50:33Z</time>
      </trkpt>
      <trkpt lat="47.2885" lon="4.92739">
        <ele>626</ele>
        <time>2012-12-15T07:50:36Z</time>
      </trkpt>
      <trkpt lat="47.28846" lon="4.92742">
        <ele>626</ele>
        <time>2012-12-15T07:50:40Z</time>
      </trkpt>
      <trkpt lat="47.28841" lon="4.92743">
        <ele>629</ele>
        <time>2012-12-15T07:50:43Z</time>
      </trkpt>
      <trkpt lat="47.28835" lon="4.92743">
        <ele>630</ele>
        <time>2012-12-15T07:50:47Z</time>
      </trkpt>
      <trkpt lat="47.2883" lon="4.92744">
        <ele>631</ele>
        <time>2012-12-15T07:50:53Z</time>
      </trkpt>
      <trkpt lat="47.28826" lon="4.92748">
        <ele>632</ele>
        <time>2012-12-15T07:50:59Z</time>
      </trkpt>
      <trkpt lat="47.28821" lon="4.9275">
        <ele>633</ele>
        <time>2012-12-15T07:51:02Z</time>
      </trkpt>
      <trkpt lat="47.28816" lon="4.92752">
        <ele>634</ele>
        <time>2012-12-15T07:51:05Z</time>
      </trkpt>
      <trkpt lat="47.28812" lon="4.92755">
        <ele>635</ele>
        <time>2012-12-15T07:51:08Z</time>
      </trkpt>
      <trkpt lat="47.28806" lon="4.92758">
        <ele>639</ele>
        <time>2012-12-15T07:51:11Z</time>
      </trkpt>
      <trkpt lat="47.28802" lon="4.92759">
        <ele>642</ele>
        <time>2012-12-15T07:51:14Z</time>
      </trkpt>
      <trkpt lat="47.28796" lon="4.92761">
        <ele>643</ele>
        <time>2012-12-15T07:51:17Z</time>
      </trkpt>
      <trkpt lat="47.28791" lon="4.92762">
        <ele>642</ele>
        <time>2012-12-15T07:51:20Z</time>
      </trkpt>
      <trkpt lat="47.28786" lon="4.92766">
        <ele>641</ele>
        <time>2012-12-15T07:51:23Z</time>
      </trkpt>
      <trkpt lat="47.28782" lon="4.92768">
        <ele>641</ele>
        <time>2012-12-15T07:51:25Z</time>
      </trkpt>
      <trkpt lat="47.28777" lon="4.92771">
        <ele>642</ele>
        <time>2012-12-15T07:51:27Z</time>
      </trkpt>
      <trkpt lat="47.28772" lon="4.92768">
        <ele>642</ele>
        <time>2012-12-15T07:51:29Z</time>
      </trkpt>
      <trkpt lat="47.28767" lon="4.9277">
        <ele>642</ele>
        <time>2012-12-15T07:51:32Z</time>
      </trkpt>
      <trkpt lat="47.28763" lon="4.92776">
        <ele>642</ele>
        <time>2012-12-15T07:51:36Z</time>
      </trkpt>
      <trkpt lat="47.2876" lon="4.92783">
        <ele>642</ele>
        <time>2012-12-15T07:51:40Z</time>
      </trkpt>
      <trkpt lat="47.28756" lon="4.92785">
        <ele>641</ele>
        <time>2012-12-15T07:51:42Z</time>
      </trkpt>
      <trkpt lat="47.28753" lon="4.9279">
        <ele>640</ele>
        <time>2012-12-15T07:51:45Z</time>
      </trkpt>
      <trkpt lat="47.2875" lon="4.92798">
        <ele>640</ele>
        <time>2012-12-15T07:51:48Z</time>
      </trkpt>
      <trkpt lat="47.2875" lon="4.92805">
        <ele>641</ele>
        <time>2012-12-15T07:51:50Z</time>
      </trkpt>
      <trkpt lat="47.28748" lon="4.92812">
        <ele>640</ele>
        <time>2012-12-15T07:51:53Z</time>
      </trkpt>
      <trkpt lat="47.28745" lon="4.9282">
        <ele>640</ele>
        <time>2012-12-15T07:51:56Z</time>
      </trkpt>
      <trkpt lat="47.28741" lon="4.92827">
        <ele>641</ele>
        <time>2012-12-15T07:52:00Z</time>
      </trkpt>
      <trkpt lat="47.28737" lon="4.92831">
        <ele>642</ele>
        <time>2012-12-15T07:52:03Z</time>
      </trkpt>
      <trkpt lat="47.28733" lon="4.92836">
        <ele>641</ele>
        <time>2012-12-15T07:52:06Z</time>
      </trkpt>
      <trkpt lat="47.28733" lon="4.92845">
        <ele>640</ele>
        <time>2012-12-15T07:52:07Z</time>
      </trkpt>
      <trkpt lat="47.28731" lon="4.92851">
        <ele>640</ele>
        <time>2012-12-15T07:52:09Z</time>
      </trkpt>
      <trkpt lat="47.28728" lon="4.92858">
        <ele>640</ele>
        <time>2012-12-15T07:52:12Z</time>
      </trkpt>
      <trkpt lat="47.28726" lon="4.92866">
        <ele>637</ele>
        <time>2012-12-15T07:52:15Z</time>
      </trkpt>
      <trkpt lat="47.2872" lon="4.92871">
        <ele>636</ele>
        <time>2012-12-15T07:52:18Z</time>
      </trkpt>
      <trkpt lat="47.28716" lon="4.92875">
        <ele>637</ele>
        <time>2012-12-15T07:52:20Z</time>
      </trkpt>
      <trkpt lat="47.2871" lon="4.9288">
        <ele>637</ele>
        <time>2012-12-15T07:52:23Z</time>
      </trkpt>
      <trkpt lat="47.28707" lon="4.92888">
        <ele>637</ele>
        <time>2012-12-15T07:52:26Z</time>
      </trkpt>
      <trkpt lat="47.28709" lon="4.92897">
        <ele>636</ele>
        <time>2012-12-15T07:52:27Z</time>
      </trkpt>
      <trkpt lat="47.28708" lon="4.92904">
        <ele>637</ele>
        <time>2012-12-15T07:52:30Z</time>
      </trkpt>
      <trkpt lat="47.28706" lon="4.9291">
        <ele>637</ele>
        <time>2012-12-15T07:52:32Z</time>
      </trkpt>
      <trkpt lat="47.28704" lon="4.92917">
        <ele>637</ele>
        <time>2012-12-15T07:52:34Z</time>
      </trkpt>
      <trkpt lat="47.287" lon="4.9292">
        <ele>636</ele>
        <time>2012-12-15T07:52:37Z</time>
      </trkpt>
      <trkpt lat="47.28694" lon="4.92921">
        <ele>636</ele>
        <time>2012-12-15T07:52:41Z</time>
      </trkpt>
      <trkpt lat="47.28688" lon="4.92922">
        <ele>636</ele>
        <time>2012-12-15T07:52:45Z</time>
      </trkpt>
      <trkpt lat="47.28682" lon="4.92923">
        <ele>636</ele>
        <time>2012-12-15T07:52:50Z</time>
      </trkpt>
      <trkpt lat="47.28675" lon="4.92923">
        <ele>635</ele>
        <time>2012-12-15T07:52:53Z</time>
      </trkpt>
      <trkpt lat="47.2867" lon="4.92923">
        <ele>635</ele>
        <time>2012-12-15T07:52:56Z</time>
      </trkpt>
      <trkpt lat="47.28665" lon="4.92922">
        <ele>636</ele>
        <time>2012-12-15T07:52:59Z</time>
      </trkpt>
      <trkpt lat="47.28659" lon="4.92923">
        <ele>637</ele>
        <time>2012-12-15T07:53:02Z</time>
      </trkpt>
      <trkpt lat="47.28654" lon="4.92924">
        <ele>638</ele>
        <time>2012-12-15T07:53:06Z</time>
      </trkpt>
      <trkpt lat="47.28649" lon="4.92923">
        <ele>639</ele>
        <time>2012-12-15T07:53:09Z</time>
      </trkpt>
      <trkpt lat="47.28642" lon="4.92923">
        <ele>641</ele>
        <time>2012-12-15T07:53:13Z</time>
      </trkpt>
      <trkpt lat="47.28637" lon="4.92923">
        <ele>640</ele>
        <time>2012-12-15T07:53:15Z</time>
      </trkpt>
      <trkpt lat="47.28631" lon="4.92921">
        <ele>640</ele>
        <time>2012-12-15T07:53:18Z</time>
      </trkpt>
      <trkpt lat="47.28626" lon="4.9292">
        <ele>642</ele>
        <time>2012-12-15T07:53:21Z</time>
      </trkpt>
      <trkpt lat="47.2862" lon="4.92918">
        <ele>641</ele>
        <time>2012-12-15T07:53:25Z</time>
      </trkpt>
      <trkpt lat="47.28615" lon="4.92917">
        <ele>641</ele>
        <time>2012-12-15T07:53:27Z</time>
      </trkpt>
      <trkpt lat="47.2861" lon="4.92918">
        <ele>641</ele>
        <time>2012-12-15T07:53:29Z</time>
      </trkpt>
      <trkpt lat="47.28605" lon="4.92917">
        <ele>641</ele>
        <time>2012-12-15T07:53:32Z</time>
      </trkpt>
      <trkpt lat="47.28599" lon="4.92916">
        <ele>641</ele>
        <time>2012-12-15T07:53:35Z</time>
      </trkpt>
      <trkpt lat="47.28594" lon="4.92915">
        <ele>642</ele>
        <time>2012-12-15T07:53:38Z</time>
      </trkpt>
      <trkpt lat="47.28588" lon="4.92913">
        <ele>641</ele>
        <time>2012-12-15T07:53:41Z</time>
      </trkpt>
      <trkpt lat="47.28583" lon="4.92913">
        <ele>640</ele>
        <time>2012-12-15T07:53:43Z</time>
      </trkpt>
      <trkpt lat="47.28577" lon="4.92913">
        <ele>640</ele>
        <time>2012-12-15T07:53:45Z</time>
      </trkpt>
      <trkpt lat="47.28571" lon="4.92914">
        <ele>639</ele>
        <time>2012-12-15T07:53:48Z</time>
      </trkpt>
      <trkpt lat="47.28564" lon="4.92913">
        <ele>640</ele>
        <time>2012-12-15T07:53:51Z</time>
      </trkpt>
      <trkpt lat="47.28559" lon="4.92913">
        <ele>639</ele>
        <time>2012-12-15T07:53:53Z</time>
      </trkpt>
      <trkpt lat="47.28554" lon="4.92913">
        <ele>639</ele>
        <time>2012-12-15T07:53:56Z</time>
      </trkpt>
      <trkpt lat="47.28548" lon="4.92912">
        <ele>639</ele>
        <time>2012-12-15T07:54:00Z</time>
      </trkpt>
      <trkpt lat="47.28542" lon="4.92912">
        <ele>641</ele>
        <time>2012-12-15T07:54:03Z</time>
      </trkpt>
      <trkpt lat="47.28536" lon="4.92913">
        <ele>640</ele>
        <time>2012-12-15T07:54:06Z</time>
      </trkpt>
      <trkpt lat="47.28532" lon="4.92912">
        <ele>637</ele>
        <time>2012-12-15T07:54:11Z</time>
      </trkpt>
      <trkpt lat="47.28529" lon="4.92907">
        <ele>633</ele>
        <time>2012-12-15T07:55:36Z</time>
      </trkpt>
      <trkpt lat="47.28529" lon="4.92897">
        <ele>634</ele>
        <time>2012-12-15T07:55:41Z</time>
      </trkpt>
      <trkpt lat="47.28527" lon="4.9289">
        <ele>634</ele>
        <time>2012-12-15T07:55:44Z</time>
      </trkpt>
      <trkpt lat="47.28526" lon="4.92884">
        <ele>634</ele>
        <time>2012-12-15T07:55:48Z</time>
      </trkpt>
      <trkpt lat="47.28524" lon="4.92875">
        <ele>634</ele>
        <time>2012-12-15T07:55:52Z</time>
      </trkpt>
      <trkpt lat="47.28526" lon="4.92869">
        <ele>635</ele>
        <time>2012-12-15T07:55:54Z</time>
      </trkpt>
      <trkpt lat="47.28527" lon="4.92861">
        <ele>636</ele>
        <time>2012-12-15T07:55:57Z</time>
      </trkpt>
      <trkpt lat="47.28528" lon="4.92851">
        <ele>637</ele>
        <time>2012-12-15T07:56:01Z</time>
      </trkpt>
      <trkpt lat="47.28526" lon="4.92845">
        <ele>637</ele>
        <time>2012-12-15T07:56:04Z</time>
      </trkpt>
      <trkpt lat="47.28526" lon="4.92834">
        <ele>640</ele>
        <time>2012-12-15T07:56:08Z</time>
      </trkpt>
      <trkpt lat="47.28527" lon="4.92826">
        <ele>640</ele>
        <time>2012-12-15T07:56:11Z</time>
      </trkpt>
      <trkpt lat="47.28527" lon="4.92817">
        <ele>640</ele>
        <time>2012-12-15T07:56:15Z</time>
      </trkpt>
      <trkpt lat="47.28529" lon="4.92811">
        <ele>640</ele>
        <time>2012-12-15T07:56:18Z</time>
      </trkpt>
      <trkpt lat="47.2853" lon="4.92802">
        <ele>640</ele>
        <time>2012-12-15T07:56:20Z</time>
      </trkpt>
      <trkpt lat="47.28532" lon="4.92795">
        <ele>638</ele>
        <time>2012-12-15T07:56:22Z</time>
      </trkpt>
      <trkpt lat="47.28531" lon="4.92787">
        <ele>638</ele>
        <time>2012-12-15T07:56:25Z</time>
      </trkpt>
      <trkpt lat="47.28531" lon="4.9278">
        <ele>637</ele>
        <time>2012-12-15T07:56:28Z</time>
      </trkpt>
      <trkpt lat="47.2853" lon="4.92772">
        <ele>637</ele>
        <time>2012-12-15T07:56:31Z</time>
      </trkpt>
      <trkpt lat="47.2853" lon="4.92765">
        <ele>636</ele>
        <time>2012-12-15T07:56:34Z</time>
      </trkpt>
      <trkpt lat="47.28527" lon="4.92759">
        <ele>635</ele>
        <time>2012-12-15T07:56:38Z</time>
      </trkpt>
      <trkpt lat="47.28522" lon="4.92756">
        <ele>635</ele>
        <time>2012-12-15T07:56:43Z</time>
      </trkpt>
      <trkpt lat="47.28517" lon="4.92757">
        <ele>635</ele>
        <time>2012-12-15T07:56:45Z</time>
      </trkpt>
      <trkpt lat="47.28512" lon="4.9275">
        <ele>635</ele>
        <time>2012-12-15T07:56:48Z</time>
      </trkpt>
      <trkpt lat="47.28506" lon="4.92745">
        <ele>634</ele>
        <time>2012-12-15T07:56:51Z</time>
      </trkpt>
      <trkpt lat="47.28502" lon="4.92742">
        <ele>633</ele>
        <time>2012-12-15T07:56:56Z</time>
      </trkpt>
      <trkpt lat="47.28497" lon="4.92738">
        <ele>633</ele>
        <time>2012-12-15T07:56:59Z</time>
      </trkpt>
      <trkpt lat="47.28494" lon="4.9273">
        <ele>633</ele>
        <time>2012-12-15T07:57:04Z</time>
      </trkpt>
      <trkpt lat="47.28491" lon="4.92723">
        <ele>634</ele>
        <time>2012-12-15T07:57:07Z</time>
      </trkpt>
      <trkpt lat="47.28488" lon="4.92717">
        <ele>633</ele>
        <time>2012-12-15T07:57:11Z</time>
      </trkpt>
      <trkpt lat="47.28486" lon="4.9271">
        <ele>633</ele>
        <time>2012-12-15T07:57:14Z</time>
      </trkpt>
      <trkpt lat="47.28481" lon="4.92706">
        <ele>633</ele>
        <time>2012-12-15T07:57:18Z</time>
      </trkpt>
      <trkpt lat="47.28477" lon="4.92701">
        <ele>633</ele>
        <time>2012-12-15T07:57:20Z</time>
      </trkpt>
      <trkpt lat="47.28473" lon="4.92694">
        <ele>632</ele>
        <time>2012-12-15T07:57:24Z</time>
      </trkpt>
      <trkpt lat="47.28471" lon="4.92687">
        <ele>633</ele>
        <time>2012-12-15T07:57:28Z</time>
      </trkpt>
      <trkpt lat="47.28471" lon="4.92687">
        <ele>633</ele>
        <time>2012-12-15T07:57:28Z</time>
      </trkpt>
      <trkpt lat="47.28471" lon="4.92687">
        <ele>633</ele>
        <time>2012-12-15T07:57:31Z</time>
      </trkpt>
      <trkpt lat="47.28466" lon="4.92684">
        <ele>635</ele>
        <time>2012-12-15T07:58:03Z</time>
      </trkpt>
      <trkpt lat="47.28463" lon="4.92679">
        <ele>634</ele>
        <time>2012-12-15T07:58:06Z</time>
      </trkpt>
      <trkpt lat="47.28464" lon="4.92672">
        <ele>634</ele>
        <time>2012-12-15T07:58:10Z</time>
      </trkpt>
      <trkpt lat="47.28465" lon="4.92665">
        <ele>634</ele>
        <time>2012-12-15T07:58:15Z</time>
      </trkpt>
      <trkpt lat="47.28467" lon="4.92657">
        <ele>635</ele>
        <time>2012-12-15T07:58:19Z</time>
      </trkpt>
      <trkpt lat="47.28466" lon="4.92649">
        <ele>634</ele>
        <time>2012-12-15T07:58:22Z</time>
      </trkpt>
      <trkpt lat="47.28466" lon="4.92642">
        <ele>634</ele>
        <time>2012-12-15T07:58:25Z</time>
      </trkpt>
      <trkpt lat="47.28464" lon="4.92635">
        <ele>635</ele>
        <time>2012-12-15T07:58:28Z</time>
      </trkpt>
      <trkpt lat="47.28461" lon="4.9263">
        <ele>634</ele>
        <time>2012-12-15T07:58:32Z</time>
      </trkpt>
      <trkpt lat="47.28456" lon="4.92626">
        <ele>632</ele>
        <time>2012-12-15T07:58:34Z</time>
      </trkpt>
      <trkpt lat="47.28452" lon="4.92621">
        <ele>630</ele>
        <time>2012-12-15T07:58:37Z</time>
      </trkpt>
      <trkpt lat="47.28448" lon="4.92617">
        <ele>631</ele>
        <time>2012-12-15T07:58:41Z</time>
      </trkpt>
      <trkpt lat="47.28443" lon="4.92613">
        <ele>631</ele>
        <time>2012-12-15T07:58:46Z</time>
      </trkpt>
      <trkpt lat="47.28439" lon="4.92608">
        <ele>632</ele>
        <time>2012-12-15T07:58:49Z</time>
      </trkpt>
      <trkpt lat="47.28434" lon="4.92604">
        <ele>633</ele>
        <time>2012-12-15T07:58:52Z</time>
      </trkpt>
      <trkpt lat="47.28429" lon="4.92599">
        <ele>632</ele>
        <time>2012-12-15T07:58:55Z</time>
      </trkpt>
      <trkpt lat="47.28423" lon="4.92593">
        <ele>629</ele>
        <time>2012-12-15T07:58:59Z</time>
      </trkpt>
      <trkpt lat="47.28418" lon="4.92588">
        <ele>628</ele>
        <time>2012-12-15T07:59:02Z</time>
      </trkpt>
      <trkpt lat="47.28414" lon="4.92584">
        <ele>627</ele>
        <time>2012-12-15T07:59:06Z</time>
      </trkpt>
      <trkpt lat="47.28409" lon="4.9258">
        <ele>626</ele>
        <time>2012-12-15T07:59:09Z</time>
      </trkpt>
      <trkpt lat="47.28406" lon="4.92574">
        <ele>626</ele>
        <time>2012-12-15T07:59:12Z</time>
      </trkpt>
      <trkpt lat="47.28402" lon="4.92569">
        <ele>627</ele>
        <time>2012-12-15T07:59:14Z</time>
      </trkpt>
      <trkpt lat="47.28398" lon="4.92566">
        <ele>627</ele>
        <time>2012-12-15T07:59:16Z</time>
      </trkpt>
      <trkpt lat="47.28394" lon="4.92561">
        <ele>627</ele>
        <time>2012-12-15T07:59:18Z</time>
      </trkpt>
      <trkpt lat="47.2839" lon="4.92556">
        <ele>626</ele>
        <time>2012-12-15T07:59:20Z</time>
      </trkpt>
      <trkpt lat="47.28386" lon="4.92552">
        <ele>625</ele>
        <time>2012-12-15T07:59:22Z</time>
      </trkpt>
      <trkpt lat="47.28382" lon="4.92546">
        <ele>624</ele>
        <time>2012-12-15T07:59:25Z</time>
      </trkpt>
      <trkpt lat="47.28377" lon="4.92542">
        <ele>626</ele>
        <time>2012-12-15T07:59:27Z</time>
      </trkpt>
      <trkpt lat="47.28372" lon="4.92537">
        <ele>626</ele>
        <time>2012-12-15T07:59:30Z</time>
      </trkpt>
      <trkpt lat="47.28368" lon="4.92531">
        <ele>624</ele>
        <time>2012-12-15T07:59:32Z</time>
      </trkpt>
      <trkpt lat="47.28364" lon="4.92525">
        <ele>623</ele>
        <time>2012-12-15T07:59:35Z</time>
      </trkpt>
      <trkpt lat="47.2836" lon="4.92521">
        <ele>621</ele>
        <time>2012-12-15T07:59:38Z</time>
      </trkpt>
      <trkpt lat="47.28355" lon="4.92516">
        <ele>623</ele>
        <time>2012-12-15T07:59:43Z</time>
      </trkpt>
      <trkpt lat="47.2835" lon="4.92512">
        <ele>622</ele>
        <time>2012-12-15T07:59:45Z</time>
      </trkpt>
      <trkpt lat="47.28346" lon="4.92506">
        <ele>622</ele>
        <time>2012-12-15T07:59:48Z</time>
      </trkpt>
      <trkpt lat="47.28342" lon="4.92502">
        <ele>622</ele>
        <time>2012-12-15T07:59:50Z</time>
      </trkpt>
      <trkpt lat="47.28338" lon="4.92499">
        <ele>623</ele>
        <time>2012-12-15T07:59:52Z</time>
      </trkpt>
      <trkpt lat="47.28333" lon="4.92493">
        <ele>622</ele>
        <time>2012-12-15T07:59:55Z</time>
      </trkpt>
      <trkpt lat="47.28328" lon="4.9249">
        <ele>622</ele>
        <time>2012-12-15T07:59:57Z</time>
      </trkpt>
      <trkpt lat="47.28325" lon="4.92486">
        <ele>622</ele>
        <time>2012-12-15T07:59:59Z</time>
      </trkpt>
      <trkpt lat="47.28321" lon="4.9248">
        <ele>622</ele>
        <time>2012-12-15T08:00:02Z</time>
      </trkpt>
      <trkpt lat="47.28316" lon="4.92474">
        <ele>622</ele>
        <time>2012-12-15T08:00:05Z</time>
      </trkpt>
      <trkpt lat="47.2831" lon="4.92469">
        <ele>623</ele>
        <time>2012-12-15T08:00:08Z</time>
      </trkpt>
      <trkpt lat="47.28306" lon="4.92464">
        <ele>623</ele>
        <time>2012-12-15T08:00:11Z</time>
      </trkpt>
      <trkpt lat="47.28303" lon="4.92458">
        <ele>621</ele>
        <time>2012-12-15T08:00:13Z</time>
      </trkpt>
      <trkpt lat="47.28299" lon="4.92454">
        <ele>621</ele>
        <time>2012-12-15T08:00:15Z</time>
      </trkpt>
      <trkpt lat="47.28295" lon="4.9245">
        <ele>621</ele>
        <time>2012-12-15T08:00:17Z</time>
      </trkpt>
      <trkpt lat="47.2829" lon="4.92446">
        <ele>620</ele>
        <time>2012-12-15T08:00:20Z</time>
      </trkpt>
      <trkpt lat="47.28284" lon="4.92441">
        <ele>619</ele>
        <time>2012-12-15T08:00:22Z</time>
      </trkpt>
      <trkpt lat="47.28281" lon="4.92433">
        <ele>619</ele>
        <time>2012-12-15T08:00:24Z</time>
      </trkpt>
      <trkpt lat="47.28276" lon="4.92428">
        <ele>618</ele>
        <time>2012-12-15T08:00:27Z</time>
      </trkpt>
      <trkpt lat="47.28271" lon="4.92424">
        <ele>618</ele>
        <time>2012-12-15T08:00:30Z</time>
      </trkpt>
      <trkpt lat="47.28266" lon="4.92417">
        <ele>617</ele>
        <time>2012-12-15T08:00:33Z</time>
      </trkpt>
      <trkpt lat="47.28263" lon="4.9241">
        <ele>615</ele>
        <time>2012-12-15T08:00:36Z</time>
      </trkpt>
      <trkpt lat="47.28259" lon="4.92405">
        <ele>613</ele>
        <time>2012-12-15T08:00:38Z</time>
      </trkpt>
      <trkpt lat="47.28255" lon="4.92398">
        <ele>611</ele>
        <time>2012-12-15T08:00:41Z</time>
      </trkpt>
      <trkpt lat="47.28251" lon="4.92394">
        <ele>613</ele>
        <time>2012-12-15T08:00:43Z</time>
      </trkpt>
      <trkpt lat="47.28246" lon="4.9239">
        <ele>612</ele>
        <time>2012-12-15T08:00:45Z</time>
      </trkpt>
      <trkpt lat="47.28243" lon="4.92385">
        <ele>612</ele>
        <time>2012-12-15T08:00:47Z</time>
      </trkpt>
      <trkpt lat="47.28239" lon="4.92378">
        <ele>612</ele>
        <time>2012-12-15T08:00:49Z</time>
      </trkpt>
      <trkpt lat="47.28234" lon="4.92373">
        <ele>610</ele>
        <time>2012-12-15T08:00:52Z</time>
      </trkpt>
      <trkpt lat="47.28231" lon="4.92367">
        <ele>609</ele>
        <time>2012-12-15T08:00:55Z</time>
      </trkpt>
      <trkpt lat="47.28227" lon="4.92362">
        <ele>610</ele>
        <time>2012-12-15T08:00:59Z</time>
      </trkpt>
      <trkpt lat="47.28222" lon="4.92354">
        <ele>612</ele>
        <time>2012-12-15T08:01:02Z</time>
      </trkpt>
      <trkpt lat="47.28217" lon="4.92346">
        <ele>611</ele>
        <time>2012-12-15T08:01:05Z</time>
      </trkpt>
      <trkpt lat="47.28213" lon="4.92339">
        <ele>608</ele>
        <time>2012-12-15T08:01:08Z</time>
      </trkpt>
      <trkpt lat="47.28209" lon="4.92334">
        <ele>607</ele>
        <time>2012-12-15T08:01:10Z</time>
      </trkpt>
      <trkpt lat="47.28206" lon="4.92329">
        <ele>608</ele>
        <time>2012-12-15T08:01:12Z</time>
      </trkpt>
      <trkpt lat="47.28201" lon="4.92325">
        <ele>609</ele>
        <time>2012-12-15T08:01:14Z</time>
      </trkpt>
      <trkpt lat="47.28196" lon="4.92319">
        <ele>610</ele>
        <time>2012-12-15T08:01:17Z</time>
      </trkpt>
      <trkpt lat="47.28193" lon="4.92312">
        <ele>606</ele>
        <time>2012-12-15T08:01:20Z</time>
      </trkpt>
      <trkpt lat="47.28188" lon="4.92306">
        <ele>606</ele>
        <time>2012-12-15T08:01:22Z</time>
      </trkpt>
      <trkpt lat="47.28184" lon="4.92304">
        <ele>606</ele>
        <time>2012-12-15T08:01:25Z</time>
      </trkpt>
      <trkpt lat="47.28178" lon="4.923">
        <ele>604</ele>
        <time>2012-12-15T08:01:27Z</time>
      </trkpt>
      <trkpt lat="47.28174" lon="4.92294">
        <ele>605</ele>
        <time>2012-12-15T08:01:29Z</time>
      </trkpt>
      <trkpt lat="47.28169" lon="4.9229">
        <ele>605</ele>
        <time>2012-12-15T08:01:32Z</time>
      </trkpt>
      <trkpt lat="47.28164" lon="4.92284">
        <ele>606</ele>
        <time>2012-12-15T08:01:35Z</time>
      </trkpt>
      <trkpt lat="47.28161" lon="4.9228">
        <ele>607</ele>
        <time>2012-12-15T08:01:38Z</time>
      </trkpt>
      <trkpt lat="47.28157" lon="4.92275">
        <ele>606</ele>
        <time>2012-12-15T08:01:42Z</time>
      </trkpt>
      <trkpt lat="47.28154" lon="4.9227">
        <ele>606</ele>
        <time>2012-12-15T08:01:45Z</time>
      </trkpt>
      <trkpt lat="47.28149" lon="4.92264">
        <ele>607</ele>
        <time>2012-12-15T08:01:48Z</time>
      </trkpt>
      <trkpt lat="47.28145" lon="4.9226">
        <ele>610</ele>
        <time>2012-12-15T08:01:51Z</time>
      </trkpt>
      <trkpt lat="47.28138" lon="4.92255">
        <ele>611</ele>
        <time>2012-12-15T08:01:54Z</time>
      </trkpt>
      <trkpt lat="47.28132" lon="4.92251">
        <ele>611</ele>
        <time>2012-12-15T08:01:56Z</time>
      </trkpt>
      <trkpt lat="47.28132" lon="4.92251">
        <ele>611</ele>
        <time>2012-12-15T08:01:56Z</time>
      </trkpt>
      <trkpt lat="47.28132" lon="4.92251">
        <ele>611</ele>
        <time>2012-12-15T08:01:57Z</time>
      </trkpt>
      <trkpt lat="47.28128" lon="4.92246">
        <ele>609</ele>
        <time>2012-12-15T08:02:00Z</time>
      </trkpt>
      <trkpt lat="47.28123" lon="4.92244">
        <ele>609</ele>
        <time>2012-12-15T08:02:03Z</time>
      </trkpt>
      <trkpt lat="47.28119" lon="4.92235">
        <ele>606</ele>
        <time>2012-12-15T08:02:06Z</time>
      </trkpt>
      <trkpt lat="47.28112" lon="4.92229">
        <ele>604</ele>
        <time>2012-12-15T08:02:09Z</time>
      </trkpt>
      <trkpt lat="47.28108" lon="4.92224">
        <ele>600</ele>
        <time>2012-12-15T08:02:12Z</time>
      </trkpt>
      <trkpt lat="47.28103" lon="4.92218">
        <ele>596</ele>
        <time>2012-12-15T08:02:15Z</time>
      </trkpt>
      <trkpt lat="47.28099" lon="4.92214">
        <ele>595</ele>
        <time>2012-12-15T08:02:17Z</time>
      </trkpt>
      <trkpt lat="47.28094" lon="4.92209">
        <ele>595</ele>
        <time>2012-12-15T08:02:21Z</time>
      </trkpt>
      <trkpt lat="47.28091" lon="4.92205">
        <ele>595</ele>
        <time>2012-12-15T08:02:24Z</time>
      </trkpt>
      <trkpt lat="47.28087" lon="4.92199">
        <ele>593</ele>
        <time>2012-12-15T08:02:27Z</time>
      </trkpt>
      <trkpt lat="47.28082" lon="4.92194">
        <ele>593</ele>
        <time>2012-12-15T08:02:30Z</time>
      </trkpt>
      <trkpt lat="47.28078" lon="4.92188">
        <ele>593</ele>
        <time>2012-12-15T08:02:32Z</time>
      </trkpt>
      <trkpt lat="47.28074" lon="4.92183">
        <ele>590</ele>
        <time>2012-12-15T08:02:35Z</time>
      </trkpt>
      <trkpt lat="47.2807" lon="4.92178">
        <ele>589</ele>
        <time>2012-12-15T08:02:37Z</time>
      </trkpt>
      <trkpt lat="47.28067" lon="4.92174">
        <ele>590</ele>
        <time>2012-12-15T08:02:40Z</time>
      </trkpt>
      <trkpt lat="47.28061" lon="4.92169">
        <ele>590</ele>
        <time>2012-12-15T08:02:43Z</time>
      </trkpt>
      <trkpt lat="47.28057" lon="4.92166">
        <ele>593</ele>
        <time>2012-12-15T08:02:45Z</time>
      </trkpt>
      <trkpt lat="47.28053" lon="4.92162">
        <ele>589</ele>
        <time>2012-12-15T08:02:55Z</time>
      </trkpt>
      <trkpt lat="47.28052" lon="4.92156">
        <ele>586</ele>
        <time>2012-12-15T08:02:58Z</time>
      </trkpt>
      <trkpt lat="47.28047" lon="4.92154">
        <ele>586</ele>
        <time>2012-12-15T08:03:02Z</time>
      </trkpt>
      <trkpt lat="47.28044" lon="4.92148">
        <ele>585</ele>
        <time>2012-12-15T08:03:06Z</time>
      </trkpt>
      <trkpt lat="47.28041" lon="4.92142">
        <ele>584</ele>
        <time>2012-12-15T08:03:09Z</time>
      </trkpt>
      <trkpt lat="47.28039" lon="4.92136">
        <ele>581</ele>
        <time>2012-12-15T08:03:12Z</time>
      </trkpt>
      <trkpt lat="47.28039" lon="4.92143">
        <ele>579</ele>
        <time>2012-12-15T08:03:21Z</time>
      </trkpt>
      <trkpt lat="47.28042" lon="4.92149">
        <ele>577</ele>
        <time>2012-12-15T08:03:24Z</time>
      </trkpt>
      <trkpt lat="47.28045" lon="4.92158">
        <ele>577</ele>
        <time>2012-12-15T08:03:29Z</time>
      </trkpt>
      <trkpt lat="47.28049" lon="4.92164">
        <ele>577</ele>
        <time>2012-12-15T08:03:33Z</time>
      </trkpt>
      <trkpt lat="47.28052" lon="4.9217">
        <ele>576</ele>
        <time>2012-12-15T08:03:36Z</time>
      </trkpt>
      <trkpt lat="47.28056" lon="4.92176">
        <ele>574</ele>
        <time>2012-12-15T08:03:39Z</time>
      </trkpt>
      <trkpt lat="47.28058" lon="4.92169">
        <ele>575</ele>
        <time>2012-12-15T08:03:53Z</time>
      </trkpt>
      <trkpt lat="47.28055" lon="4.92163">
        <ele>571</ele>
        <time>2012-12-15T08:03:59Z</time>
      </trkpt>
      <trkpt lat="47.28055" lon="4.92155">
        <ele>567</ele>
        <time>2012-12-15T08:04:05Z</time>
      </trkpt>
      <trkpt lat="47.2805" lon="4.9215">
        <ele>569</ele>
        <time>2012-12-15T08:04:12Z</time>
      </trkpt>
      <trkpt lat="47.28046" lon="4.92143">
        <ele>572</ele>
        <time>2012-12-15T08:04:16Z</time>
      </trkpt>
      <trkpt lat="47.28042" lon="4.92136">
        <ele>572</ele>
        <time>2012-12-15T08:04:20Z</time>
      </trkpt>
      <trkpt lat="47.28038" lon="4.92131">
        <ele>572</ele>
        <time>2012-12-15T08:04:23Z</time>
      </trkpt>
      <trkpt lat="47.28032" lon="4.92128">
        <ele>572</ele>
        <time>2012-12-15T08:04:27Z</time>
      </trkpt>
      <trkpt lat="47.28026" lon="4.92122">
        <ele>572</ele>
        <time>2012-12-15T08:04:30Z</time>
      </trkpt>
      <trkpt lat="47.28022" lon="4.92117">
        <ele>573</ele>
        <time>2012-12-15T08:04:33Z</time>
      </trkpt>
      <trkpt lat="47.28018" lon="4.92112">
        <ele>573</ele>
        <time>2012-12-15T08:04:37Z</time>
      </trkpt>
      <trkpt lat="47.28014" lon="4.92105">
        <ele>572</ele>
        <time>2012-12-15T08:04:41Z</time>
      </trkpt>
      <trkpt lat="47.28009" lon="4.92104">
        <ele>571</ele>
        <time>2012-12-15T08:04:45Z</time>
      </trkpt>
      <trkpt lat="47.28004" lon="4.921">
        <ele>571</ele>
        <time>2012-12-15T08:04:48Z</time>
      </trkpt>
      <trkpt lat="47.27999" lon="4.92095">
        <ele>570</ele>
        <time>2012-12-15T08:04:52Z</time>
      </trkpt>
      <trkpt lat="47.27994" lon="4.92089">
        <ele>570</ele>
        <time>2012-12-15T08:04:55Z</time>
      </trkpt>
      <trkpt lat="47.27989" lon="4.92084">
        <ele>569</ele>
        <time>2012-12-15T08:04:58Z</time>
      </trkpt>
      <trkpt lat="47.27985" lon="4.92079">
        <ele>567</ele>
        <time>2012-12-15T08:05:02Z</time>
      </trkpt>
      <trkpt lat="47.27981" lon="4.92074">
        <ele>566</ele>
        <time>2012-12-15T08:05:05Z</time>
      </trkpt>
      <trkpt lat="47.27977" lon="4.92067">
        <ele>566</ele>
        <time>2012-12-15T08:05:09Z</time>
      </trkpt>
      <trkpt lat="47.27974" lon="4.92061">
        <ele>568</ele>
        <time>2012-12-15T08:05:12Z</time>
      </trkpt>
      <trkpt lat="47.27971" lon="4.92055">
        <ele>569</ele>
        <time>2012-12-15T08:05:16Z</time>
      </trkpt>
      <trkpt lat="47.27967" lon="4.92047">
        <ele>569</ele>
        <time>2012-12-15T08:05:20Z</time>
      </trkpt>
      <trkpt lat="47.27965" lon="4.92039">
        <ele>570</ele>
        <time>2012-12-15T08:05:23Z</time>
      </trkpt>
      <trkpt lat="47.27964" lon="4.92031">
        <ele>567</ele>
        <time>2012-12-15T08:05:27Z</time>
      </trkpt>
      <trkpt lat="47.27961" lon="4.92025">
        <ele>568</ele>
        <time>2012-12-15T08:05:30Z</time>
      </trkpt>
      <trkpt lat="47.27958" lon="4.92019">
        <ele>571</ele>
        <time>2012-12-15T08:05:34Z</time>
      </trkpt>
      <trkpt lat="47.27956" lon="4.92012">
        <ele>573</ele>
        <time>2012-12-15T08:05:38Z</time>
      </trkpt>
      <trkpt lat="47.27954" lon="4.92004">
        <ele>573</ele>
        <time>2012-12-15T08:05:41Z</time>
      </trkpt>
      <trkpt lat="47.27952" lon="4.91996">
        <ele>573</ele>
        <time>2012-12-15T08:05:44Z</time>
      </trkpt>
      <trkpt lat="47.27949" lon="4.91991">
        <ele>572</ele>
        <time>2012-12-15T08:05:47Z</time>
      </trkpt>
      <trkpt lat="47.27946" lon="4.91985">
        <ele>573</ele>
        <time>2012-12-15T08:05:50Z</time>
      </trkpt>
      <trkpt lat="47.27945" lon="4.91979">
        <ele>573</ele>
        <time>2012-12-15T08:05:53Z</time>
      </trkpt>
      <trkpt lat="47.27943" lon="4.91972">
        <ele>573</ele>
        <time>2012-12-15T08:05:56Z</time>
      </trkpt>
      <trkpt lat="47.2794" lon="4.91965">
        <ele>572</ele>
        <time>2012-12-15T08:05:59Z</time>
      </trkpt>
      <trkpt lat="47.27937" lon="4.91957">
        <ele>574</ele>
        <time>2012-12-15T08:06:02Z</time>
      </trkpt>
      <trkpt lat="47.27935" lon="4.9195">
        <ele>574</ele>
        <time>2012-12-15T08:06:05Z</time>
      </trkpt>
      <trkpt lat="47.27932" lon="4.91941">
        <ele>574</ele>
        <time>2012-12-15T08:06:10Z</time>
      </trkpt>
      <trkpt lat="47.27929" lon="4.91935">
        <ele>576</ele>
        <time>2012-12-15T08:06:14Z</time>
      </trkpt>
      <trkpt lat="47.27929" lon="4.91927">
        <ele>576</ele>
        <time>2012-12-15T08:06:18Z</time>
      </trkpt>
      <trkpt lat="47.27929" lon="4.91919">
        <ele>575</ele>
        <time>2012-12-15T08:06:21Z</time>
      </trkpt>
      <trkpt lat="47.27929" lon="4.91911">
        <ele>578</ele>
        <time>2012-12-15T08:06:24Z</time>
      </trkpt>
      <trkpt lat="47.2793" lon="4.91903">
        <ele>578</ele>
        <time>2012-12-15T08:06:28Z</time>
      </trkpt>
      <trkpt lat="47.2793" lon="4.91895">
        <ele>577</ele>
        <time>2012-12-15T08:06:31Z</time>
      </trkpt>
      <trkpt lat="47.27931" lon="4.91889">
        <ele>576</ele>
        <time>2012-12-15T08:06:33Z</time>
      </trkpt>
      <trkpt lat="47.27932" lon="4.91881">
        <ele>576</ele>
        <time>2012-12-15T08:06:36Z</time>
      </trkpt>
      <trkpt lat="47.27934" lon="4.91873">
        <ele>575</ele>
        <time>2012-12-15T08:06:39Z</time>
      </trkpt>
      <trkpt lat="47.27935" lon="4.91864">
        <ele>575</ele>
        <time>2012-12-15T08:06:42Z</time>
      </trkpt>
      <trkpt lat="47.27936" lon="4.91856">
        <ele>573</ele>
        <time>2012-12-15T08:06:46Z</time>
      </trkpt>
      <trkpt lat="47.27938" lon="4.91849">
        <ele>572</ele>
        <time>2012-12-15T08:06:49Z</time>
      </trkpt>
      <trkpt lat="47.2794" lon="4.91841">
        <ele>571</ele>
        <time>2012-12-15T08:06:52Z</time>
      </trkpt>
      <trkpt lat="47.27942" lon="4.91833">
        <ele>569</ele>
        <time>2012-12-15T08:06:55Z</time>
      </trkpt>
      <trkpt lat="47.27944" lon="4.91824">
        <ele>566</ele>
        <time>2012-12-15T08:06:59Z</time>
      </trkpt>
      <trkpt lat="47.27946" lon="4.91817">
        <ele>567</ele>
        <time>2012-12-15T08:07:03Z</time>
      </trkpt>
      <trkpt lat="47.2795" lon="4.91811">
        <ele>567</ele>
        <time>2012-12-15T08:07:07Z</time>
      </trkpt>
      <trkpt lat="47.27953" lon="4.91807">
        <ele>567</ele>
        <time>2012-12-15T08:07:11Z</time>
      </trkpt>
      <trkpt lat="47.27956" lon="4.91799">
        <ele>567</ele>
        <time>2012-12-15T08:07:16Z</time>
      </trkpt>
      <trkpt lat="47.2796" lon="4.91792">
        <ele>565</ele>
        <time>2012-12-15T08:07:18Z</time>
      </trkpt>
      <trkpt lat="47.27963" lon="4.91785">
        <ele>564</ele>
        <time>2012-12-15T08:07:21Z</time>
      </trkpt>
      <trkpt lat="47.27967" lon="4.91774">
        <ele>562</ele>
        <time>2012-12-15T08:07:24Z</time>
      </trkpt>
      <trkpt lat="47.2797" lon="4.91767">
        <ele>561</ele>
        <time>2012-12-15T08:07:27Z</time>
      </trkpt>
      <trkpt lat="47.27973" lon="4.91762">
        <ele>560</ele>
        <time>2012-12-15T08:07:30Z</time>
      </trkpt>
      <trkpt lat="47.27976" lon="4.91755">
        <ele>560</ele>
        <time>2012-12-15T08:07:33Z</time>
      </trkpt>
      <trkpt lat="47.2798" lon="4.91753">
        <ele>560</ele>
        <time>2012-12-15T08:07:35Z</time>
      </trkpt>
      <trkpt lat="47.27985" lon="4.91747">
        <ele>560</ele>
        <time>2012-12-15T08:07:38Z</time>
      </trkpt>
      <trkpt lat="47.27988" lon="4.91739">
        <ele>560</ele>
        <time>2012-12-15T08:07:41Z</time>
      </trkpt>
      <trkpt lat="47.27992" lon="4.91734">
        <ele>560</ele>
        <time>2012-12-15T08:07:45Z</time>
      </trkpt>
      <trkpt lat="47.27998" lon="4.91732">
        <ele>558</ele>
        <time>2012-12-15T08:07:49Z</time>
      </trkpt>
      <trkpt lat="47.28003" lon="4.91729">
        <ele>559</ele>
        <time>2012-12-15T08:07:52Z</time>
      </trkpt>
      <trkpt lat="47.28008" lon="4.91726">
        <ele>559</ele>
        <time>2012-12-15T08:07:55Z</time>
      </trkpt>
      <trkpt lat="47.28011" lon="4.91721">
        <ele>559</ele>
        <time>2012-12-15T08:07:58Z</time>
      </trkpt>
      <trkpt lat="47.28016" lon="4.91718">
        <ele>556</ele>
        <time>2012-12-15T08:08:02Z</time>
      </trkpt>
      <trkpt lat="47.2802" lon="4.91714">
        <ele>554</ele>
        <time>2012-12-15T08:08:08Z</time>
      </trkpt>
      <trkpt lat="47.28025" lon="4.91712">
        <ele>556</ele>
        <time>2012-12-15T08:08:14Z</time>
      </trkpt>
      <trkpt lat="47.28027" lon="4.91718">
        <ele>563</ele>
        <time>2012-12-15T08:09:28Z</time>
      </trkpt>
      <trkpt lat="47.2803" lon="4.91724">
        <ele>563</ele>
        <time>2012-12-15T08:09:32Z</time>
      </trkpt>
      <trkpt lat="47.28033" lon="4.9173">
        <ele>565</ele>
        <time>2012-12-15T08:09:36Z</time>
      </trkpt>
      <trkpt lat="47.28037" lon="4.91736">
        <ele>566</ele>
        <time>2012-12-15T08:09:40Z</time>
      </trkpt>
      <trkpt lat="47.28042" lon="4.9174">
        <ele>566</ele>
        <time>2012-12-15T08:09:44Z</time>
      </trkpt>
      <trkpt lat="47.28047" lon="4.91742">
        <ele>566</ele>
        <time>2012-12-15T08:09:48Z</time>
      </trkpt>
      <trkpt lat="47.28053" lon="4.91745">
        <ele>565</ele>
        <time>2012-12-15T08:09:53Z</time>
      </trkpt>
      <trkpt lat="47.28058" lon="4.91749">
        <ele>564</ele>
        <time>2012-12-15T08:09:55Z</time>
      </trkpt>
      <trkpt lat="47.28063" lon="4.91752">
        <ele>564</ele>
        <time>2012-12-15T08:09:58Z</time>
      </trkpt>
      <trkpt lat="47.28068" lon="4.91756">
        <ele>563</ele>
        <time>2012-12-15T08:10:01Z</time>
      </trkpt>
      <trkpt lat="47.28074" lon="4.91755">
        <ele>564</ele>
        <time>2012-12-15T08:10:05Z</time>
      </trkpt>
      <trkpt lat="47.28079" lon="4.91756">
        <ele>564</ele>
        <time>2012-12-15T08:10:08Z</time>
      </trkpt>
      <trkpt lat="47.28085" lon="4.91757">
        <ele>562</ele>
        <time>2012-12-15T08:10:13Z</time>
      </trkpt>
      <trkpt lat="47.2809" lon="4.91756">
        <ele>562</ele>
        <time>2012-12-15T08:10:17Z</time>
      </trkpt>
      <trkpt lat="47.28095" lon="4.91756">
        <ele>562</ele>
        <time>2012-12-15T08:10:21Z</time>
      </trkpt>
      <trkpt lat="47.281" lon="4.91754">
        <ele>563</ele>
        <time>2012-12-15T08:10:25Z</time>
      </trkpt>
      <trkpt lat="47.28105" lon="4.91755">
        <ele>562</ele>
        <time>2012-12-15T08:10:28Z</time>
      </trkpt>
      <trkpt lat="47.2811" lon="4.91755">
        <ele>561</ele>
        <time>2012-12-15T08:10:32Z</time>
      </trkpt>
      <trkpt lat="47.28115" lon="4.91754">
        <ele>561</ele>
        <time>2012-12-15T08:10:35Z</time>
      </trkpt>
      <trkpt lat="47.2812" lon="4.91756">
        <ele>559</ele>
        <time>2012-12-15T08:10:39Z</time>
      </trkpt>
      <trkpt lat="47.28125" lon="4.9176">
        <ele>558</ele>
        <time>2012-12-15T08:10:41Z</time>
      </trkpt>
      <trkpt lat="47.2813" lon="4.91759">
        <ele>559</ele>
        <time>2012-12-15T08:10:44Z</time>
      </trkpt>
      <trkpt lat="47.28135" lon="4.91762">
        <ele>560</ele>
        <time>2012-12-15T08:10:47Z</time>
      </trkpt>
      <trkpt lat="47.28141" lon="4.91762">
        <ele>560</ele>
        <time>2012-12-15T08:10:51Z</time>
      </trkpt>
      <trkpt lat="47.28146" lon="4.91764">
        <ele>560</ele>
        <time>2012-12-15T08:10:54Z</time>
      </trkpt>
      <trkpt lat="47.28152" lon="4.91768">
        <ele>560</ele>
        <time>2012-12-15T08:10:57Z</time>
      </trkpt>
      <trkpt lat="47.28159" lon="4.9177">
        <ele>560</ele>
        <time>2012-12-15T08:11:01Z</time>
      </trkpt>
      <trkpt lat="47.28164" lon="4.91773">
        <ele>560</ele>
        <time>2012-12-15T08:11:04Z</time>
      </trkpt>
      <trkpt lat="47.28168" lon="4.91776">
        <ele>563</ele>
        <time>2012-12-15T08:11:07Z</time>
      </trkpt>
      <trkpt lat="47.28174" lon="4.91776">
        <ele>567</ele>
        <time>2012-12-15T08:11:13Z</time>
      </trkpt>
      <trkpt lat="47.28179" lon="4.91779">
        <ele>570</ele>
        <time>2012-12-15T08:11:17Z</time>
      </trkpt>
      <trkpt lat="47.28183" lon="4.91783">
        <ele>571</ele>
        <time>2012-12-15T08:11:20Z</time>
      </trkpt>
      <trkpt lat="47.28187" lon="4.91787">
        <ele>572</ele>
        <time>2012-12-15T08:11:24Z</time>
      </trkpt>
      <trkpt lat="47.2819" lon="4.91793">
        <ele>573</ele>
        <time>2012-12-15T08:11:26Z</time>
      </trkpt>
      <trkpt lat="47.28194" lon="4.91796">
        <ele>572</ele>
        <time>2012-12-15T08:11:29Z</time>
      </trkpt>
      <trkpt lat="47.28198" lon="4.91801">
        <ele>573</ele>
        <time>2012-12-15T08:11:33Z</time>
      </trkpt>
      <trkpt lat="47.28204" lon="4.91805">
        <ele>574</ele>
        <time>2012-12-15T08:11:37Z</time>
      </trkpt>
      <trkpt lat="47.28208" lon="4.9181">
        <ele>573</ele>
        <time>2012-12-15T08:11:41Z</time>
      </trkpt>
      <trkpt lat="47.28213" lon="4.91813">
        <ele>575</ele>
        <time>2012-12-15T08:11:47Z</time>
      </trkpt>
      <trkpt lat="47.28217" lon="4.91815">
        <ele>576</ele>
        <time>2012-12-15T08:11:52Z</time>
      </trkpt>
      <trkpt lat="47.28217" lon="4.91815">
        <ele>576</ele>
        <time>2012-12-15T08:11:52Z</time>
      </trkpt>
      <trkpt lat="47.28217" lon="4.91815">
        <ele>576</ele>
        <time>2012-12-15T08:11:53Z</time>
      </trkpt>
      <trkpt lat="47.28223" lon="4.91818">
        <ele>579</ele>
        <time>2012-12-15T08:12:00Z</time>
      </trkpt>
      <trkpt lat="47.28227" lon="4.91823">
        <ele>579</ele>
        <time>2012-12-15T08:12:03Z</time>
      </trkpt>
      <trkpt lat="47.28227" lon="4.91823">
        <ele>579</ele>
        <time>2012-12-15T08:12:03Z</time>
      </trkpt>
      <trkpt lat="47.28227" lon="4.91823">
        <ele>579</ele>
        <time>2012-12-15T08:12:05Z</time>
      </trkpt>
      <trkpt lat="47.28232" lon="4.91829">
        <ele>580</ele>
        <time>2012-12-15T08:12:08Z</time>
      </trkpt>
      <trkpt lat="47.28237" lon="4.91834">
        <ele>581</ele>
        <time>2012-12-15T08:12:12Z</time>
      </trkpt>
      <trkpt lat="47.28242" lon="4.91838">
        <ele>581</ele>
        <time>2012-12-15T08:12:16Z</time>
      </trkpt>
      <trkpt lat="47.28246" lon="4.91843">
        <ele>582</ele>
        <time>2012-12-15T08:12:18Z</time>
      </trkpt>
      <trkpt lat="47.28251" lon="4.91847">
        <ele>583</ele>
        <time>2012-12-15T08:12:21Z</time>
      </trkpt>
      <trkpt lat="47.28255" lon="4.91852">
        <ele>583</ele>
        <time>2012-12-15T08:12:27Z</time>
      </trkpt>
      <trkpt lat="47.28259" lon="4.91855">
        <ele>582</ele>
        <time>2012-12-15T08:12:30Z</time>
      </trkpt>
      <trkpt lat="47.28263" lon="4.91858">
        <ele>582</ele>
        <time>2012-12-15T08:12:33Z</time>
      </trkpt>
      <trkpt lat="47.28268" lon="4.9186">
        <ele>586</ele>
        <time>2012-12-15T08:12:36Z</time>
      </trkpt>
      <trkpt lat="47.28273" lon="4.91864">
        <ele>589</ele>
        <time>2012-12-15T08:12:39Z</time>
      </trkpt>
      <trkpt lat="47.28276" lon="4.9187">
        <ele>587</ele>
        <time>2012-12-15T08:12:43Z</time>
      </trkpt>
      <trkpt lat="47.2828" lon="4.91875">
        <ele>591</ele>
        <time>2012-12-15T08:12:48Z</time>
      </trkpt>
      <trkpt lat="47.28283" lon="4.91881">
        <ele>590</ele>
        <time>2012-12-15T08:12:52Z</time>
      </trkpt>
      <trkpt lat="47.28286" lon="4.91884">
        <ele>589</ele>
        <time>2012-12-15T08:12:56Z</time>
      </trkpt>
      <trkpt lat="47.28291" lon="4.91886">
        <ele>590</ele>
        <time>2012-12-15T08:12:58Z</time>
      </trkpt>
      <trkpt lat="47.28295" lon="4.91891">
        <ele>589</ele>
        <time>2012-12-15T08:13:03Z</time>
      </trkpt>
      <trkpt lat="47.283" lon="4.91897">
        <ele>590</ele>
        <time>2012-12-15T08:13:07Z</time>
      </trkpt>
      <trkpt lat="47.28304" lon="4.91902">
        <ele>590</ele>
        <time>2012-12-15T08:13:11Z</time>
      </trkpt>
      <trkpt lat="47.28308" lon="4.91908">
        <ele>591</ele>
        <time>2012-12-15T08:13:14Z</time>
      </trkpt>
      <trkpt lat="47.28313" lon="4.91912">
        <ele>593</ele>
        <time>2012-12-15T08:13:17Z</time>
      </trkpt>
      <trkpt lat="47.28316" lon="4.91917">
        <ele>593</ele>
        <time>2012-12-15T08:13:22Z</time>
      </trkpt>
      <trkpt lat="47.2832" lon="4.9192">
        <ele>593</ele>
        <time>2012-12-15T08:13:24Z</time>
      </trkpt>
      <trkpt lat="47.28325" lon="4.91925">
        <ele>593</ele>
        <time>2012-12-15T08:13:27Z</time>
      </trkpt>
      <trkpt lat="47.28328" lon="4.91929">
        <ele>594</ele>
        <time>2012-12-15T08:13:30Z</time>
      </trkpt>
      <trkpt lat="47.28333" lon="4.91934">
        <ele>595</ele>
        <time>2012-12-15T08:13:35Z</time>
      </trkpt>
      <trkpt lat="47.28337" lon="4.91939">
        <ele>594</ele>
        <time>2012-12-15T08:13:39Z</time>
      </trkpt>
      <trkpt lat="47.28341" lon="4.91942">
        <ele>597</ele>
        <time>2012-12-15T08:13:42Z</time>
      </trkpt>
      <trkpt lat="47.28346" lon="4.91946">
        <ele>598</ele>
        <time>2012-12-15T08:13:47Z</time>
      </trkpt>
      <trkpt lat="47.28349" lon="4.91952">
        <ele>599</ele>
        <time>2012-12-15T08:13:50Z</time>
      </trkpt>
      <trkpt lat="47.28353" lon="4.91955">
        <ele>599</ele>
        <time>2012-12-15T08:13:53Z</time>
      </trkpt>
      <trkpt lat="47.28358" lon="4.9196">
        <ele>600</ele>
        <time>2012-12-15T08:13:56Z</time>
      </trkpt>
      <trkpt lat="47.28362" lon="4.91962">
        <ele>603</ele>
        <time>2012-12-15T08:13:59Z</time>
      </trkpt>
      <trkpt lat="47.28366" lon="4.91965">
        <ele>605</ele>
        <time>2012-12-15T08:14:03Z</time>
      </trkpt>
      <trkpt lat="47.2837" lon="4.9197">
        <ele>607</ele>
        <time>2012-12-15T08:14:07Z</time>
      </trkpt>
      <trkpt lat="47.28374" lon="4.91975">
        <ele>607</ele>
        <time>2012-12-15T08:14:11Z</time>
      </trkpt>
      <trkpt lat="47.28378" lon="4.91979">
        <ele>610</ele>
        <time>2012-12-15T08:14:15Z</time>
      </trkpt>
      <trkpt lat="47.28383" lon="4.91984">
        <ele>611</ele>
        <time>2012-12-15T08:14:20Z</time>
      </trkpt>
      <trkpt lat="47.28386" lon="4.91989">
        <ele>614</ele>
        <time>2012-12-15T08:14:26Z</time>
      </trkpt>
      <trkpt lat="47.2839" lon="4.91996">
        <ele>616</ele>
        <time>2012-12-15T08:14:30Z</time>
      </trkpt>
      <trkpt lat="47.28393" lon="4.92002">
        <ele>618</ele>
        <time>2012-12-15T08:14:33Z</time>
      </trkpt>
      <trkpt lat="47.28398" lon="4.92006">
        <ele>619</ele>
        <time>2012-12-15T08:14:36Z</time>
      </trkpt>
      <trkpt lat="47.28401" lon="4.9201">
        <ele>620</ele>
        <time>2012-12-15T08:14:39Z</time>
      </trkpt>
      <trkpt lat="47.28406" lon="4.92013">
        <ele>621</ele>
        <time>2012-12-15T08:14:45Z</time>
      </trkpt>
      <trkpt lat="47.2841" lon="4.92016">
        <ele>623</ele>
        <time>2012-12-15T08:14:48Z</time>
      </trkpt>
      <trkpt lat="47.28414" lon="4.92021">
        <ele>624</ele>
        <time>2012-12-15T08:14:53Z</time>
      </trkpt>
      <trkpt lat="47.28418" lon="4.92025">
        <ele>623</ele>
        <time>2012-12-15T08:14:58Z</time>
      </trkpt>
      <trkpt lat="47.28423" lon="4.92029">
        <ele>624</ele>
        <time>2012-12-15T08:15:03Z</time>
      </trkpt>
      <trkpt lat="47.28423" lon="4.92029">
        <ele>624</ele>
        <time>2012-12-15T08:15:03Z</time>
      </trkpt>
      <trkpt lat="47.28423" lon="4.92029">
        <ele>624</ele>
        <time>2012-12-15T08:15:04Z</time>
      </trkpt>
      <trkpt lat="47.28426" lon="4.92035">
        <ele>624</ele>
        <time>2012-12-15T08:15:07Z</time>
      </trkpt>
      <trkpt lat="47.2843" lon="4.9204">
        <ele>623</ele>
        <time>2012-12-15T08:15:10Z</time>
      </trkpt>
      <trkpt lat="47.28433" lon="4.92045">
        <ele>625</ele>
        <time>2012-12-15T08:15:13Z</time>
      </trkpt>
      <trkpt lat="47.28429" lon="4.92048">
        <ele>628</ele>
        <time>2012-12-15T08:15:18Z</time>
      </trkpt>
      <trkpt lat="47.28424" lon="4.92051">
        <ele>632</ele>
        <time>2012-12-15T08:15:23Z</time>
      </trkpt>
      <trkpt lat="47.2842" lon="4.92055">
        <ele>633</ele>
        <time>2012-12-15T08:15:28Z</time>
      </trkpt>
      <trkpt lat="47.28417" lon="4.9206">
        <ele>634</ele>
        <time>2012-12-15T08:15:31Z</time>
      </trkpt>
      <trkpt lat="47.2842" lon="4.92067">
        <ele>632</ele>
        <time>2012-12-15T08:15:36Z</time>
      </trkpt>
      <trkpt lat="47.28425" lon="4.92068">
        <ele>632</ele>
        <time>2012-12-15T08:15:40Z</time>
      </trkpt>
      <trkpt lat="47.2843" lon="4.92069">
        <ele>632</ele>
        <time>2012-12-15T08:15:43Z</time>
      </trkpt>
      <trkpt lat="47.28435" lon="4.92071">
        <ele>632</ele>
        <time>2012-12-15T08:15:46Z</time>
      </trkpt>
      <trkpt lat="47.2844" lon="4.92072">
        <ele>633</ele>
        <time>2012-12-15T08:15:49Z</time>
      </trkpt>
      <trkpt lat="47.28446" lon="4.92073">
        <ele>634</ele>
        <time>2012-12-15T08:15:53Z</time>
      </trkpt>
      <trkpt lat="47.28451" lon="4.92073">
        <ele>635</ele>
        <time>2012-12-15T08:15:56Z</time>
      </trkpt>
      <trkpt lat="47.28457" lon="4.92074">
        <ele>635</ele>
        <time>2012-12-15T08:16:00Z</time>
      </trkpt>
      <trkpt lat="47.28461" lon="4.92075">
        <ele>633</ele>
        <time>2012-12-15T08:16:03Z</time>
      </trkpt>
      <trkpt lat="47.28467" lon="4.92076">
        <ele>633</ele>
        <time>2012-12-15T08:16:06Z</time>
      </trkpt>
      <trkpt lat="47.28472" lon="4.92078">
        <ele>632</ele>
        <time>2012-12-15T08:16:09Z</time>
      </trkpt>
      <trkpt lat="47.28478" lon="4.92081">
        <ele>632</ele>
        <time>2012-12-15T08:16:13Z</time>
      </trkpt>
      <trkpt lat="47.28483" lon="4.92082">
        <ele>633</ele>
        <time>2012-12-15T08:16:16Z</time>
      </trkpt>
      <trkpt lat="47.28488" lon="4.92083">
        <ele>633</ele>
        <time>2012-12-15T08:16:19Z</time>
      </trkpt>
      <trkpt lat="47.28492" lon="4.92084">
        <ele>633</ele>
        <time>2012-12-15T08:16:22Z</time>
      </trkpt>
      <trkpt lat="47.28498" lon="4.92087">
        <ele>631</ele>
        <time>2012-12-15T08:16:26Z</time>
      </trkpt>
      <trkpt lat="47.28503" lon="4.92087">
        <ele>632</ele>
        <time>2012-12-15T08:16:29Z</time>
      </trkpt>
      <trkpt lat="47.28509" lon="4.92088">
        <ele>633</ele>
        <time>2012-12-15T08:16:33Z</time>
      </trkpt>
      <trkpt lat="47.28513" lon="4.92089">
        <ele>633</ele>
        <time>2012-12-15T08:16:36Z</time>
      </trkpt>
      <trkpt lat="47.28518" lon="4.92092">
        <ele>633</ele>
        <time>2012-12-15T08:16:39Z</time>
      </trkpt>
      <trkpt lat="47.28523" lon="4.92094">
        <ele>632</ele>
        <time>2012-12-15T08:16:42Z</time>
      </trkpt>
      <trkpt lat="47.28528" lon="4.92096">
        <ele>634</ele>
        <time>2012-12-15T08:16:46Z</time>
      </trkpt>
      <trkpt lat="47.28533" lon="4.92098">
        <ele>635</ele>
        <time>2012-12-15T08:16:50Z</time>
      </trkpt>
      <trkpt lat="47.28539" lon="4.92099">
        <ele>635</ele>
        <time>2012-12-15T08:16:54Z</time>
      </trkpt>
      <trkpt lat="47.28543" lon="4.92101">
        <ele>634</ele>
        <time>2012-12-15T08:16:57Z</time>
      </trkpt>
      <trkpt lat="47.28548" lon="4.92102">
        <ele>635</ele>
        <time>2012-12-15T08:17:00Z</time>
      </trkpt>
      <trkpt lat="47.28553" lon="4.92105">
        <ele>635</ele>
        <time>2012-12-15T08:17:03Z</time>
      </trkpt>
      <trkpt lat="47.28558" lon="4.92106">
        <ele>635</ele>
        <time>2012-12-15T08:17:06Z</time>
      </trkpt>
      <trkpt lat="47.28563" lon="4.92108">
        <ele>634</ele>
        <time>2012-12-15T08:17:10Z</time>
      </trkpt>
      <trkpt lat="47.28568" lon="4.92108">
        <ele>632</ele>
        <time>2012-12-15T08:17:15Z</time>
      </trkpt>
      <trkpt lat="47.28572" lon="4.9211">
        <ele>636</ele>
        <time>2012-12-15T08:17:35Z</time>
      </trkpt>
      <trkpt lat="47.28576" lon="4.92113">
        <ele>646</ele>
        <time>2012-12-15T08:18:23Z</time>
      </trkpt>
      <trkpt lat="47.28576" lon="4.92113">
        <ele>646</ele>
        <time>2012-12-15T08:18:23Z</time>
      </trkpt>
      <trkpt lat="47.28576" lon="4.92113">
        <ele>647</ele>
        <time>2012-12-15T08:18:28Z</time>
      </trkpt>
      <trkpt lat="47.28583" lon="4.92112">
        <ele>647</ele>
        <time>2012-12-15T08:20:55Z</time>
      </trkpt>
      <trkpt lat="47.28588" lon="4.92112">
        <ele>649</ele>
        <time>2012-12-15T08:20:59Z</time>
      </trkpt>
      <trkpt lat="47.28594" lon="4.92112">
        <ele>649</ele>
        <time>2012-12-15T08:21:04Z</time>
      </trkpt>
      <trkpt lat="47.28599" lon="4.92114">
        <ele>650</ele>
        <time>2012-12-15T08:21:08Z</time>
      </trkpt>
      <trkpt lat="47.28604" lon="4.92115">
        <ele>649</ele>
        <time>2012-12-15T08:21:13Z</time>
      </trkpt>
      <trkpt lat="47.28609" lon="4.92115">
        <ele>648</ele>
        <time>2012-12-15T08:21:17Z</time>
      </trkpt>
      <trkpt lat="47.28614" lon="4.92119">
        <ele>648</ele>
        <time>2012-12-15T08:21:20Z</time>
      </trkpt>
      <trkpt lat="47.28619" lon="4.92122">
        <ele>647</ele>
        <time>2012-12-15T08:21:24Z</time>
      </trkpt>
      <trkpt lat="47.28625" lon="4.92122">
        <ele>650</ele>
        <time>2012-12-15T08:21:28Z</time>
      </trkpt>
      <trkpt lat="47.2863" lon="4.92124">
        <ele>649</ele>
        <time>2012-12-15T08:21:31Z</time>
      </trkpt>
      <trkpt lat="47.28635" lon="4.92125">
        <ele>649</ele>
        <time>2012-12-15T08:21:34Z</time>
      </trkpt>
      <trkpt lat="47.28641" lon="4.92126">
        <ele>649</ele>
        <time>2012-12-15T08:21:38Z</time>
      </trkpt>
      <trkpt lat="47.28645" lon="4.92127">
        <ele>650</ele>
        <time>2012-12-15T08:21:42Z</time>
      </trkpt>
      <trkpt lat="47.2865" lon="4.92126">
        <ele>650</ele>
        <time>2012-12-15T08:21:45Z</time>
      </trkpt>
      <trkpt lat="47.28654" lon="4.92128">
        <ele>653</ele>
        <time>2012-12-15T08:21:48Z</time>
      </trkpt>
      <trkpt lat="47.2866" lon="4.92128">
        <ele>655</ele>
        <time>2012-12-15T08:21:52Z</time>
      </trkpt>
      <trkpt lat="47.28666" lon="4.9213">
        <ele>655</ele>
        <time>2012-12-15T08:21:56Z</time>
      </trkpt>
      <trkpt lat="47.28672" lon="4.92132">
        <ele>654</ele>
        <time>2012-12-15T08:21:59Z</time>
      </trkpt>
      <trkpt lat="47.28678" lon="4.92133">
        <ele>654</ele>
        <time>2012-12-15T08:22:02Z</time>
      </trkpt>
      <trkpt lat="47.28684" lon="4.92135">
        <ele>654</ele>
        <time>2012-12-15T08:22:06Z</time>
      </trkpt>
      <trkpt lat="47.28689" lon="4.92135">
        <ele>654</ele>
        <time>2012-12-15T08:22:09Z</time>
      </trkpt>
      <trkpt lat="47.28694" lon="4.92136">
        <ele>653</ele>
        <time>2012-12-15T08:22:13Z</time>
      </trkpt>
      <trkpt lat="47.287" lon="4.92136">
        <ele>652</ele>
        <time>2012-12-15T08:22:16Z</time>
      </trkpt>
      <trkpt lat="47.28706" lon="4.92134">
        <ele>651</ele>
        <time>2012-12-15T08:22:19Z</time>
      </trkpt>
      <trkpt lat="47.2871" lon="4.92136">
        <ele>650</ele>
        <time>2012-12-15T08:22:22Z</time>
      </trkpt>
      <trkpt lat="47.28715" lon="4.92136">
        <ele>650</ele>
        <time>2012-12-15T08:22:25Z</time>
      </trkpt>
      <trkpt lat="47.2872" lon="4.92139">
        <ele>651</ele>
        <time>2012-12-15T08:22:28Z</time>
      </trkpt>
      <trkpt lat="47.28725" lon="4.9214">
        <ele>651</ele>
        <time>2012-12-15T08:22:32Z</time>
      </trkpt>
      <trkpt lat="47.28731" lon="4.92141">
        <ele>651</ele>
        <time>2012-12-15T08:22:35Z</time>
      </trkpt>
      <trkpt lat="47.28736" lon="4.92144">
        <ele>650</ele>
        <time>2012-12-15T08:22:38Z</time>
      </trkpt>
      <trkpt lat="47.28741" lon="4.92147">
        <ele>650</ele>
        <time>2012-12-15T08:22:42Z</time>
      </trkpt>
      <trkpt lat="47.28746" lon="4.92146">
        <ele>651</ele>
        <time>2012-12-15T08:22:45Z</time>
      </trkpt>
      <trkpt lat="47.2875" lon="4.92148">
        <ele>652</ele>
        <time>2012-12-15T08:22:48Z</time>
      </trkpt>
      <trkpt lat="47.28756" lon="4.92147">
        <ele>653</ele>
        <time>2012-12-15T08:22:52Z</time>
      </trkpt>
      <trkpt lat="47.28761" lon="4.92148">
        <ele>653</ele>
        <time>2012-12-15T08:22:55Z</time>
      </trkpt>
      <trkpt lat="47.28766" lon="4.92151">
        <ele>653</ele>
        <time>2012-12-15T08:22:58Z</time>
      </trkpt>
      <trkpt lat="47.28772" lon="4.92151">
        <ele>649</ele>
        <time>2012-12-15T08:23:02Z</time>
      </trkpt>
      <trkpt lat="47.28776" lon="4.92153">
        <ele>649</ele>
        <time>2012-12-15T08:23:05Z</time>
      </trkpt>
      <trkpt lat="47.28782" lon="4.92153">
        <ele>648</ele>
        <time>2012-12-15T08:23:12Z</time>
      </trkpt>
      <trkpt lat="47.28787" lon="4.92154">
        <ele>647</ele>
        <time>2012-12-15T08:23:15Z</time>
      </trkpt>
      <trkpt lat="47.28791" lon="4.92158">
        <ele>647</ele>
        <time>2012-12-15T08:23:17Z</time>
      </trkpt>
      <trkpt lat="47.28798" lon="4.92159">
        <ele>646</ele>
        <time>2012-12-15T08:23:21Z</time>
      </trkpt>
      <trkpt lat="47.28804" lon="4.92162">
        <ele>646</ele>
        <time>2012-12-15T08:23:24Z</time>
      </trkpt>
      <trkpt lat="47.28808" lon="4.92164">
        <ele>646</ele>
        <time>2012-12-15T08:23:27Z</time>
      </trkpt>
      <trkpt lat="47.28813" lon="4.92166">
        <ele>646</ele>
        <time>2012-12-15T08:23:30Z</time>
      </trkpt>
      <trkpt lat="47.28821" lon="4.92169">
        <ele>645</ele>
        <time>2012-12-15T08:23:34Z</time>
      </trkpt>
      <trkpt lat="47.28825" lon="4.92174">
        <ele>643</ele>
        <time>2012-12-15T08:23:37Z</time>
      </trkpt>
      <trkpt lat="47.28831" lon="4.92175">
        <ele>643</ele>
        <time>2012-12-15T08:23:41Z</time>
      </trkpt>
      <trkpt lat="47.28836" lon="4.92176">
        <ele>643</ele>
        <time>2012-12-15T08:23:45Z</time>
      </trkpt>
      <trkpt lat="47.28841" lon="4.92179">
        <ele>643</ele>
        <time>2012-12-15T08:23:48Z</time>
      </trkpt>
      <trkpt lat="47.28847" lon="4.92182">
        <ele>644</ele>
        <time>2012-12-15T08:23:51Z</time>
      </trkpt>
      <trkpt lat="47.28851" lon="4.92185">
        <ele>642</ele>
        <time>2012-12-15T08:23:54Z</time>
      </trkpt>
      <trkpt lat="47.28856" lon="4.92188">
        <ele>640</ele>
        <time>2012-12-15T08:23:57Z</time>
      </trkpt>
      <trkpt lat="47.2886" lon="4.92191">
        <ele>639</ele>
        <time>2012-12-15T08:24:00Z</time>
      </trkpt>
      <trkpt lat="47.28865" lon="4.92195">
        <ele>641</ele>
        <time>2012-12-15T08:24:04Z</time>
      </trkpt>
      <trkpt lat="47.2887" lon="4.92199">
        <ele>642</ele>
        <time>2012-12-15T08:24:07Z</time>
      </trkpt>
      <trkpt lat="47.28873" lon="4.92203">
        <ele>642</ele>
        <time>2012-12-15T08:24:10Z</time>
      </trkpt>
      <trkpt lat="47.28879" lon="4.92208">
        <ele>642</ele>
        <time>2012-12-15T08:24:15Z</time>
      </trkpt>
      <trkpt lat="47.28884" lon="4.92212">
        <ele>640</ele>
        <time>2012-12-15T08:24:18Z</time>
      </trkpt>
      <trkpt lat="47.28888" lon="4.92214">
        <ele>640</ele>
        <time>2012-12-15T08:24:21Z</time>
      </trkpt>
      <trkpt lat="47.28892" lon="4.92219">
        <ele>642</ele>
        <time>2012-12-15T08:24:25Z</time>
      </trkpt>
      <trkpt lat="47.28896" lon="4.92223">
        <ele>643</ele>
        <time>2012-12-15T08:24:28Z</time>
      </trkpt>
      <trkpt lat="47.28901" lon="4.92226">
        <ele>643</ele>
        <time>2012-12-15T08:24:31Z</time>
      </trkpt>
      <trkpt lat="47.28905" lon="4.92229">
        <ele>643</ele>
        <time>2012-12-15T08:24:35Z</time>
      </trkpt>
      <trkpt lat="47.28909" lon="4.92233">
        <ele>643</ele>
        <time>2012-12-15T08:24:38Z</time>
      </trkpt>
      <trkpt lat="47.28914" lon="4.92238">
        <ele>644</ele>
        <time>2012-12-15T08:24:41Z</time>
      </trkpt>
      <trkpt lat="47.28917" lon="4.92242">
        <ele>644</ele>
        <time>2012-12-15T08:24:43Z</time>
      </trkpt>
      <trkpt lat="47.28922" lon="4.92245">
        <ele>644</ele>
        <time>2012-12-15T08:24:47Z</time>
      </trkpt>
      <trkpt lat="47.28926" lon="4.92249">
        <ele>643</ele>
        <time>2012-12-15T08:24:51Z</time>
      </trkpt>
      <trkpt lat="47.2893" lon="4.92253">
        <ele>642</ele>
        <time>2012-12-15T08:24:54Z</time>
      </trkpt>
      <trkpt lat="47.28934" lon="4.92257">
        <ele>642</ele>
        <time>2012-12-15T08:24:56Z</time>
      </trkpt>
      <trkpt lat="47.28939" lon="4.92262">
        <ele>643</ele>
        <time>2012-12-15T08:24:59Z</time>
      </trkpt>
      <trkpt lat="47.28944" lon="4.92266">
        <ele>643</ele>
        <time>2012-12-15T08:25:02Z</time>
      </trkpt>
      <trkpt lat="47.28948" lon="4.92271">
        <ele>643</ele>
        <time>2012-12-15T08:25:05Z</time>
      </trkpt>
      <trkpt lat="47.28952" lon="4.92273">
        <ele>640</ele>
        <time>2012-12-15T08:25:08Z</time>
      </trkpt>
      <trkpt lat="47.28957" lon="4.92276">
        <ele>643</ele>
        <time>2012-12-15T08:25:13Z</time>
      </trkpt>
      <trkpt lat="47.28959" lon="4.92284">
        <ele>645</ele>
        <time>2012-12-15T08:25:17Z</time>
      </trkpt>
      <trkpt lat="47.28958" lon="4.92292">
        <ele>647</ele>
        <time>2012-12-15T08:25:21Z</time>
      </trkpt>
      <trkpt lat="47.28954" lon="4.92296">
        <ele>648</ele>
        <time>2012-12-15T08:25:25Z</time>
      </trkpt>
      <trkpt lat="47.28952" lon="4.92303">
        <ele>647</ele>
        <time>2012-12-15T08:25:28Z</time>
      </trkpt>
      <trkpt lat="47.2895" lon="4.9231">
        <ele>646</ele>
        <time>2012-12-15T08:25:32Z</time>
      </trkpt>
      <trkpt lat="47.28948" lon="4.92318">
        <ele>647</ele>
        <time>2012-12-15T08:25:36Z</time>
      </trkpt>
      <trkpt lat="47.28947" lon="4.92325">
        <ele>647</ele>
        <time>2012-12-15T08:25:39Z</time>
      </trkpt>
      <trkpt lat="47.28945" lon="4.92331">
        <ele>648</ele>
        <time>2012-12-15T08:25:42Z</time>
      </trkpt>
      <trkpt lat="47.2894" lon="4.92336">
        <ele>648</ele>
        <time>2012-12-15T08:25:46Z</time>
      </trkpt>
      <trkpt lat="47.28937" lon="4.92342">
        <ele>649</ele>
        <time>2012-12-15T08:25:50Z</time>
      </trkpt>
      <trkpt lat="47.28934" lon="4.9235">
        <ele>648</ele>
        <time>2012-12-15T08:25:54Z</time>
      </trkpt>
      <trkpt lat="47.28932" lon="4.92356">
        <ele>648</ele>
        <time>2012-12-15T08:25:57Z</time>
      </trkpt>
      <trkpt lat="47.28929" lon="4.92362">
        <ele>646</ele>
        <time>2012-12-15T08:26:00Z</time>
      </trkpt>
      <trkpt lat="47.28925" lon="4.92369">
        <ele>647</ele>
        <time>2012-12-15T08:26:04Z</time>
      </trkpt>
      <trkpt lat="47.28923" lon="4.92376">
        <ele>647</ele>
        <time>2012-12-15T08:26:07Z</time>
      </trkpt>
      <trkpt lat="47.28921" lon="4.92383">
        <ele>651</ele>
        <time>2012-12-15T08:26:11Z</time>
      </trkpt>
      <trkpt lat="47.2892" lon="4.92392">
        <ele>650</ele>
        <time>2012-12-15T08:26:15Z</time>
      </trkpt>
      <trkpt lat="47.28917" lon="4.92398">
        <ele>652</ele>
        <time>2012-12-15T08:26:19Z</time>
      </trkpt>
      <trkpt lat="47.28915" lon="4.92404">
        <ele>651</ele>
        <time>2012-12-15T08:26:22Z</time>
      </trkpt>
      <trkpt lat="47.28914" lon="4.92411">
        <ele>651</ele>
        <time>2012-12-15T08:26:25Z</time>
      </trkpt>
      <trkpt lat="47.28913" lon="4.92418">
        <ele>650</ele>
        <time>2012-12-15T08:26:28Z</time>
      </trkpt>
      <trkpt lat="47.28912" lon="4.92425">
        <ele>649</ele>
        <time>2012-12-15T08:26:31Z</time>
      </trkpt>
      <trkpt lat="47.28909" lon="4.92433">
        <ele>649</ele>
        <time>2012-12-15T08:26:35Z</time>
      </trkpt>
      <trkpt lat="47.28908" lon="4.9244">
        <ele>649</ele>
        <time>2012-12-15T08:26:38Z</time>
      </trkpt>
      <trkpt lat="47.28907" lon="4.92446">
        <ele>647</ele>
        <time>2012-12-15T08:26:40Z</time>
      </trkpt>
      <trkpt lat="47.28903" lon="4.92451">
        <ele>647</ele>
        <time>2012-12-15T08:26:43Z</time>
      </trkpt>
      <trkpt lat="47.289" lon="4.92457">
        <ele>647</ele>
        <time>2012-12-15T08:26:46Z</time>
      </trkpt>
      <trkpt lat="47.28899" lon="4.92465">
        <ele>648</ele>
        <time>2012-12-15T08:26:50Z</time>
      </trkpt>
      <trkpt lat="47.28896" lon="4.92472">
        <ele>649</ele>
        <time>2012-12-15T08:26:53Z</time>
      </trkpt>
      <trkpt lat="47.28894" lon="4.92479">
        <ele>648</ele>
        <time>2012-12-15T08:26:57Z</time>
      </trkpt>
      <trkpt lat="47.28894" lon="4.92486">
        <ele>646</ele>
        <time>2012-12-15T08:27:00Z</time>
      </trkpt>
      <trkpt lat="47.28894" lon="4.92494">
        <ele>646</ele>
        <time>2012-12-15T08:27:03Z</time>
      </trkpt>
      <trkpt lat="47.28893" lon="4.92501">
        <ele>646</ele>
        <time>2012-12-15T08:27:06Z</time>
      </trkpt>
      <trkpt lat="47.28892" lon="4.92509">
        <ele>645</ele>
        <time>2012-12-15T08:27:09Z</time>
      </trkpt>
      <trkpt lat="47.2889" lon="4.92516">
        <ele>644</ele>
        <time>2012-12-15T08:27:13Z</time>
      </trkpt>
      <trkpt lat="47.28887" lon="4.92524">
        <ele>643</ele>
        <time>2012-12-15T08:27:17Z</time>
      </trkpt>
      <trkpt lat="47.28885" lon="4.92531">
        <ele>641</ele>
        <time>2012-12-15T08:27:21Z</time>
      </trkpt>
      <trkpt lat="47.28885" lon="4.92539">
        <ele>641</ele>
        <time>2012-12-15T08:27:24Z</time>
      </trkpt>
      <trkpt lat="47.28882" lon="4.92546">
        <ele>641</ele>
        <time>2012-12-15T08:27:27Z</time>
      </trkpt>
      <trkpt lat="47.28881" lon="4.92554">
        <ele>640</ele>
        <time>2012-12-15T08:27:30Z</time>
      </trkpt>
      <trkpt lat="47.28881" lon="4.92562">
        <ele>638</ele>
        <time>2012-12-15T08:27:33Z</time>
      </trkpt>
      <trkpt lat="47.2888" lon="4.9257">
        <ele>638</ele>
        <time>2012-12-15T08:27:37Z</time>
      </trkpt>
      <trkpt lat="47.28879" lon="4.92577">
        <ele>637</ele>
        <time>2012-12-15T08:27:40Z</time>
      </trkpt>
      <trkpt lat="47.28877" lon="4.92584">
        <ele>638</ele>
        <time>2012-12-15T08:27:43Z</time>
      </trkpt>
      <trkpt lat="47.28877" lon="4.92591">
        <ele>638</ele>
        <time>2012-12-15T08:27:45Z</time>
      </trkpt>
      <trkpt lat="47.28876" lon="4.92598">
        <ele>641</ele>
        <time>2012-12-15T08:27:49Z</time>
      </trkpt>
      <trkpt lat="47.28874" lon="4.92605">
        <ele>640</ele>
        <time>2012-12-15T08:27:52Z</time>
      </trkpt>
      <trkpt lat="47.28873" lon="4.92614">
        <ele>638</ele>
        <time>2012-12-15T08:27:55Z</time>
      </trkpt>
      <trkpt lat="47.28872" lon="4.9262">
        <ele>639</ele>
        <time>2012-12-15T08:27:59Z</time>
      </trkpt>
      <trkpt lat="47.2887" lon="4.92627">
        <ele>635</ele>
        <time>2012-12-15T08:28:02Z</time>
      </trkpt>
      <trkpt lat="47.2887" lon="4.92634">
        <ele>632</ele>
        <time>2012-12-15T08:28:06Z</time>
      </trkpt>
      <trkpt lat="47.28871" lon="4.92641">
        <ele>631</ele>
        <time>2012-12-15T08:28:09Z</time>
      </trkpt>
      <trkpt lat="47.28873" lon="4.92649">
        <ele>631</ele>
        <time>2012-12-15T08:28:12Z</time>
      </trkpt>
      <trkpt lat="47.28877" lon="4.92655">
        <ele>630</ele>
        <time>2012-12-15T08:28:15Z</time>
      </trkpt>
      <trkpt lat="47.28879" lon="4.92661">
        <ele>629</ele>
        <time>2012-12-15T08:28:19Z</time>
      </trkpt>
      <trkpt lat="47.28881" lon="4.92668">
        <ele>628</ele>
        <time>2012-12-15T08:28:22Z</time>
      </trkpt>
      <trkpt lat="47.28885" lon="4.92674">
        <ele>627</ele>
        <time>2012-12-15T08:28:25Z</time>
      </trkpt>
      <trkpt lat="47.28888" lon="4.9268">
        <ele>627</ele>
        <time>2012-12-15T08:28:28Z</time>
      </trkpt>
      <trkpt lat="47.28891" lon="4.92687">
        <ele>627</ele>
        <time>2012-12-15T08:28:31Z</time>
      </trkpt>
      <trkpt lat="47.28895" lon="4.9269">
        <ele>627</ele>
        <time>2012-12-15T08:28:35Z</time>
      </trkpt>
      <trkpt lat="47.28899" lon="4.92696">
        <ele>627</ele>
        <time>2012-12-15T08:28:38Z</time>
      </trkpt>
      <trkpt lat="47.28903" lon="4.92704">
        <ele>623</ele>
        <time>2012-12-15T08:28:42Z</time>
      </trkpt>
      <trkpt lat="47.28906" lon="4.92711">
        <ele>624</ele>
        <time>2012-12-15T08:28:45Z</time>
      </trkpt>
      <trkpt lat="47.28908" lon="4.92717">
        <ele>624</ele>
        <time>2012-12-15T08:28:49Z</time>
      </trkpt>
      <trkpt lat="47.28908" lon="4.92717">
        <ele>624</ele>
        <time>2012-12-15T08:28:49Z</time>
      </trkpt>
      <trkpt lat="47.28908" lon="4.92717">
        <ele>624</ele>
        <time>2012-12-15T08:28:50Z</time>
      </trkpt>
      <trkpt lat="47.28911" lon="4.92725">
        <ele>624</ele>
        <time>2012-12-15T08:28:54Z</time>
      </trkpt>
      <trkpt lat="47.28912" lon="4.92732">
        <ele>621</ele>
        <time>2012-12-15T08:30:08Z</time>
      </trkpt>
      <trkpt lat="47.28917" lon="4.92735">
        <ele>620</ele>
        <time>2012-12-15T08:30:12Z</time>
      </trkpt>
      <trkpt lat="47.28922" lon="4.92737">
        <ele>619</ele>
        <time>2012-12-15T08:30:15Z</time>
      </trkpt>
      <trkpt lat="47.28926" lon="4.92738">
        <ele>619</ele>
        <time>2012-12-15T08:30:18Z</time>
      </trkpt>
      <trkpt lat="47.28932" lon="4.92739">
        <ele>620</ele>
        <time>2012-12-15T08:30:21Z</time>
      </trkpt>
      <trkpt lat="47.28937" lon="4.92742">
        <ele>623</ele>
        <time>2012-12-15T08:30:24Z</time>
      </trkpt>
      <trkpt lat="47.28943" lon="4.92743">
        <ele>624</ele>
        <time>2012-12-15T08:30:27Z</time>
      </trkpt>
      <trkpt lat="47.28947" lon="4.92743">
        <ele>624</ele>
        <time>2012-12-15T08:30:30Z</time>
      </trkpt>
      <trkpt lat="47.28953" lon="4.92743">
        <ele>621</ele>
        <time>2012-12-15T08:30:33Z</time>
      </trkpt>
      <trkpt lat="47.28958" lon="4.92744">
        <ele>618</ele>
        <time>2012-12-15T08:30:36Z</time>
      </trkpt>
      <trkpt lat="47.28962" lon="4.92747">
        <ele>619</ele>
        <time>2012-12-15T08:30:40Z</time>
      </trkpt>
      <trkpt lat="47.28967" lon="4.9275">
        <ele>620</ele>
        <time>2012-12-15T08:30:44Z</time>
      </trkpt>
      <trkpt lat="47.28973" lon="4.92754">
        <ele>620</ele>
        <time>2012-12-15T08:30:47Z</time>
      </trkpt>
      <trkpt lat="47.28977" lon="4.92756">
        <ele>619</ele>
        <time>2012-12-15T08:30:50Z</time>
      </trkpt>
      <trkpt lat="47.28982" lon="4.9276">
        <ele>620</ele>
        <time>2012-12-15T08:30:54Z</time>
      </trkpt>
      <trkpt lat="47.28986" lon="4.92765">
        <ele>621</ele>
        <time>2012-12-15T08:30:58Z</time>
      </trkpt>
      <trkpt lat="47.2899" lon="4.92768">
        <ele>621</ele>
        <time>2012-12-15T08:31:01Z</time>
      </trkpt>
      <trkpt lat="47.28996" lon="4.9277">
        <ele>620</ele>
        <time>2012-12-15T08:31:04Z</time>
      </trkpt>
      <trkpt lat="47.29" lon="4.92773">
        <ele>621</ele>
        <time>2012-12-15T08:31:08Z</time>
      </trkpt>
      <trkpt lat="47.29005" lon="4.92778">
        <ele>621</ele>
        <time>2012-12-15T08:31:11Z</time>
      </trkpt>
      <trkpt lat="47.2901" lon="4.9278">
        <ele>621</ele>
        <time>2012-12-15T08:31:14Z</time>
      </trkpt>
      <trkpt lat="47.29014" lon="4.92783">
        <ele>620</ele>
        <time>2012-12-15T08:31:17Z</time>
      </trkpt>
      <trkpt lat="47.29019" lon="4.92787">
        <ele>620</ele>
        <time>2012-12-15T08:31:20Z</time>
      </trkpt>
      <trkpt lat="47.29023" lon="4.9279">
        <ele>621</ele>
        <time>2012-12-15T08:31:23Z</time>
      </trkpt>
      <trkpt lat="47.29028" lon="4.92794">
        <ele>621</ele>
        <time>2012-12-15T08:31:27Z</time>
      </trkpt>
      <trkpt lat="47.29033" lon="4.92796">
        <ele>621</ele>
        <time>2012-12-15T08:31:31Z</time>
      </trkpt>
      <trkpt lat="47.29036" lon="4.928">
        <ele>621</ele>
        <time>2012-12-15T08:31:34Z</time>
      </trkpt>
      <trkpt lat="47.29042" lon="4.92803">
        <ele>620</ele>
        <time>2012-12-15T08:31:37Z</time>
      </trkpt>
      <trkpt lat="47.29047" lon="4.92805">
        <ele>621</ele>
        <time>2012-12-15T08:31:40Z</time>
      </trkpt>
      <trkpt lat="47.29053" lon="4.92809">
        <ele>619</ele>
        <time>2012-12-15T08:31:44Z</time>
      </trkpt>
      <trkpt lat="47.29057" lon="4.92814">
        <ele>616</ele>
        <time>2012-12-15T08:31:47Z</time>
      </trkpt>
      <trkpt lat="47.29061" lon="4.92817">
        <ele>617</ele>
        <time>2012-12-15T08:31:50Z</time>
      </trkpt>
      <trkpt lat="47.29065" lon="4.9282">
        <ele>619</ele>
        <time>2012-12-15T08:31:53Z</time>
      </trkpt>
      <trkpt lat="47.2907" lon="4.92824">
        <ele>620</ele>
        <time>2012-12-15T08:31:56Z</time>
      </trkpt>
      <trkpt lat="47.29074" lon="4.92826">
        <ele>621</ele>
        <time>2012-12-15T08:31:59Z</time>
      </trkpt>
      <trkpt lat="47.2908" lon="4.9283">
        <ele>622</ele>
        <time>2012-12-15T08:32:03Z</time>
      </trkpt>
      <trkpt lat="47.29085" lon="4.92834">
        <ele>622</ele>
        <time>2012-12-15T08:32:06Z</time>
      </trkpt>
      <trkpt lat="47.29089" lon="4.92838">
        <ele>622</ele>
        <time>2012-12-15T08:32:09Z</time>
      </trkpt>
      <trkpt lat="47.29093" lon="4.92842">
        <ele>622</ele>
        <time>2012-12-15T08:32:12Z</time>
      </trkpt>
      <trkpt lat="47.29097" lon="4.92847">
        <ele>622</ele>
        <time>2012-12-15T08:32:15Z</time>
      </trkpt>
      <trkpt lat="47.29102" lon="4.92852">
        <ele>621</ele>
        <time>2012-12-15T08:32:19Z</time>
      </trkpt>
      <trkpt lat="47.29106" lon="4.92855">
        <ele>622</ele>
        <time>2012-12-15T08:32:22Z</time>
      </trkpt>
      <trkpt lat="47.29108" lon="4.92861">
        <ele>622</ele>
        <time>2012-12-15T08:32:25Z</time>
      </trkpt>
      <trkpt lat="47.29112" lon="4.92866">
        <ele>623</ele>
        <time>2012-12-15T08:32:28Z</time>
      </trkpt>
      <trkpt lat="47.29115" lon="4.92869">
        <ele>623</ele>
        <time>2012-12-15T08:32:31Z</time>
      </trkpt>
      <trkpt lat="47.29118" lon="4.92874">
        <ele>624</ele>
        <time>2012-12-15T08:32:34Z</time>
      </trkpt>
      <trkpt lat="47.29122" lon="4.9288">
        <ele>623</ele>
        <time>2012-12-15T08:32:38Z</time>
      </trkpt>
      <trkpt lat="47.29126" lon="4.92885">
        <ele>622</ele>
        <time>2012-12-15T08:32:41Z</time>
      </trkpt>
      <trkpt lat="47.2913" lon="4.92892">
        <ele>623</ele>
        <time>2012-12-15T08:32:45Z</time>
      </trkpt>
      <trkpt lat="47.29133" lon="4.92897">
        <ele>623</ele>
        <time>2012-12-15T08:32:48Z</time>
      </trkpt>
      <trkpt lat="47.29137" lon="4.92902">
        <ele>622</ele>
        <time>2012-12-15T08:32:51Z</time>
      </trkpt>
      <trkpt lat="47.2914" lon="4.92909">
        <ele>622</ele>
        <time>2012-12-15T08:32:55Z</time>
      </trkpt>
      <trkpt lat="47.29143" lon="4.92915">
        <ele>623</ele>
        <time>2012-12-15T08:32:58Z</time>
      </trkpt>
      <trkpt lat="47.29145" lon="4.92921">
        <ele>623</ele>
        <time>2012-12-15T08:33:01Z</time>
      </trkpt>
      <trkpt lat="47.29148" lon="4.92929">
        <ele>622</ele>
        <time>2012-12-15T08:33:05Z</time>
      </trkpt>
      <trkpt lat="47.29151" lon="4.92936">
        <ele>623</ele>
        <time>2012-12-15T08:33:09Z</time>
      </trkpt>
      <trkpt lat="47.29153" lon="4.92942">
        <ele>623</ele>
        <time>2012-12-15T08:33:12Z</time>
      </trkpt>
      <trkpt lat="47.29156" lon="4.92948">
        <ele>624</ele>
        <time>2012-12-15T08:33:16Z</time>
      </trkpt>
      <trkpt lat="47.29159" lon="4.92954">
        <ele>625</ele>
        <time>2012-12-15T08:33:19Z</time>
      </trkpt>
      <trkpt lat="47.29162" lon="4.92959">
        <ele>625</ele>
        <time>2012-12-15T08:33:22Z</time>
      </trkpt>
      <trkpt lat="47.29164" lon="4.92965">
        <ele>626</ele>
        <time>2012-12-15T08:33:25Z</time>
      </trkpt>
      <trkpt lat="47.29167" lon="4.92971">
        <ele>626</ele>
        <time>2012-12-15T08:33:28Z</time>
      </trkpt>
      <trkpt lat="47.29168" lon="4.92978">
        <ele>627</ele>
        <time>2012-12-15T08:33:31Z</time>
      </trkpt>
      <trkpt lat="47.29172" lon="4.92983">
        <ele>627</ele>
        <time>2012-12-15T08:33:34Z</time>
      </trkpt>
      <trkpt lat="47.29175" lon="4.92989">
        <ele>627</ele>
        <time>2012-12-15T08:33:37Z</time>
      </trkpt>
      <trkpt lat="47.29178" lon="4.92995">
        <ele>627</ele>
        <time>2012-12-15T08:33:40Z</time>
      </trkpt>
      <trkpt lat="47.2918" lon="4.93001">
        <ele>627</ele>
        <time>2012-12-15T08:33:43Z</time>
      </trkpt>
      <trkpt lat="47.29183" lon="4.93007">
        <ele>626</ele>
        <time>2012-12-15T08:33:46Z</time>
      </trkpt>
      <trkpt lat="47.29186" lon="4.93014">
        <ele>627</ele>
        <time>2012-12-15T08:33:49Z</time>
      </trkpt>
      <trkpt lat="47.29189" lon="4.93019">
        <ele>628</ele>
        <time>2012-12-15T08:33:52Z</time>
      </trkpt>
      <trkpt lat="47.29192" lon="4.93025">
        <ele>627</ele>
        <time>2012-12-15T08:33:55Z</time>
      </trkpt>
      <trkpt lat="47.29194" lon="4.93031">
        <ele>627</ele>
        <time>2012-12-15T08:33:58Z</time>
      </trkpt>
      <trkpt lat="47.29197" lon="4.93037">
        <ele>627</ele>
        <time>2012-12-15T08:34:01Z</time>
      </trkpt>
      <trkpt lat="47.292" lon="4.93042">
        <ele>627</ele>
        <time>2012-12-15T08:34:04Z</time>
      </trkpt>
      <trkpt lat="47.29203" lon="4.9305">
        <ele>626</ele>
        <time>2012-12-15T08:34:08Z</time>
      </trkpt>
      <trkpt lat="47.29205" lon="4.93056">
        <ele>625</ele>
        <time>2012-12-15T08:34:11Z</time>
      </trkpt>
      <trkpt lat="47.29208" lon="4.93062">
        <ele>625</ele>
        <time>2012-12-15T08:34:14Z</time>
      </trkpt>
      <trkpt lat="47.29211" lon="4.93069">
        <ele>624</ele>
        <time>2012-12-15T08:34:17Z</time>
      </trkpt>
      <trkpt lat="47.29215" lon="4.93075">
        <ele>623</ele>
        <time>2012-12-15T08:34:20Z</time>
      </trkpt>
      <trkpt lat="47.29218" lon="4.93081">
        <ele>622</ele>
        <time>2012-12-15T08:34:23Z</time>
      </trkpt>
      <trkpt lat="47.2922" lon="4.93087">
        <ele>623</ele>
        <time>2012-12-15T08:34:26Z</time>
      </trkpt>
      <trkpt lat="47.29224" lon="4.93092">
        <ele>623</ele>
        <time>2012-12-15T08:34:29Z</time>
      </trkpt>
      <trkpt lat="47.29227" lon="4.93098">
        <ele>623</ele>
        <time>2012-12-15T08:34:32Z</time>
      </trkpt>
      <trkpt lat="47.29231" lon="4.93104">
        <ele>623</ele>
        <time>2012-12-15T08:34:36Z</time>
      </trkpt>
      <trkpt lat="47.29234" lon="4.93109">
        <ele>623</ele>
        <time>2012-12-15T08:34:39Z</time>
      </trkpt>
      <trkpt lat="47.29238" lon="4.93114">
        <ele>623</ele>
        <time>2012-12-15T08:34:42Z</time>
      </trkpt>
      <trkpt lat="47.29241" lon="4.93119">
        <ele>622</ele>
        <time>2012-12-15T08:34:45Z</time>
      </trkpt>
      <trkpt lat="47.29244" lon="4.93124">
        <ele>623</ele>
        <time>2012-12-15T08:34:48Z</time>
      </trkpt>
      <trkpt lat="47.29248" lon="4.93129">
        <ele>621</ele>
        <time>2012-12-15T08:34:51Z</time>
      </trkpt>
      <trkpt lat="47.29251" lon="4.93134">
        <ele>620</ele>
        <time>2012-12-15T08:34:54Z</time>
      </trkpt>
      <trkpt lat="47.29255" lon="4.93141">
        <ele>618</ele>
        <time>2012-12-15T08:34:58Z</time>
      </trkpt>
      <trkpt lat="47.29258" lon="4.93146">
        <ele>618</ele>
        <time>2012-12-15T08:35:01Z</time>
      </trkpt>
      <trkpt lat="47.29262" lon="4.93151">
        <ele>616</ele>
        <time>2012-12-15T08:35:05Z</time>
      </trkpt>
      <trkpt lat="47.29267" lon="4.93157">
        <ele>616</ele>
        <time>2012-12-15T08:35:09Z</time>
      </trkpt>
      <trkpt lat="47.2927" lon="4.93162">
        <ele>616</ele>
        <time>2012-12-15T08:35:13Z</time>
      </trkpt>
      <trkpt lat="47.29274" lon="4.93168">
        <ele>615</ele>
        <time>2012-12-15T08:35:16Z</time>
      </trkpt>
      <trkpt lat="47.29278" lon="4.93173">
        <ele>616</ele>
        <time>2012-12-15T08:35:19Z</time>
      </trkpt>
      <trkpt lat="47.2928" lon="4.93178">
        <ele>617</ele>
        <time>2012-12-15T08:35:22Z</time>
      </trkpt>
      <trkpt lat="47.29284" lon="4.93184">
        <ele>617</ele>
        <time>2012-12-15T08:35:25Z</time>
      </trkpt>
      <trkpt lat="47.29288" lon="4.93191">
        <ele>617</ele>
        <time>2012-12-15T08:35:29Z</time>
      </trkpt>
      <trkpt lat="47.29291" lon="4.93195">
        <ele>617</ele>
        <time>2012-12-15T08:35:32Z</time>
      </trkpt>
      <trkpt lat="47.29295" lon="4.93201">
        <ele>617</ele>
        <time>2012-12-15T08:35:36Z</time>
      </trkpt>
      <trkpt lat="47.29299" lon="4.93206">
        <ele>616</ele>
        <time>2012-12-15T08:35:39Z</time>
      </trkpt>
      <trkpt lat="47.29302" lon="4.93212">
        <ele>616</ele>
        <time>2012-12-15T08:35:43Z</time>
      </trkpt>
      <trkpt lat="47.29306" lon="4.93216">
        <ele>616</ele>
        <time>2012-12-15T08:35:47Z</time>
      </trkpt>
      <trkpt lat="47.2931" lon="4.93223">
        <ele>616</ele>
        <time>2012-12-15T08:35:50Z</time>
      </trkpt>
      <trkpt lat="47.29313" lon="4.93229">
        <ele>616</ele>
        <time>2012-12-15T08:35:53Z</time>
      </trkpt>
      <trkpt lat="47.29317" lon="4.93235">
        <ele>616</ele>
        <time>2012-12-15T08:35:56Z</time>
      </trkpt>
      <trkpt lat="47.29321" lon="4.93239">
        <ele>617</ele>
        <time>2012-12-15T08:35:59Z</time>
      </trkpt>
      <trkpt lat="47.29324" lon="4.93244">
        <ele>618</ele>
        <time>2012-12-15T08:36:02Z</time>
      </trkpt>
      <trkpt lat="47.2933" lon="4.93248">
        <ele>618</ele>
        <time>2012-12-15T08:36:06Z</time>
      </trkpt>
      <trkpt lat="47.29334" lon="4.9325">
        <ele>618</ele>
        <time>2012-12-15T08:36:09Z</time>
      </trkpt>
      <trkpt lat="47.29338" lon="4.93253">
        <ele>618</ele>
        <time>2012-12-15T08:36:12Z</time>
      </trkpt>
      <trkpt lat="47.29344" lon="4.93256">
        <ele>618</ele>
        <time>2012-12-15T08:36:16Z</time>
      </trkpt>
      <trkpt lat="47.2935" lon="4.93256">
        <ele>616</ele>
        <time>2012-12-15T08:36:19Z</time>
      </trkpt>
      <trkpt lat="47.29354" lon="4.9326">
        <ele>616</ele>
        <time>2012-12-15T08:36:24Z</time>
      </trkpt>
      <trkpt lat="47.29357" lon="4.93265">
        <ele>617</ele>
        <time>2012-12-15T08:36:31Z</time>
      </trkpt>
      <trkpt lat="47.29361" lon="4.93268">
        <ele>615</ele>
        <time>2012-12-15T08:36:33Z</time>
      </trkpt>
      <trkpt lat="47.29361" lon="4.93268">
        <ele>615</ele>
        <time>2012-12-15T08:36:33Z</time>
      </trkpt>
      <trkpt lat="47.29361" lon="4.93268">
        <ele>615</ele>
        <time>2012-12-15T08:36:34Z</time>
      </trkpt>
      <trkpt lat="47.29365" lon="4.93272">
        <ele>615</ele>
        <time>2012-12-15T08:36:37Z</time>
      </trkpt>
      <trkpt lat="47.2937" lon="4.93277">
        <ele>615</ele>
        <time>2012-12-15T08:36:41Z</time>
      </trkpt>
      <trkpt lat="47.2937" lon="4.93277">
        <ele>615</ele>
        <time>2012-12-15T08:36:41Z</time>
      </trkpt>
      <trkpt lat="47.2937" lon="4.93277">
        <ele>615</ele>
        <time>2012-12-15T08:36:42Z</time>
      </trkpt>
      <trkpt lat="47.29374" lon="4.93282">
        <ele>617</ele>
        <time>2012-12-15T08:36:49Z</time>
      </trkpt>
      <trkpt lat="47.29379" lon="4.9329">
        <ele>617</ele>
        <time>2012-12-15T08:36:52Z</time>
      </trkpt>
      <trkpt lat="47.29382" lon="4.93295">
        <ele>616</ele>
        <time>2012-12-15T08:36:55Z</time>
      </trkpt>
      <trkpt lat="47.29385" lon="4.93301">
        <ele>615</ele>
        <time>2012-12-15T08:36:58Z</time>
      </trkpt>
      <trkpt lat="47.29388" lon="4.93307">
        <ele>616</ele>
        <time>2012-12-15T08:37:02Z</time>
      </trkpt>
      <trkpt lat="47.29391" lon="4.93312">
        <ele>615</ele>
        <time>2012-12-15T08:37:06Z</time>
      </trkpt>
      <trkpt lat="47.29395" lon="4.93317">
        <ele>613</ele>
        <time>2012-12-15T08:37:10Z</time>
      </trkpt>
      <trkpt lat="47.29399" lon="4.9332">
        <ele>613</ele>
        <time>2012-12-15T08:37:13Z</time>
      </trkpt>
      <trkpt lat="47.29403" lon="4.93326">
        <ele>613</ele>
        <time>2012-12-15T08:37:21Z</time>
      </trkpt>
      <trkpt lat="47.29408" lon="4.93331">
        <ele>612</ele>
        <time>2012-12-15T08:37:24Z</time>
      </trkpt>
      <trkpt lat="47.29413" lon="4.93334">
        <ele>613</ele>
        <time>2012-12-15T08:37:28Z</time>
      </trkpt>
      <trkpt lat="47.29417" lon="4.93339">
        <ele>613</ele>
        <time>2012-12-15T08:37:31Z</time>
      </trkpt>
      <trkpt lat="47.29422" lon="4.93339">
        <ele>610</ele>
        <time>2012-12-15T08:37:37Z</time>
      </trkpt>
      <trkpt lat="47.29426" lon="4.93343">
        <ele>609</ele>
        <time>2012-12-15T08:37:42Z</time>
      </trkpt>
      <trkpt lat="47.29431" lon="4.93346">
        <ele>608</ele>
        <time>2012-12-15T08:37:46Z</time>
      </trkpt>
      <trkpt lat="47.29434" lon="4.93353">
        <ele>606</ele>
        <time>2012-12-15T08:37:49Z</time>
      </trkpt>
      <trkpt lat="47.29439" lon="4.93356">
        <ele>603</ele>
        <time>2012-12-15T08:37:56Z</time>
      </trkpt>
      <trkpt lat="47.29444" lon="4.93358">
        <ele>603</ele>
        <time>2012-12-15T08:38:00Z</time>
      </trkpt>
      <trkpt lat="47.29449" lon="4.93364">
        <ele>602</ele>
        <time>2012-12-15T08:38:06Z</time>
      </trkpt>
      <trkpt lat="47.29453" lon="4.93367">
        <ele>601</ele>
        <time>2012-12-15T08:38:11Z</time>
      </trkpt>
      <trkpt lat="47.29457" lon="4.93375">
        <ele>602</ele>
        <time>2012-12-15T08:38:20Z</time>
      </trkpt>
      <trkpt lat="47.2946" lon="4.93382">
        <ele>601</ele>
        <time>2012-12-15T08:38:24Z</time>
      </trkpt>
      <trkpt lat="47.29464" lon="4.93387">
        <ele>600</ele>
        <time>2012-12-15T08:38:28Z</time>
      </trkpt>
      <trkpt lat="47.29467" lon="4.93394">
        <ele>600</ele>
        <time>2012-12-15T08:38:32Z</time>
      </trkpt>
      <trkpt lat="47.29471" lon="4.934">
        <ele>599</ele>
        <time>2012-12-15T08:38:35Z</time>
      </trkpt>
      <trkpt lat="47.29475" lon="4.93404">
        <ele>599</ele>
        <time>2012-12-15T08:38:37Z</time>
      </trkpt>
      <trkpt lat="47.29478" lon="4.93409">
        <ele>599</ele>
        <time>2012-12-15T08:38:41Z</time>
      </trkpt>
      <trkpt lat="47.29484" lon="4.93411">
        <ele>595</ele>
        <time>2012-12-15T08:38:45Z</time>
      </trkpt>
      <trkpt lat="47.29488" lon="4.93417">
        <ele>593</ele>
        <time>2012-12-15T08:38:49Z</time>
      </trkpt>
      <trkpt lat="47.2949" lon="4.93423">
        <ele>593</ele>
        <time>2012-12-15T08:38:53Z</time>
      </trkpt>
      <trkpt lat="47.29495" lon="4.93428">
        <ele>593</ele>
        <time>2012-12-15T08:38:57Z</time>
      </trkpt>
      <trkpt lat="47.29499" lon="4.93431">
        <ele>593</ele>
        <time>2012-12-15T08:39:00Z</time>
      </trkpt>
      <trkpt lat="47.29552" lon="4.93562">
        <ele>553</ele>
        <time>2012-12-15T08:40:30Z</time>
      </trkpt>
      <trkpt lat="47.29547" lon="4.93572">
        <ele>559</ele>
        <time>2012-12-15T08:40:31Z</time>
      </trkpt>
      <trkpt lat="47.29549" lon="4.9358">
        <ele>560</ele>
        <time>2012-12-15T08:40:34Z</time>
      </trkpt>
      <trkpt lat="47.29556" lon="4.93581">
        <ele>566</ele>
        <time>2012-12-15T08:40:38Z</time>
      </trkpt>
      <trkpt lat="47.2956" lon="4.93578">
        <ele>564</ele>
        <time>2012-12-15T08:40:40Z</time>
      </trkpt>
      <trkpt lat="47.29565" lon="4.9358">
        <ele>565</ele>
        <time>2012-12-15T08:40:44Z</time>
      </trkpt>
      <trkpt lat="47.2957" lon="4.9358">
        <ele>568</ele>
        <time>2012-12-15T08:40:48Z</time>
      </trkpt>
      <trkpt lat="47.29575" lon="4.93581">
        <ele>568</ele>
        <time>2012-12-15T08:40:52Z</time>
      </trkpt>
      <trkpt lat="47.29581" lon="4.93578">
        <ele>569</ele>
        <time>2012-12-15T08:40:55Z</time>
      </trkpt>
      <trkpt lat="47.29585" lon="4.93581">
        <ele>566</ele>
        <time>2012-12-15T08:40:58Z</time>
      </trkpt>
      <trkpt lat="47.2959" lon="4.93583">
        <ele>566</ele>
        <time>2012-12-15T08:41:02Z</time>
      </trkpt>
      <trkpt lat="47.29596" lon="4.93583">
        <ele>569</ele>
        <time>2012-12-15T08:41:07Z</time>
      </trkpt>
      <trkpt lat="47.296" lon="4.9358">
        <ele>571</ele>
        <time>2012-12-15T08:41:11Z</time>
      </trkpt>
      <trkpt lat="47.29606" lon="4.93577">
        <ele>572</ele>
        <time>2012-12-15T08:41:17Z</time>
      </trkpt>
      <trkpt lat="47.2961" lon="4.93573">
        <ele>574</ele>
        <time>2012-12-15T08:41:20Z</time>
      </trkpt>
      <trkpt lat="47.29615" lon="4.93572">
        <ele>574</ele>
        <time>2012-12-15T08:41:26Z</time>
      </trkpt>
      <trkpt lat="47.297" lon="4.93486">
        <ele>562</ele>
        <time>2012-12-15T08:43:45Z</time>
      </trkpt>
      <trkpt lat="47.29695" lon="4.93489">
        <ele>580</ele>
        <time>2012-12-15T08:43:49Z</time>
      </trkpt>
      <trkpt lat="47.29704" lon="4.93481">
        <ele>581</ele>
        <time>2012-12-15T08:44:57Z</time>
      </trkpt>
      <trkpt lat="47.29705" lon="4.93487">
        <ele>584</ele>
        <time>2012-12-15T08:45:06Z</time>
      </trkpt>
      <trkpt lat="47.29708" lon="4.93496">
        <ele>589</ele>
        <time>2012-12-15T08:45:21Z</time>
      </trkpt>
      <trkpt lat="47.29713" lon="4.93497">
        <ele>589</ele>
        <time>2012-12-15T08:45:26Z</time>
      </trkpt>
      <trkpt lat="47.29718" lon="4.93496">
        <ele>589</ele>
        <time>2012-12-15T08:45:30Z</time>
      </trkpt>
      <trkpt lat="47.29723" lon="4.935">
        <ele>594</ele>
        <time>2012-12-15T08:45:34Z</time>
      </trkpt>
      <trkpt lat="47.29728" lon="4.93501">
        <ele>594</ele>
        <time>2012-12-15T08:45:37Z</time>
      </trkpt>
      <trkpt lat="47.29732" lon="4.93504">
        <ele>594</ele>
        <time>2012-12-15T08:45:40Z</time>
      </trkpt>
      <trkpt lat="47.29739" lon="4.93508">
        <ele>594</ele>
        <time>2012-12-15T08:45:43Z</time>
      </trkpt>
      <trkpt lat="47.29744" lon="4.93508">
        <ele>596</ele>
        <time>2012-12-15T08:45:46Z</time>
      </trkpt>
      <trkpt lat="47.29749" lon="4.93509">
        <ele>597</ele>
        <time>2012-12-15T08:45:48Z</time>
      </trkpt>
      <trkpt lat="47.29755" lon="4.93509">
        <ele>598</ele>
        <time>2012-12-15T08:45:51Z</time>
      </trkpt>
      <trkpt lat="47.29761" lon="4.93508">
        <ele>600</ele>
        <time>2012-12-15T08:45:56Z</time>
      </trkpt>
      <trkpt lat="47.29767" lon="4.93506">
        <ele>600</ele>
        <time>2012-12-15T08:46:03Z</time>
      </trkpt>
      <trkpt lat="47.29773" lon="4.93503">
        <ele>599</ele>
        <time>2012-12-15T08:46:07Z</time>
      </trkpt>
      <trkpt lat="47.29778" lon="4.935">
        <ele>598</ele>
        <time>2012-12-15T08:46:10Z</time>
      </trkpt>
      <trkpt lat="47.29783" lon="4.93497">
        <ele>598</ele>
        <time>2012-12-15T08:46:12Z</time>
      </trkpt>
      <trkpt lat="47.29788" lon="4.93497">
        <ele>596</ele>
        <time>2012-12-15T08:46:15Z</time>
      </trkpt>
      <trkpt lat="47.29792" lon="4.93494">
        <ele>594</ele>
        <time>2012-12-15T08:46:18Z</time>
      </trkpt>
      <trkpt lat="47.29799" lon="4.93493">
        <ele>594</ele>
        <time>2012-12-15T08:46:22Z</time>
      </trkpt>
      <trkpt lat="47.29804" lon="4.93487">
        <ele>591</ele>
        <time>2012-12-15T08:46:25Z</time>
      </trkpt>
      <trkpt lat="47.29809" lon="4.93484">
        <ele>592</ele>
        <time>2012-12-15T08:46:29Z</time>
      </trkpt>
      <trkpt lat="47.29813" lon="4.93479">
        <ele>591</ele>
        <time>2012-12-15T08:46:32Z</time>
      </trkpt>
      <trkpt lat="47.29817" lon="4.93476">
        <ele>591</ele>
        <time>2012-12-15T08:46:36Z</time>
      </trkpt>
      <trkpt lat="47.29821" lon="4.93471">
        <ele>591</ele>
        <time>2012-12-15T08:46:40Z</time>
      </trkpt>
      <trkpt lat="47.29827" lon="4.93466">
        <ele>590</ele>
        <time>2012-12-15T08:46:44Z</time>
      </trkpt>
      <trkpt lat="47.29832" lon="4.93464">
        <ele>587</ele>
        <time>2012-12-15T08:46:48Z</time>
      </trkpt>
      <trkpt lat="47.29836" lon="4.93464">
        <ele>589</ele>
        <time>2012-12-15T08:46:52Z</time>
      </trkpt>
      <trkpt lat="47.29841" lon="4.93463">
        <ele>588</ele>
        <time>2012-12-15T08:46:55Z</time>
      </trkpt>
      <trkpt lat="47.29846" lon="4.93459">
        <ele>589</ele>
        <time>2012-12-15T08:46:59Z</time>
      </trkpt>
      <trkpt lat="47.29851" lon="4.93456">
        <ele>588</ele>
        <time>2012-12-15T08:47:02Z</time>
      </trkpt>
      <trkpt lat="47.29856" lon="4.93451">
        <ele>586</ele>
        <time>2012-12-15T08:47:05Z</time>
      </trkpt>
      <trkpt lat="47.2986" lon="4.93449">
        <ele>585</ele>
        <time>2012-12-15T08:47:08Z</time>
      </trkpt>
      <trkpt lat="47.29864" lon="4.93444">
        <ele>585</ele>
        <time>2012-12-15T08:47:11Z</time>
      </trkpt>
      <trkpt lat="47.29867" lon="4.93438">
        <ele>585</ele>
        <time>2012-12-15T08:47:13Z</time>
      </trkpt>
      <trkpt lat="47.29873" lon="4.93436">
        <ele>583</ele>
        <time>2012-12-15T08:47:17Z</time>
      </trkpt>
      <trkpt lat="47.29878" lon="4.93434">
        <ele>583</ele>
        <time>2012-12-15T08:47:20Z</time>
      </trkpt>
      <trkpt lat="47.29883" lon="4.93434">
        <ele>584</ele>
        <time>2012-12-15T08:47:23Z</time>
      </trkpt>
      <trkpt lat="47.29889" lon="4.9343">
        <ele>581</ele>
        <time>2012-12-15T08:47:28Z</time>
      </trkpt>
      <trkpt lat="47.29895" lon="4.93424">
        <ele>575</ele>
        <time>2012-12-15T08:47:30Z</time>
      </trkpt>
      <trkpt lat="47.29898" lon="4.93419">
        <ele>574</ele>
        <time>2012-12-15T08:47:32Z</time>
      </trkpt>
      <trkpt lat="47.29902" lon="4.93412">
        <ele>573</ele>
        <time>2012-12-15T08:47:35Z</time>
      </trkpt>
      <trkpt lat="47.29905" lon="4.93404">
        <ele>572</ele>
        <time>2012-12-15T08:47:38Z</time>
      </trkpt>
      <trkpt lat="47.29907" lon="4.93398">
        <ele>572</ele>
        <time>2012-12-15T08:47:40Z</time>
      </trkpt>
      <trkpt lat="47.2991" lon="4.9339">
        <ele>570</ele>
        <time>2012-12-15T08:47:43Z</time>
      </trkpt>
      <trkpt lat="47.29914" lon="4.93382">
        <ele>570</ele>
        <time>2012-12-15T08:47:46Z</time>
      </trkpt>
      <trkpt lat="47.29916" lon="4.93375">
        <ele>570</ele>
        <time>2012-12-15T08:47:49Z</time>
      </trkpt>
      <trkpt lat="47.29918" lon="4.93369">
        <ele>570</ele>
        <time>2012-12-15T08:47:52Z</time>
      </trkpt>
      <trkpt lat="47.29921" lon="4.93362">
        <ele>570</ele>
        <time>2012-12-15T08:47:54Z</time>
      </trkpt>
      <trkpt lat="47.29924" lon="4.93356">
        <ele>566</ele>
        <time>2012-12-15T08:47:57Z</time>
      </trkpt>
      <trkpt lat="47.29924" lon="4.93348">
        <ele>565</ele>
        <time>2012-12-15T08:48:02Z</time>
      </trkpt>
      <trkpt lat="47.29928" lon="4.93342">
        <ele>564</ele>
        <time>2012-12-15T08:48:06Z</time>
      </trkpt>
      <trkpt lat="47.29931" lon="4.93336">
        <ele>565</ele>
        <time>2012-12-15T08:48:10Z</time>
      </trkpt>
      <trkpt lat="47.29932" lon="4.93328">
        <ele>565</ele>
        <time>2012-12-15T08:48:14Z</time>
      </trkpt>
      <trkpt lat="47.29934" lon="4.93319">
        <ele>564</ele>
        <time>2012-12-15T08:48:19Z</time>
      </trkpt>
      <trkpt lat="47.29938" lon="4.93312">
        <ele>565</ele>
        <time>2012-12-15T08:48:23Z</time>
      </trkpt>
      <trkpt lat="47.29939" lon="4.93305">
        <ele>566</ele>
        <time>2012-12-15T08:48:26Z</time>
      </trkpt>
      <trkpt lat="47.29942" lon="4.933">
        <ele>565</ele>
        <time>2012-12-15T08:48:29Z</time>
      </trkpt>
      <trkpt lat="47.29946" lon="4.93292">
        <ele>565</ele>
        <time>2012-12-15T08:48:33Z</time>
      </trkpt>
      <trkpt lat="47.2995" lon="4.93288">
        <ele>564</ele>
        <time>2012-12-15T08:48:35Z</time>
      </trkpt>
      <trkpt lat="47.29954" lon="4.93283">
        <ele>563</ele>
        <time>2012-12-15T08:48:38Z</time>
      </trkpt>
      <trkpt lat="47.29958" lon="4.93278">
        <ele>562</ele>
        <time>2012-12-15T08:48:41Z</time>
      </trkpt>
      <trkpt lat="47.29962" lon="4.93272">
        <ele>561</ele>
        <time>2012-12-15T08:48:44Z</time>
      </trkpt>
      <trkpt lat="47.29965" lon="4.93266">
        <ele>560</ele>
        <time>2012-12-15T08:48:45Z</time>
      </trkpt>
      <trkpt lat="47.29969" lon="4.93264">
        <ele>560</ele>
        <time>2012-12-15T08:48:48Z</time>
      </trkpt>
      <trkpt lat="47.29975" lon="4.93257">
        <ele>557</ele>
        <time>2012-12-15T08:48:50Z</time>
      </trkpt>
      <trkpt lat="47.2998" lon="4.93258">
        <ele>554</ele>
        <time>2012-12-15T08:48:53Z</time>
      </trkpt>
      <trkpt lat="47.29983" lon="4.93264">
        <ele>551</ele>
        <time>2012-12-15T08:49:02Z</time>
      </trkpt>
      <trkpt lat="47.29982" lon="4.93271">
        <ele>548</ele>
        <time>2012-12-15T08:50:27Z</time>
      </trkpt>
      <trkpt lat="47.29983" lon="4.93279">
        <ele>548</ele>
        <time>2012-12-15T08:50:33Z</time>
      </trkpt>
      <trkpt lat="47.29982" lon="4.93286">
        <ele>548</ele>
        <time>2012-12-15T08:50:36Z</time>
      </trkpt>
      <trkpt lat="47.29982" lon="4.93292">
        <ele>546</ele>
        <time>2012-12-15T08:50:39Z</time>
      </trkpt>
      <trkpt lat="47.2998" lon="4.93299">
        <ele>545</ele>
        <time>2012-12-15T08:50:44Z</time>
      </trkpt>
      <trkpt lat="47.29978" lon="4.93306">
        <ele>544</ele>
        <time>2012-12-15T08:50:47Z</time>
      </trkpt>
      <trkpt lat="47.29975" lon="4.93311">
        <ele>542</ele>
        <time>2012-12-15T08:50:50Z</time>
      </trkpt>
      <trkpt lat="47.29972" lon="4.93317">
        <ele>541</ele>
        <time>2012-12-15T08:50:53Z</time>
      </trkpt>
      <trkpt lat="47.2997" lon="4.93325">
        <ele>541</ele>
        <time>2012-12-15T08:50:57Z</time>
      </trkpt>
      <trkpt lat="47.29969" lon="4.93332">
        <ele>542</ele>
        <time>2012-12-15T08:51:02Z</time>
      </trkpt>
      <trkpt lat="47.2997" lon="4.93342">
        <ele>542</ele>
        <time>2012-12-15T08:51:05Z</time>
      </trkpt>
      <trkpt lat="47.2997" lon="4.9335">
        <ele>541</ele>
        <time>2012-12-15T08:51:08Z</time>
      </trkpt>
      <trkpt lat="47.2997" lon="4.93359">
        <ele>540</ele>
        <time>2012-12-15T08:51:10Z</time>
      </trkpt>
      <trkpt lat="47.29968" lon="4.93365">
        <ele>540</ele>
        <time>2012-12-15T08:51:13Z</time>
      </trkpt>
      <trkpt lat="47.29963" lon="4.93369">
        <ele>540</ele>
        <time>2012-12-15T08:51:17Z</time>
      </trkpt>
      <trkpt lat="47.29961" lon="4.93377">
        <ele>541</ele>
        <time>2012-12-15T08:51:20Z</time>
      </trkpt>
      <trkpt lat="47.29961" lon="4.93385">
        <ele>539</ele>
        <time>2012-12-15T08:51:23Z</time>
      </trkpt>
      <trkpt lat="47.2996" lon="4.93393">
        <ele>539</ele>
        <time>2012-12-15T08:51:26Z</time>
      </trkpt>
      <trkpt lat="47.29959" lon="4.934">
        <ele>540</ele>
        <time>2012-12-15T08:51:29Z</time>
      </trkpt>
      <trkpt lat="47.29958" lon="4.93406">
        <ele>541</ele>
        <time>2012-12-15T08:51:32Z</time>
      </trkpt>
      <trkpt lat="47.29954" lon="4.93413">
        <ele>542</ele>
        <time>2012-12-15T08:51:36Z</time>
      </trkpt>
      <trkpt lat="47.2995" lon="4.93418">
        <ele>542</ele>
        <time>2012-12-15T08:51:39Z</time>
      </trkpt>
      <trkpt lat="47.29948" lon="4.93426">
        <ele>542</ele>
        <time>2012-12-15T08:51:43Z</time>
      </trkpt>
      <trkpt lat="47.29948" lon="4.93435">
        <ele>541</ele>
        <time>2012-12-15T08:51:46Z</time>
      </trkpt>
      <trkpt lat="47.29946" lon="4.93441">
        <ele>540</ele>
        <time>2012-12-15T08:51:49Z</time>
      </trkpt>
      <trkpt lat="47.29941" lon="4.93446">
        <ele>541</ele>
        <time>2012-12-15T08:51:52Z</time>
      </trkpt>
      <trkpt lat="47.29938" lon="4.93451">
        <ele>543</ele>
        <time>2012-12-15T08:51:56Z</time>
      </trkpt>
      <trkpt lat="47.29936" lon="4.93458">
        <ele>543</ele>
        <time>2012-12-15T08:51:59Z</time>
      </trkpt>
      <trkpt lat="47.29933" lon="4.93466">
        <ele>542</ele>
        <time>2012-12-15T08:52:03Z</time>
      </trkpt>
      <trkpt lat="47.29929" lon="4.93469">
        <ele>542</ele>
        <time>2012-12-15T08:52:06Z</time>
      </trkpt>
      <trkpt lat="47.29924" lon="4.93473">
        <ele>541</ele>
        <time>2012-12-15T08:52:09Z</time>
      </trkpt>
      <trkpt lat="47.29922" lon="4.93481">
        <ele>543</ele>
        <time>2012-12-15T08:52:12Z</time>
      </trkpt>
      <trkpt lat="47.29918" lon="4.93486">
        <ele>539</ele>
        <time>2012-12-15T08:52:16Z</time>
      </trkpt>
      <trkpt lat="47.29912" lon="4.93489">
        <ele>541</ele>
        <time>2012-12-15T08:52:19Z</time>
      </trkpt>
      <trkpt lat="47.29909" lon="4.93494">
        <ele>542</ele>
        <time>2012-12-15T08:52:21Z</time>
      </trkpt>
      <trkpt lat="47.29904" lon="4.93498">
        <ele>541</ele>
        <time>2012-12-15T08:52:24Z</time>
      </trkpt>
      <trkpt lat="47.29898" lon="4.93502">
        <ele>540</ele>
        <time>2012-12-15T08:52:28Z</time>
      </trkpt>
      <trkpt lat="47.29894" lon="4.93506">
        <ele>540</ele>
        <time>2012-12-15T08:52:31Z</time>
      </trkpt>
      <trkpt lat="47.29888" lon="4.9351">
        <ele>542</ele>
        <time>2012-12-15T08:52:35Z</time>
      </trkpt>
      <trkpt lat="47.29884" lon="4.93515">
        <ele>542</ele>
        <time>2012-12-15T08:52:39Z</time>
      </trkpt>
      <trkpt lat="47.29879" lon="4.93519">
        <ele>543</ele>
        <time>2012-12-15T08:52:42Z</time>
      </trkpt>
      <trkpt lat="47.29873" lon="4.93524">
        <ele>543</ele>
        <time>2012-12-15T08:52:45Z</time>
      </trkpt>
      <trkpt lat="47.29869" lon="4.93528">
        <ele>543</ele>
        <time>2012-12-15T08:52:49Z</time>
      </trkpt>
      <trkpt lat="47.29865" lon="4.93532">
        <ele>544</ele>
        <time>2012-12-15T08:52:53Z</time>
      </trkpt>
      <trkpt lat="47.2986" lon="4.93536">
        <ele>544</ele>
        <time>2012-12-15T08:52:56Z</time>
      </trkpt>
      <trkpt lat="47.29856" lon="4.93541">
        <ele>544</ele>
        <time>2012-12-15T08:52:59Z</time>
      </trkpt>
      <trkpt lat="47.29851" lon="4.93549">
        <ele>545</ele>
        <time>2012-12-15T08:53:03Z</time>
      </trkpt>
      <trkpt lat="47.29846" lon="4.93554">
        <ele>544</ele>
        <time>2012-12-15T08:53:06Z</time>
      </trkpt>
      <trkpt lat="47.29843" lon="4.93562">
        <ele>543</ele>
        <time>2012-12-15T08:53:11Z</time>
      </trkpt>
      <trkpt lat="47.29838" lon="4.93568">
        <ele>543</ele>
        <time>2012-12-15T08:53:15Z</time>
      </trkpt>
      <trkpt lat="47.29834" lon="4.9357">
        <ele>542</ele>
        <time>2012-12-15T08:53:18Z</time>
      </trkpt>
      <trkpt lat="47.2983" lon="4.93575">
        <ele>542</ele>
        <time>2012-12-15T08:53:22Z</time>
      </trkpt>
      <trkpt lat="47.29826" lon="4.93578">
        <ele>541</ele>
        <time>2012-12-15T08:53:24Z</time>
      </trkpt>
      <trkpt lat="47.29822" lon="4.93582">
        <ele>542</ele>
        <time>2012-12-15T08:53:26Z</time>
      </trkpt>
      <trkpt lat="47.29818" lon="4.9359">
        <ele>542</ele>
        <time>2012-12-15T08:53:30Z</time>
      </trkpt>
      <trkpt lat="47.29813" lon="4.93597">
        <ele>540</ele>
        <time>2012-12-15T08:53:33Z</time>
      </trkpt>
      <trkpt lat="47.2981" lon="4.93603">
        <ele>541</ele>
        <time>2012-12-15T08:53:36Z</time>
      </trkpt>
      <trkpt lat="47.29806" lon="4.93607">
        <ele>541</ele>
        <time>2012-12-15T08:53:39Z</time>
      </trkpt>
      <trkpt lat="47.29802" lon="4.93611">
        <ele>541</ele>
        <time>2012-12-15T08:53:41Z</time>
      </trkpt>
      <trkpt lat="47.29798" lon="4.93614">
        <ele>540</ele>
        <time>2012-12-15T08:53:46Z</time>
      </trkpt>
      <trkpt lat="47.29793" lon="4.93618">
        <ele>544</ele>
        <time>2012-12-15T08:54:12Z</time>
      </trkpt>
      <trkpt lat="47.29793" lon="4.93618">
        <ele>544</ele>
        <time>2012-12-15T08:54:12Z</time>
      </trkpt>
      <trkpt lat="47.29793" lon="4.93618">
        <ele>545</ele>
        <time>2012-12-15T08:54:13Z</time>
      </trkpt>
      <trkpt lat="47.29794" lon="4.93624">
        <ele>545</ele>
        <time>2012-12-15T08:55:40Z</time>
      </trkpt>
      <trkpt lat="47.2979" lon="4.93629">
        <ele>542</ele>
        <time>2012-12-15T08:55:47Z</time>
      </trkpt>
      <trkpt lat="47.2979" lon="4.93629">
        <ele>542</ele>
        <time>2012-12-15T08:55:47Z</time>
      </trkpt>
      <trkpt lat="47.2979" lon="4.93629">
        <ele>542</ele>
        <time>2012-12-15T08:56:02Z</time>
      </trkpt>
      <trkpt lat="47.2979" lon="4.93636">
        <ele>547</ele>
        <time>2012-12-15T09:02:07Z</time>
      </trkpt>
    </trkseg>
  </trk>
</gpx>